<?xml version="1.0" encoding="utf-8"?>
<gpx xmlns:xsi="http://www.w3.org/2001/XMLSchema-instance" xmlns:xsd="http://www.w3.org/2001/XMLSchema" version="1.1" creator="Shapelink.com" xmlns="http://www.topografix.com/GPX/1/1" xmlns:gpxtpx="http://www.garmin.com/xmlschemas/TrackPointExtension/v1">
  <metadata>
    <name>Cykling 14.85 km, 2017-07-21</name>
    <desc></desc>
    <author><name>Alexander Engvall</name></author> 
    <time>2017-07-21T12:58:00Z</time>
  </metadata>
  <trk>
    <name>Cykling 14.85 km, 2017-07-21</name>
    <trkseg>
      <trkpt lat="59.215563835378" lon="17.912706697724">
        <ele>39</ele>
        <time>2017-07-21T12:58:00Z</time>
      </trkpt>
      <trkpt lat="59.215550172881" lon="17.912894200827">
        <ele>34.4</ele>
        <time>2017-07-21T12:58:01Z</time>
      </trkpt>
      <trkpt lat="59.215537432393" lon="17.913060162447">
        <ele>34.4</ele>
        <time>2017-07-21T12:58:05Z</time>
      </trkpt>
      <trkpt lat="59.215522093516" lon="17.913236349985">
        <ele>34.4</ele>
        <time>2017-07-21T12:58:07Z</time>
      </trkpt>
      <trkpt lat="59.215473394677" lon="17.913481352922">
        <ele>34.4</ele>
        <time>2017-07-21T12:58:10Z</time>
      </trkpt>
      <trkpt lat="59.215379182121" lon="17.913962809258">
        <ele>34.4</ele>
        <time>2017-07-21T12:58:17Z</time>
      </trkpt>
      <trkpt lat="59.215310869636" lon="17.914359859861">
        <ele>34.4</ele>
        <time>2017-07-21T12:58:23Z</time>
      </trkpt>
      <trkpt lat="59.215148679871" lon="17.914647107574">
        <ele>34.4</ele>
        <time>2017-07-21T12:58:29Z</time>
      </trkpt>
      <trkpt lat="59.214995207282" lon="17.914830503546">
        <ele>34.4</ele>
        <time>2017-07-21T12:58:33Z</time>
      </trkpt>
      <trkpt lat="59.214951537583" lon="17.914867383906">
        <ele>34.4</ele>
        <time>2017-07-21T12:58:34Z</time>
      </trkpt>
      <trkpt lat="59.2148461771" lon="17.914951622001">
        <ele>34.4</ele>
        <time>2017-07-21T12:58:37Z</time>
      </trkpt>
      <trkpt lat="59.214692285416" lon="17.91503552482">
        <ele>34.4</ele>
        <time>2017-07-21T12:58:42Z</time>
      </trkpt>
      <trkpt lat="59.214569742038" lon="17.915106268056">
        <ele>34.4</ele>
        <time>2017-07-21T12:58:45Z</time>
      </trkpt>
      <trkpt lat="59.214533280773" lon="17.915121271657">
        <ele>35.2</ele>
        <time>2017-07-21T12:58:46Z</time>
      </trkpt>
      <trkpt lat="59.214500759001" lon="17.915157984379">
        <ele>36</ele>
        <time>2017-07-21T12:58:47Z</time>
      </trkpt>
      <trkpt lat="59.214467734315" lon="17.915173742351">
        <ele>36.8</ele>
        <time>2017-07-21T12:58:48Z</time>
      </trkpt>
      <trkpt lat="59.2144438459" lon="17.915184135907">
        <ele>37.6</ele>
        <time>2017-07-21T12:58:49Z</time>
      </trkpt>
      <trkpt lat="59.214399673287" lon="17.9152048392">
        <ele>38.4</ele>
        <time>2017-07-21T12:58:50Z</time>
      </trkpt>
      <trkpt lat="59.21435248319" lon="17.915243479759">
        <ele>38.4</ele>
        <time>2017-07-21T12:58:51Z</time>
      </trkpt>
      <trkpt lat="59.214313674993" lon="17.915286478906">
        <ele>38.4</ele>
        <time>2017-07-21T12:58:52Z</time>
      </trkpt>
      <trkpt lat="59.21404235289" lon="17.915473227638">
        <ele>38.4</ele>
        <time>2017-07-21T12:58:58Z</time>
      </trkpt>
      <trkpt lat="59.213786453483" lon="17.915641787647">
        <ele>38.4</ele>
        <time>2017-07-21T12:59:04Z</time>
      </trkpt>
      <trkpt lat="59.213539103614" lon="17.915793500037">
        <ele>38.8</ele>
        <time>2017-07-21T12:59:10Z</time>
      </trkpt>
      <trkpt lat="59.213501049788" lon="17.915815628253">
        <ele>39.2</ele>
        <time>2017-07-21T12:59:11Z</time>
      </trkpt>
      <trkpt lat="59.213473892432" lon="17.915833900795">
        <ele>39.6</ele>
        <time>2017-07-21T12:59:12Z</time>
      </trkpt>
      <trkpt lat="59.21343885609" lon="17.915861058151">
        <ele>40</ele>
        <time>2017-07-21T12:59:13Z</time>
      </trkpt>
      <trkpt lat="59.213404155024" lon="17.915889388973">
        <ele>40.4</ele>
        <time>2017-07-21T12:59:14Z</time>
      </trkpt>
      <trkpt lat="59.213345062629" lon="17.915937249622">
        <ele>40.4</ele>
        <time>2017-07-21T12:59:16Z</time>
      </trkpt>
      <trkpt lat="59.213257052679" lon="17.915977901837">
        <ele>40.8</ele>
        <time>2017-07-21T12:59:19Z</time>
      </trkpt>
      <trkpt lat="59.213232577531" lon="17.915989971773">
        <ele>41.2</ele>
        <time>2017-07-21T12:59:20Z</time>
      </trkpt>
      <trkpt lat="59.213200391035" lon="17.916009166324">
        <ele>41.6</ele>
        <time>2017-07-21T12:59:21Z</time>
      </trkpt>
      <trkpt lat="59.213166109064" lon="17.916025846305">
        <ele>42</ele>
        <time>2017-07-21T12:59:22Z</time>
      </trkpt>
      <trkpt lat="59.213134257844" lon="17.916047806883">
        <ele>42.4</ele>
        <time>2017-07-21T12:59:23Z</time>
      </trkpt>
      <trkpt lat="59.213038452727" lon="17.91610924621">
        <ele>42.4</ele>
        <time>2017-07-21T12:59:26Z</time>
      </trkpt>
      <trkpt lat="59.212882046473" lon="17.916170853175">
        <ele>43</ele>
        <time>2017-07-21T12:59:31Z</time>
      </trkpt>
      <trkpt lat="59.212850362891" lon="17.916189209536">
        <ele>43.4</ele>
        <time>2017-07-21T12:59:32Z</time>
      </trkpt>
      <trkpt lat="59.212815326549" lon="17.916192729934">
        <ele>43.8</ele>
        <time>2017-07-21T12:59:33Z</time>
      </trkpt>
      <trkpt lat="59.212786408994" lon="17.916202452938">
        <ele>44.2</ele>
        <time>2017-07-21T12:59:34Z</time>
      </trkpt>
      <trkpt lat="59.212754725412" lon="17.916212930313">
        <ele>44.6</ele>
        <time>2017-07-21T12:59:35Z</time>
      </trkpt>
      <trkpt lat="59.21266017758" lon="17.916248972483">
        <ele>44.6</ele>
        <time>2017-07-21T12:59:38Z</time>
      </trkpt>
      <trkpt lat="59.212560600608" lon="17.916346537799">
        <ele>44.6</ele>
        <time>2017-07-21T12:59:42Z</time>
      </trkpt>
      <trkpt lat="59.212458089971" lon="17.916400601054">
        <ele>45</ele>
        <time>2017-07-21T12:59:45Z</time>
      </trkpt>
      <trkpt lat="59.212426154932" lon="17.916428009867">
        <ele>45.4</ele>
        <time>2017-07-21T12:59:46Z</time>
      </trkpt>
      <trkpt lat="59.212390112762" lon="17.916452401196">
        <ele>45.8</ele>
        <time>2017-07-21T12:59:47Z</time>
      </trkpt>
      <trkpt lat="59.212357004257" lon="17.916470589919">
        <ele>46.2</ele>
        <time>2017-07-21T12:59:48Z</time>
      </trkpt>
      <trkpt lat="59.212318866612" lon="17.916469751729">
        <ele>46.6</ele>
        <time>2017-07-21T12:59:49Z</time>
      </trkpt>
      <trkpt lat="59.212228425911" lon="17.91643530212">
        <ele>46.6</ele>
        <time>2017-07-21T12:59:52Z</time>
      </trkpt>
      <trkpt lat="59.212031702718" lon="17.91650487189">
        <ele>46.6</ele>
        <time>2017-07-21T12:59:58Z</time>
      </trkpt>
      <trkpt lat="59.211915278127" lon="17.91656103062">
        <ele>46.6</ele>
        <time>2017-07-21T13:00:02Z</time>
      </trkpt>
      <trkpt lat="59.211705227713" lon="17.916635797168">
        <ele>46.6</ele>
        <time>2017-07-21T13:00:08Z</time>
      </trkpt>
      <trkpt lat="59.211667844439" lon="17.916665049999">
        <ele>47</ele>
        <time>2017-07-21T13:00:09Z</time>
      </trkpt>
      <trkpt lat="59.211631047898" lon="17.916680556514">
        <ele>47.4</ele>
        <time>2017-07-21T13:00:10Z</time>
      </trkpt>
      <trkpt lat="59.211597771755" lon="17.916702349454">
        <ele>47.8</ele>
        <time>2017-07-21T13:00:11Z</time>
      </trkpt>
      <trkpt lat="59.211561059033" lon="17.916729339172">
        <ele>48.2</ele>
        <time>2017-07-21T13:00:12Z</time>
      </trkpt>
      <trkpt lat="59.211525016863" lon="17.91675213794">
        <ele>48.6</ele>
        <time>2017-07-21T13:00:13Z</time>
      </trkpt>
      <trkpt lat="59.211386212599" lon="17.916847021048">
        <ele>48.6</ele>
        <time>2017-07-21T13:00:17Z</time>
      </trkpt>
      <trkpt lat="59.211208348681" lon="17.917000493637">
        <ele>48.6</ele>
        <time>2017-07-21T13:00:22Z</time>
      </trkpt>
      <trkpt lat="59.211061246336" lon="17.917103004274">
        <ele>48.6</ele>
        <time>2017-07-21T13:00:26Z</time>
      </trkpt>
      <trkpt lat="59.210843484574" lon="17.917271731921">
        <ele>48.6</ele>
        <time>2017-07-21T13:00:32Z</time>
      </trkpt>
      <trkpt lat="59.21065941805" lon="17.917356221473">
        <ele>48.6</ele>
        <time>2017-07-21T13:00:37Z</time>
      </trkpt>
      <trkpt lat="59.210521787252" lon="17.917445991622">
        <ele>48.6</ele>
        <time>2017-07-21T13:00:40Z</time>
      </trkpt>
      <trkpt lat="59.210429670171" lon="17.917524781482">
        <ele>48.6</ele>
        <time>2017-07-21T13:00:42Z</time>
      </trkpt>
      <trkpt lat="59.210267648044" lon="17.91767498513">
        <ele>48.6</ele>
        <time>2017-07-21T13:00:45Z</time>
      </trkpt>
      <trkpt lat="59.210191959487" lon="17.917778753052">
        <ele>48.2</ele>
        <time>2017-07-21T13:00:47Z</time>
      </trkpt>
      <trkpt lat="59.210153067471" lon="17.917789398065">
        <ele>47.8</ele>
        <time>2017-07-21T13:00:48Z</time>
      </trkpt>
      <trkpt lat="59.210123395545" lon="17.917762659804">
        <ele>47</ele>
        <time>2017-07-21T13:00:49Z</time>
      </trkpt>
      <trkpt lat="59.21010285989" lon="17.917703315952">
        <ele>46.4</ele>
        <time>2017-07-21T13:00:50Z</time>
      </trkpt>
      <trkpt lat="59.210087521013" lon="17.91764732486">
        <ele>46.4</ele>
        <time>2017-07-21T13:00:51Z</time>
      </trkpt>
      <trkpt lat="59.210003031461" lon="17.917664004841">
        <ele>46.4</ele>
        <time>2017-07-21T13:00:53Z</time>
      </trkpt>
      <trkpt lat="59.209968246576" lon="17.917677332062">
        <ele>46.4</ele>
        <time>2017-07-21T13:00:54Z</time>
      </trkpt>
      <trkpt lat="59.20978434769" lon="17.917815465774">
        <ele>46.4</ele>
        <time>2017-07-21T13:00:59Z</time>
      </trkpt>
      <trkpt lat="59.209615955319" lon="17.917811442462">
        <ele>46.4</ele>
        <time>2017-07-21T13:01:04Z</time>
      </trkpt>
      <trkpt lat="59.209591731628" lon="17.917837845447">
        <ele>46.4</ele>
        <time>2017-07-21T13:01:05Z</time>
      </trkpt>
      <trkpt lat="59.209587456859" lon="17.917843880415">
        <ele>46.4</ele>
        <time>2017-07-21T13:01:07Z</time>
      </trkpt>
      <trkpt lat="59.209587456859" lon="17.917843880415">
        <ele>46.4</ele>
        <time>2017-07-21T13:01:08Z</time>
      </trkpt>
      <trkpt lat="59.209571615068" lon="17.917864751346">
        <ele>46.4</ele>
        <time>2017-07-21T13:01:20Z</time>
      </trkpt>
      <trkpt lat="59.20953456707" lon="17.917892998349">
        <ele>46.4</ele>
        <time>2017-07-21T13:01:22Z</time>
      </trkpt>
      <trkpt lat="59.209405150534" lon="17.917989390199">
        <ele>46.4</ele>
        <time>2017-07-21T13:01:26Z</time>
      </trkpt>
      <trkpt lat="59.209282774794" lon="17.918187622134">
        <ele>46.4</ele>
        <time>2017-07-21T13:01:31Z</time>
      </trkpt>
      <trkpt lat="59.209045147929" lon="17.918589618058">
        <ele>46.4</ele>
        <time>2017-07-21T13:01:39Z</time>
      </trkpt>
      <trkpt lat="59.208801486096" lon="17.918883738929">
        <ele>46.4</ele>
        <time>2017-07-21T13:01:46Z</time>
      </trkpt>
      <trkpt lat="59.208696293251" lon="17.918826239095">
        <ele>46.4</ele>
        <time>2017-07-21T13:01:49Z</time>
      </trkpt>
      <trkpt lat="59.208686989342" lon="17.918743509742">
        <ele>46.4</ele>
        <time>2017-07-21T13:01:50Z</time>
      </trkpt>
      <trkpt lat="59.208604930541" lon="17.918746611045">
        <ele>46.4</ele>
        <time>2017-07-21T13:01:53Z</time>
      </trkpt>
      <trkpt lat="59.208572744045" lon="17.918740156982">
        <ele>46.4</ele>
        <time>2017-07-21T13:01:54Z</time>
      </trkpt>
      <trkpt lat="59.208551705476" lon="17.918703779536">
        <ele>46.4</ele>
        <time>2017-07-21T13:01:55Z</time>
      </trkpt>
      <trkpt lat="59.208530163993" lon="17.918582661081">
        <ele>47</ele>
        <time>2017-07-21T13:01:58Z</time>
      </trkpt>
      <trkpt lat="59.208523626111" lon="17.918527256722">
        <ele>47.4</ele>
        <time>2017-07-21T13:01:59Z</time>
      </trkpt>
      <trkpt lat="59.208514154564" lon="17.918472606734">
        <ele>47.8</ele>
        <time>2017-07-21T13:02:00Z</time>
      </trkpt>
      <trkpt lat="59.208503425732" lon="17.918421309506">
        <ele>48.2</ele>
        <time>2017-07-21T13:02:01Z</time>
      </trkpt>
      <trkpt lat="59.208493199814" lon="17.918371101925">
        <ele>48.6</ele>
        <time>2017-07-21T13:02:02Z</time>
      </trkpt>
      <trkpt lat="59.208469059942" lon="17.918128110644">
        <ele>48.6</ele>
        <time>2017-07-21T13:02:07Z</time>
      </trkpt>
      <trkpt lat="59.208437963093" lon="17.917834660325">
        <ele>48.6</ele>
        <time>2017-07-21T13:02:11Z</time>
      </trkpt>
      <trkpt lat="59.208385827675" lon="17.91746962858">
        <ele>48.6</ele>
        <time>2017-07-21T13:02:16Z</time>
      </trkpt>
      <trkpt lat="59.208372919549" lon="17.917387821236">
        <ele>48.6</ele>
        <time>2017-07-21T13:02:17Z</time>
      </trkpt>
      <trkpt lat="59.208299242648" lon="17.917008791718">
        <ele>48.6</ele>
        <time>2017-07-21T13:02:21Z</time>
      </trkpt>
      <trkpt lat="59.208257333148" lon="17.916794382716">
        <ele>48.2</ele>
        <time>2017-07-21T13:02:23Z</time>
      </trkpt>
      <trkpt lat="59.208240820805" lon="17.916696565943">
        <ele>47.8</ele>
        <time>2017-07-21T13:02:24Z</time>
      </trkpt>
      <trkpt lat="59.208221039521" lon="17.916602521025">
        <ele>47.4</ele>
        <time>2017-07-21T13:02:25Z</time>
      </trkpt>
      <trkpt lat="59.208199833314" lon="17.916507889374">
        <ele>46.6</ele>
        <time>2017-07-21T13:02:26Z</time>
      </trkpt>
      <trkpt lat="59.208179632935" lon="17.9164118328">
        <ele>46.6</ele>
        <time>2017-07-21T13:02:27Z</time>
      </trkpt>
      <trkpt lat="59.208087599673" lon="17.915927191342">
        <ele>46.6</ele>
        <time>2017-07-21T13:02:32Z</time>
      </trkpt>
      <trkpt lat="59.208038481739" lon="17.915718733489">
        <ele>46.2</ele>
        <time>2017-07-21T13:02:34Z</time>
      </trkpt>
      <trkpt lat="59.208010234736" lon="17.915617312499">
        <ele>45.6</ele>
        <time>2017-07-21T13:02:35Z</time>
      </trkpt>
      <trkpt lat="59.207983831751" lon="17.915512790206">
        <ele>45.2</ele>
        <time>2017-07-21T13:02:36Z</time>
      </trkpt>
      <trkpt lat="59.207964218105" lon="17.915406507714">
        <ele>44.8</ele>
        <time>2017-07-21T13:02:37Z</time>
      </trkpt>
      <trkpt lat="59.207951477617" lon="17.915303158887">
        <ele>44.4</ele>
        <time>2017-07-21T13:02:38Z</time>
      </trkpt>
      <trkpt lat="59.20785734888" lon="17.914764454174">
        <ele>44</ele>
        <time>2017-07-21T13:02:43Z</time>
      </trkpt>
      <trkpt lat="59.207829353334" lon="17.914646688479">
        <ele>43.6</ele>
        <time>2017-07-21T13:02:44Z</time>
      </trkpt>
      <trkpt lat="59.207801860702" lon="17.91452339073">
        <ele>43</ele>
        <time>2017-07-21T13:02:45Z</time>
      </trkpt>
      <trkpt lat="59.207775709174" lon="17.914395482936">
        <ele>42.6</ele>
        <time>2017-07-21T13:02:46Z</time>
      </trkpt>
      <trkpt lat="59.207750731112" lon="17.914264557658">
        <ele>42.2</ele>
        <time>2017-07-21T13:02:47Z</time>
      </trkpt>
      <trkpt lat="59.207703205739" lon="17.913992732641">
        <ele>42.2</ele>
        <time>2017-07-21T13:02:49Z</time>
      </trkpt>
      <trkpt lat="59.207678479134" lon="17.913859125155">
        <ele>41.8</ele>
        <time>2017-07-21T13:02:50Z</time>
      </trkpt>
      <trkpt lat="59.207650567407" lon="17.913726104402">
        <ele>40.8</ele>
        <time>2017-07-21T13:02:51Z</time>
      </trkpt>
      <trkpt lat="59.20762265568" lon="17.913613786942">
        <ele>40.4</ele>
        <time>2017-07-21T13:02:52Z</time>
      </trkpt>
      <trkpt lat="59.207594408677" lon="17.913522256594">
        <ele>40</ele>
        <time>2017-07-21T13:02:53Z</time>
      </trkpt>
      <trkpt lat="59.207570101167" lon="17.913430977703">
        <ele>40</ele>
        <time>2017-07-21T13:02:54Z</time>
      </trkpt>
      <trkpt lat="59.207513858618" lon="17.913118919566">
        <ele>39.6</ele>
        <time>2017-07-21T13:02:57Z</time>
      </trkpt>
      <trkpt lat="59.207499106474" lon="17.91301883968">
        <ele>39.2</ele>
        <time>2017-07-21T13:02:58Z</time>
      </trkpt>
      <trkpt lat="59.207487455633" lon="17.912925381495">
        <ele>38.8</ele>
        <time>2017-07-21T13:02:59Z</time>
      </trkpt>
      <trkpt lat="59.207472871127" lon="17.912846675454">
        <ele>38.4</ele>
        <time>2017-07-21T13:03:00Z</time>
      </trkpt>
      <trkpt lat="59.207455939689" lon="17.912772914734">
        <ele>37.8</ele>
        <time>2017-07-21T13:03:01Z</time>
      </trkpt>
      <trkpt lat="59.207395590009" lon="17.912506286495">
        <ele>37.8</ele>
        <time>2017-07-21T13:03:05Z</time>
      </trkpt>
      <trkpt lat="59.207340604745" lon="17.912301935773">
        <ele>37.8</ele>
        <time>2017-07-21T13:03:08Z</time>
      </trkpt>
      <trkpt lat="59.20729073244" lon="17.912170172305">
        <ele>37.8</ele>
        <time>2017-07-21T13:03:10Z</time>
      </trkpt>
      <trkpt lat="59.207214792426" lon="17.911839841626">
        <ele>37.4</ele>
        <time>2017-07-21T13:03:14Z</time>
      </trkpt>
      <trkpt lat="59.207190317278" lon="17.911755854988">
        <ele>37</ele>
        <time>2017-07-21T13:03:15Z</time>
      </trkpt>
      <trkpt lat="59.207169278709" lon="17.911665833382">
        <ele>36</ele>
        <time>2017-07-21T13:03:16Z</time>
      </trkpt>
      <trkpt lat="59.207151676719" lon="17.911575560319">
        <ele>35.6</ele>
        <time>2017-07-21T13:03:17Z</time>
      </trkpt>
      <trkpt lat="59.207131560159" lon="17.911483946152">
        <ele>35.6</ele>
        <time>2017-07-21T13:03:18Z</time>
      </trkpt>
      <trkpt lat="59.207108509934" lon="17.911387219026">
        <ele>35.2</ele>
        <time>2017-07-21T13:03:19Z</time>
      </trkpt>
      <trkpt lat="59.207089147745" lon="17.911289486072">
        <ele>34.8</ele>
        <time>2017-07-21T13:03:20Z</time>
      </trkpt>
      <trkpt lat="59.207069534099" lon="17.911189741462">
        <ele>34.2</ele>
        <time>2017-07-21T13:03:21Z</time>
      </trkpt>
      <trkpt lat="59.207050926281" lon="17.91110189915">
        <ele>33.8</ele>
        <time>2017-07-21T13:03:22Z</time>
      </trkpt>
      <trkpt lat="59.207030725902" lon="17.91102310929">
        <ele>33.4</ele>
        <time>2017-07-21T13:03:23Z</time>
      </trkpt>
      <trkpt lat="59.206891586362" lon="17.910498486169">
        <ele>33.4</ele>
        <time>2017-07-21T13:03:29Z</time>
      </trkpt>
      <trkpt lat="59.206740544524" lon="17.90994603514">
        <ele>33.4</ele>
        <time>2017-07-21T13:03:34Z</time>
      </trkpt>
      <trkpt lat="59.206678518464" lon="17.909729698301">
        <ele>33</ele>
        <time>2017-07-21T13:03:36Z</time>
      </trkpt>
      <trkpt lat="59.206644404131" lon="17.909616794108">
        <ele>32.4</ele>
        <time>2017-07-21T13:03:37Z</time>
      </trkpt>
      <trkpt lat="59.206612217635" lon="17.909506404485">
        <ele>32</ele>
        <time>2017-07-21T13:03:38Z</time>
      </trkpt>
      <trkpt lat="59.20658078551" lon="17.90939199155">
        <ele>31.6</ele>
        <time>2017-07-21T13:03:39Z</time>
      </trkpt>
      <trkpt lat="59.206547341729" lon="17.909273639122">
        <ele>31.2</ele>
        <time>2017-07-21T13:03:40Z</time>
      </trkpt>
      <trkpt lat="59.206409878569" lon="17.908805677645">
        <ele>31.2</ele>
        <time>2017-07-21T13:03:44Z</time>
      </trkpt>
      <trkpt lat="59.206345170301" lon="17.908575175395">
        <ele>31.2</ele>
        <time>2017-07-21T13:03:46Z</time>
      </trkpt>
      <trkpt lat="59.206136293353" lon="17.907814015056">
        <ele>31.2</ele>
        <time>2017-07-21T13:03:53Z</time>
      </trkpt>
      <trkpt lat="59.205996064166" lon="17.907300456043">
        <ele>31.2</ele>
        <time>2017-07-21T13:03:58Z</time>
      </trkpt>
      <trkpt lat="59.205917609582" lon="17.906993846141">
        <ele>31.2</ele>
        <time>2017-07-21T13:04:01Z</time>
      </trkpt>
      <trkpt lat="59.205782577173" lon="17.906554886038">
        <ele>31.2</ele>
        <time>2017-07-21T13:04:06Z</time>
      </trkpt>
      <trkpt lat="59.205752318514" lon="17.906477185825">
        <ele>31.2</ele>
        <time>2017-07-21T13:04:07Z</time>
      </trkpt>
      <trkpt lat="59.205651484257" lon="17.906107544035">
        <ele>30.8</ele>
        <time>2017-07-21T13:04:11Z</time>
      </trkpt>
      <trkpt lat="59.205621812331" lon="17.906012241832">
        <ele>30.2</ele>
        <time>2017-07-21T13:04:12Z</time>
      </trkpt>
      <trkpt lat="59.205594319699" lon="17.905919873294">
        <ele>29.8</ele>
        <time>2017-07-21T13:04:13Z</time>
      </trkpt>
      <trkpt lat="59.205568922542" lon="17.905822475616">
        <ele>29.4</ele>
        <time>2017-07-21T13:04:14Z</time>
      </trkpt>
      <trkpt lat="59.205543860661" lon="17.905731448182">
        <ele>29</ele>
        <time>2017-07-21T13:04:15Z</time>
      </trkpt>
      <trkpt lat="59.205513182907" lon="17.905646874811">
        <ele>29</ele>
        <time>2017-07-21T13:04:16Z</time>
      </trkpt>
      <trkpt lat="59.205451240666" lon="17.90548267339">
        <ele>29</ele>
        <time>2017-07-21T13:04:18Z</time>
      </trkpt>
      <trkpt lat="59.2052908111" lon="17.905000043588">
        <ele>29</ele>
        <time>2017-07-21T13:04:24Z</time>
      </trkpt>
      <trkpt lat="59.205262061183" lon="17.904922008099">
        <ele>29</ele>
        <time>2017-07-21T13:04:25Z</time>
      </trkpt>
      <trkpt lat="59.205216044552" lon="17.904751268796">
        <ele>29</ele>
        <time>2017-07-21T13:04:28Z</time>
      </trkpt>
      <trkpt lat="59.205150665732" lon="17.904530992464">
        <ele>29</ele>
        <time>2017-07-21T13:04:31Z</time>
      </trkpt>
      <trkpt lat="59.205108253318" lon="17.90438799725">
        <ele>29</ele>
        <time>2017-07-21T13:04:33Z</time>
      </trkpt>
      <trkpt lat="59.205067349646" lon="17.904240056715">
        <ele>29</ele>
        <time>2017-07-21T13:04:35Z</time>
      </trkpt>
      <trkpt lat="59.205026445974" lon="17.904075100923">
        <ele>29</ele>
        <time>2017-07-21T13:04:37Z</time>
      </trkpt>
      <trkpt lat="59.205006832328" lon="17.90399656252">
        <ele>29</ele>
        <time>2017-07-21T13:04:38Z</time>
      </trkpt>
      <trkpt lat="59.204977160402" lon="17.903785925373">
        <ele>29</ele>
        <time>2017-07-21T13:04:41Z</time>
      </trkpt>
      <trkpt lat="59.204984117379" lon="17.903720378915">
        <ele>29</ele>
        <time>2017-07-21T13:04:42Z</time>
      </trkpt>
      <trkpt lat="59.204946482648" lon="17.90343748979">
        <ele>29</ele>
        <time>2017-07-21T13:04:46Z</time>
      </trkpt>
      <trkpt lat="59.204819580682" lon="17.903227607014">
        <ele>29</ele>
        <time>2017-07-21T13:04:50Z</time>
      </trkpt>
      <trkpt lat="59.204746322876" lon="17.903136244304">
        <ele>29</ele>
        <time>2017-07-21T13:04:52Z</time>
      </trkpt>
      <trkpt lat="59.204638447823" lon="17.903039517178">
        <ele>29</ele>
        <time>2017-07-21T13:04:55Z</time>
      </trkpt>
      <trkpt lat="59.204599220531" lon="17.903018059514">
        <ele>29</ele>
        <time>2017-07-21T13:04:56Z</time>
      </trkpt>
      <trkpt lat="59.204433594187" lon="17.902995679841">
        <ele>29.4</ele>
        <time>2017-07-21T13:05:00Z</time>
      </trkpt>
      <trkpt lat="59.204393780162" lon="17.902998948782">
        <ele>29.8</ele>
        <time>2017-07-21T13:05:01Z</time>
      </trkpt>
      <trkpt lat="59.204355474879" lon="17.902999703153">
        <ele>30.2</ele>
        <time>2017-07-21T13:05:02Z</time>
      </trkpt>
      <trkpt lat="59.20432018708" lon="17.902997691497">
        <ele>30.6</ele>
        <time>2017-07-21T13:05:03Z</time>
      </trkpt>
      <trkpt lat="59.204286408023" lon="17.902996182755">
        <ele>31</ele>
        <time>2017-07-21T13:05:04Z</time>
      </trkpt>
      <trkpt lat="59.204204181584" lon="17.902999284058">
        <ele>31</ele>
        <time>2017-07-21T13:05:06Z</time>
      </trkpt>
      <trkpt lat="59.204161601532" lon="17.903000960438">
        <ele>31.4</ele>
        <time>2017-07-21T13:05:07Z</time>
      </trkpt>
      <trkpt lat="59.204114579073" lon="17.902991153615">
        <ele>31.8</ele>
        <time>2017-07-21T13:05:08Z</time>
      </trkpt>
      <trkpt lat="59.204071747564" lon="17.902968019571">
        <ele>32.4</ele>
        <time>2017-07-21T13:05:09Z</time>
      </trkpt>
      <trkpt lat="59.204032268815" lon="17.902927618813">
        <ele>32.8</ele>
        <time>2017-07-21T13:05:10Z</time>
      </trkpt>
      <trkpt lat="59.203995891369" lon="17.902877830327">
        <ele>33.2</ele>
        <time>2017-07-21T13:05:11Z</time>
      </trkpt>
      <trkpt lat="59.203930261092" lon="17.902765680505">
        <ele>33.2</ele>
        <time>2017-07-21T13:05:13Z</time>
      </trkpt>
      <trkpt lat="59.203861529512" lon="17.90262779825">
        <ele>32.8</ele>
        <time>2017-07-21T13:05:15Z</time>
      </trkpt>
      <trkpt lat="59.203826744627" lon="17.902554456625">
        <ele>32.2</ele>
        <time>2017-07-21T13:05:16Z</time>
      </trkpt>
      <trkpt lat="59.203791456828" lon="17.902469547978">
        <ele>31.8</ele>
        <time>2017-07-21T13:05:17Z</time>
      </trkpt>
      <trkpt lat="59.203753654459" lon="17.902383130589">
        <ele>31.4</ele>
        <time>2017-07-21T13:05:18Z</time>
      </trkpt>
      <trkpt lat="59.203716019728" lon="17.902293528078">
        <ele>31</ele>
        <time>2017-07-21T13:05:19Z</time>
      </trkpt>
      <trkpt lat="59.203642342827" lon="17.902105186785">
        <ele>31</ele>
        <time>2017-07-21T13:05:21Z</time>
      </trkpt>
      <trkpt lat="59.203413181681" lon="17.901401693918">
        <ele>31</ele>
        <time>2017-07-21T13:05:28Z</time>
      </trkpt>
      <trkpt lat="59.203316622193" lon="17.900932642794">
        <ele>30.6</ele>
        <time>2017-07-21T13:05:32Z</time>
      </trkpt>
      <trkpt lat="59.20329424252" lon="17.900817224031">
        <ele>30.2</ele>
        <time>2017-07-21T13:05:33Z</time>
      </trkpt>
      <trkpt lat="59.203273203951" lon="17.900696189395">
        <ele>29.6</ele>
        <time>2017-07-21T13:05:34Z</time>
      </trkpt>
      <trkpt lat="59.203253841762" lon="17.900572640189">
        <ele>29.2</ele>
        <time>2017-07-21T13:05:35Z</time>
      </trkpt>
      <trkpt lat="59.203237664695" lon="17.900450432087">
        <ele>28.8</ele>
        <time>2017-07-21T13:05:36Z</time>
      </trkpt>
      <trkpt lat="59.203206651665" lon="17.90020626734">
        <ele>28.2</ele>
        <time>2017-07-21T13:05:38Z</time>
      </trkpt>
      <trkpt lat="59.203192067159" lon="17.900080706478">
        <ele>27.8</ele>
        <time>2017-07-21T13:05:39Z</time>
      </trkpt>
      <trkpt lat="59.203178739938" lon="17.899952631046">
        <ele>27.4</ele>
        <time>2017-07-21T13:05:40Z</time>
      </trkpt>
      <trkpt lat="59.20316348488" lon="17.899825309985">
        <ele>26.8</ele>
        <time>2017-07-21T13:05:41Z</time>
      </trkpt>
      <trkpt lat="59.203150157659" lon="17.899708131023">
        <ele>26.4</ele>
        <time>2017-07-21T13:05:42Z</time>
      </trkpt>
      <trkpt lat="59.203128699995" lon="17.899516856065">
        <ele>26</ele>
        <time>2017-07-21T13:05:44Z</time>
      </trkpt>
      <trkpt lat="59.203118809353" lon="17.899449214132">
        <ele>25.4</ele>
        <time>2017-07-21T13:05:45Z</time>
      </trkpt>
      <trkpt lat="59.203106404141" lon="17.899390624651">
        <ele>25</ele>
        <time>2017-07-21T13:05:46Z</time>
      </trkpt>
      <trkpt lat="59.203096513499" lon="17.89935131354">
        <ele>24.6</ele>
        <time>2017-07-21T13:05:47Z</time>
      </trkpt>
      <trkpt lat="59.203090143255" lon="17.899327508944">
        <ele>24.2</ele>
        <time>2017-07-21T13:05:48Z</time>
      </trkpt>
      <trkpt lat="59.203087293409" lon="17.899319043225">
        <ele>24.2</ele>
        <time>2017-07-21T13:05:49Z</time>
      </trkpt>
      <trkpt lat="59.203078660052" lon="17.899300519226">
        <ele>24.2</ele>
        <time>2017-07-21T13:05:53Z</time>
      </trkpt>
      <trkpt lat="59.203065668107" lon="17.899271098757">
        <ele>24.2</ele>
        <time>2017-07-21T13:05:54Z</time>
      </trkpt>
      <trkpt lat="59.202989895731" lon="17.899113686675">
        <ele>24.2</ele>
        <time>2017-07-21T13:05:59Z</time>
      </trkpt>
      <trkpt lat="59.202900209401" lon="17.898895002904">
        <ele>24.2</ele>
        <time>2017-07-21T13:06:03Z</time>
      </trkpt>
      <trkpt lat="59.202871375665" lon="17.898824762582">
        <ele>24.2</ele>
        <time>2017-07-21T13:06:04Z</time>
      </trkpt>
      <trkpt lat="59.202781605516" lon="17.898639271135">
        <ele>23.8</ele>
        <time>2017-07-21T13:06:07Z</time>
      </trkpt>
      <trkpt lat="59.202748245554" lon="17.898572383573">
        <ele>23.4</ele>
        <time>2017-07-21T13:06:08Z</time>
      </trkpt>
      <trkpt lat="59.202711029918" lon="17.898506501839">
        <ele>23</ele>
        <time>2017-07-21T13:06:09Z</time>
      </trkpt>
      <trkpt lat="59.202678424327" lon="17.898439949553">
        <ele>22.2</ele>
        <time>2017-07-21T13:06:10Z</time>
      </trkpt>
      <trkpt lat="59.202651434609" lon="17.898375744199">
        <ele>22.2</ele>
        <time>2017-07-21T13:06:11Z</time>
      </trkpt>
      <trkpt lat="59.202543475737" lon="17.898117665498">
        <ele>22.2</ele>
        <time>2017-07-21T13:06:15Z</time>
      </trkpt>
      <trkpt lat="59.202367707294" lon="17.897931252042">
        <ele>22.2</ele>
        <time>2017-07-21T13:06:20Z</time>
      </trkpt>
      <trkpt lat="59.202336778083" lon="17.897925636169">
        <ele>22.2</ele>
        <time>2017-07-21T13:06:21Z</time>
      </trkpt>
      <trkpt lat="59.202252456169" lon="17.897916835174">
        <ele>22.2</ele>
        <time>2017-07-21T13:06:24Z</time>
      </trkpt>
      <trkpt lat="59.202227059012" lon="17.897916583717">
        <ele>22.6</ele>
        <time>2017-07-21T13:06:25Z</time>
      </trkpt>
      <trkpt lat="59.202202751502" lon="17.897919098287">
        <ele>23</ele>
        <time>2017-07-21T13:06:26Z</time>
      </trkpt>
      <trkpt lat="59.202179198363" lon="17.897921864314">
        <ele>23.4</ele>
        <time>2017-07-21T13:06:27Z</time>
      </trkpt>
      <trkpt lat="59.202157573061" lon="17.897926809635">
        <ele>23.8</ele>
        <time>2017-07-21T13:06:28Z</time>
      </trkpt>
      <trkpt lat="59.20213586394" lon="17.897937957562">
        <ele>24.4</ele>
        <time>2017-07-21T13:06:29Z</time>
      </trkpt>
      <trkpt lat="59.20210065996" lon="17.897944663082">
        <ele>24.8</ele>
        <time>2017-07-21T13:06:31Z</time>
      </trkpt>
      <trkpt lat="59.202077442097" lon="17.897949105489">
        <ele>25.2</ele>
        <time>2017-07-21T13:06:32Z</time>
      </trkpt>
      <trkpt lat="59.202063025229" lon="17.897949692222">
        <ele>25.8</ele>
        <time>2017-07-21T13:06:33Z</time>
      </trkpt>
      <trkpt lat="59.20205958865" lon="17.897952458249">
        <ele>26.6</ele>
        <time>2017-07-21T13:06:34Z</time>
      </trkpt>
      <trkpt lat="59.201490373821" lon="17.898167705441">
        <ele>35</ele>
        <time>2017-07-21T13:07:51Z</time>
      </trkpt>
      <trkpt lat="59.20142843158" lon="17.898147253605">
        <ele>35</ele>
        <time>2017-07-21T13:07:55Z</time>
      </trkpt>
      <trkpt lat="59.201342517105" lon="17.89806050094">
        <ele>35.4</ele>
        <time>2017-07-21T13:08:01Z</time>
      </trkpt>
      <trkpt lat="59.201326759133" lon="17.898040971113">
        <ele>35.8</ele>
        <time>2017-07-21T13:08:02Z</time>
      </trkpt>
      <trkpt lat="59.201314102464" lon="17.898026470426">
        <ele>36.2</ele>
        <time>2017-07-21T13:08:03Z</time>
      </trkpt>
      <trkpt lat="59.2013010267" lon="17.898003587839">
        <ele>36.6</ele>
        <time>2017-07-21T13:08:04Z</time>
      </trkpt>
      <trkpt lat="59.201287783298" lon="17.897973161542">
        <ele>37.2</ele>
        <time>2017-07-21T13:08:05Z</time>
      </trkpt>
      <trkpt lat="59.201273869344" lon="17.897932928422">
        <ele>37.2</ele>
        <time>2017-07-21T13:08:06Z</time>
      </trkpt>
      <trkpt lat="59.201214022578" lon="17.897820359505">
        <ele>37.2</ele>
        <time>2017-07-21T13:08:10Z</time>
      </trkpt>
      <trkpt lat="59.201196085312" lon="17.897800997316">
        <ele>37.2</ele>
        <time>2017-07-21T13:08:11Z</time>
      </trkpt>
      <trkpt lat="59.201172029259" lon="17.897812564338">
        <ele>37.6</ele>
        <time>2017-07-21T13:08:12Z</time>
      </trkpt>
      <trkpt lat="59.201156774201" lon="17.897838632047">
        <ele>38.4</ele>
        <time>2017-07-21T13:08:13Z</time>
      </trkpt>
      <trkpt lat="59.201152583251" lon="17.897866376136">
        <ele>38.8</ele>
        <time>2017-07-21T13:08:14Z</time>
      </trkpt>
      <trkpt lat="59.201156103649" lon="17.897882553203">
        <ele>39.4</ele>
        <time>2017-07-21T13:08:15Z</time>
      </trkpt>
      <trkpt lat="59.201165994291" lon="17.897888001438">
        <ele>39.4</ele>
        <time>2017-07-21T13:08:17Z</time>
      </trkpt>
      <trkpt lat="59.201177896589" lon="17.897836871848">
        <ele>39.4</ele>
        <time>2017-07-21T13:08:20Z</time>
      </trkpt>
      <trkpt lat="59.201181249349" lon="17.897794962348">
        <ele>39.4</ele>
        <time>2017-07-21T13:08:22Z</time>
      </trkpt>
      <trkpt lat="59.201197174959" lon="17.897714077013">
        <ele>39.4</ele>
        <time>2017-07-21T13:08:29Z</time>
      </trkpt>
      <trkpt lat="59.201211005094" lon="17.897668982391">
        <ele>39.4</ele>
        <time>2017-07-21T13:08:33Z</time>
      </trkpt>
      <trkpt lat="59.201227517437" lon="17.897623552493">
        <ele>39.4</ele>
        <time>2017-07-21T13:08:35Z</time>
      </trkpt>
      <trkpt lat="59.201244113599" lon="17.897591701273">
        <ele>39.4</ele>
        <time>2017-07-21T13:08:37Z</time>
      </trkpt>
      <trkpt lat="59.201272360602" lon="17.897538643846">
        <ele>39.4</ele>
        <time>2017-07-21T13:08:40Z</time>
      </trkpt>
      <trkpt lat="59.201281496873" lon="17.89752405934">
        <ele>39.4</ele>
        <time>2017-07-21T13:08:41Z</time>
      </trkpt>
      <trkpt lat="59.201337487965" lon="17.897408640577">
        <ele>39.4</ele>
        <time>2017-07-21T13:08:47Z</time>
      </trkpt>
      <trkpt lat="59.20135802362" lon="17.897361031385">
        <ele>39.4</ele>
        <time>2017-07-21T13:08:50Z</time>
      </trkpt>
      <trkpt lat="59.201372691945" lon="17.897287354484">
        <ele>39.4</ele>
        <time>2017-07-21T13:08:53Z</time>
      </trkpt>
      <trkpt lat="59.201380570931" lon="17.897274530177">
        <ele>39.4</ele>
        <time>2017-07-21T13:08:54Z</time>
      </trkpt>
      <trkpt lat="59.201413847074" lon="17.897204876588">
        <ele>39.4</ele>
        <time>2017-07-21T13:08:58Z</time>
      </trkpt>
      <trkpt lat="59.201423234802" lon="17.897192471376">
        <ele>39.4</ele>
        <time>2017-07-21T13:08:59Z</time>
      </trkpt>
      <trkpt lat="59.201452906728" lon="17.897129188031">
        <ele>39.4</ele>
        <time>2017-07-21T13:09:03Z</time>
      </trkpt>
      <trkpt lat="59.201487775432" lon="17.897041094262">
        <ele>39.4</ele>
        <time>2017-07-21T13:09:06Z</time>
      </trkpt>
      <trkpt lat="59.201497330798" lon="17.897006979929">
        <ele>39.4</ele>
        <time>2017-07-21T13:09:07Z</time>
      </trkpt>
      <trkpt lat="59.201546029637" lon="17.896824841242">
        <ele>39.8</ele>
        <time>2017-07-21T13:09:11Z</time>
      </trkpt>
      <trkpt lat="59.201553992442" lon="17.89676968834">
        <ele>40.2</ele>
        <time>2017-07-21T13:09:12Z</time>
      </trkpt>
      <trkpt lat="59.201557764297" lon="17.896716295637">
        <ele>40.6</ele>
        <time>2017-07-21T13:09:13Z</time>
      </trkpt>
      <trkpt lat="59.201551142596" lon="17.896648402247">
        <ele>41</ele>
        <time>2017-07-21T13:09:14Z</time>
      </trkpt>
      <trkpt lat="59.201547538379" lon="17.896582688151">
        <ele>41.4</ele>
        <time>2017-07-21T13:09:15Z</time>
      </trkpt>
      <trkpt lat="59.201546448732" lon="17.896513872752">
        <ele>41.4</ele>
        <time>2017-07-21T13:09:16Z</time>
      </trkpt>
      <trkpt lat="59.201523566145" lon="17.896074745011">
        <ele>41.8</ele>
        <time>2017-07-21T13:09:22Z</time>
      </trkpt>
      <trkpt lat="59.201512082942" lon="17.895996290427">
        <ele>42.4</ele>
        <time>2017-07-21T13:09:23Z</time>
      </trkpt>
      <trkpt lat="59.201500767377" lon="17.89591641092">
        <ele>42.8</ele>
        <time>2017-07-21T13:09:24Z</time>
      </trkpt>
      <trkpt lat="59.20149045764" lon="17.895841476734">
        <ele>43.2</ele>
        <time>2017-07-21T13:09:25Z</time>
      </trkpt>
      <trkpt lat="59.201473945297" lon="17.895776936104">
        <ele>43.6</ele>
        <time>2017-07-21T13:09:26Z</time>
      </trkpt>
      <trkpt lat="59.201431868159" lon="17.895647603387">
        <ele>43.6</ele>
        <time>2017-07-21T13:09:28Z</time>
      </trkpt>
      <trkpt lat="59.201352743023" lon="17.895449622909">
        <ele>43.6</ele>
        <time>2017-07-21T13:09:31Z</time>
      </trkpt>
      <trkpt lat="59.201269259299" lon="17.89532129602">
        <ele>43.6</ele>
        <time>2017-07-21T13:09:33Z</time>
      </trkpt>
      <trkpt lat="59.201044289103" lon="17.895013428833">
        <ele>43.6</ele>
        <time>2017-07-21T13:09:38Z</time>
      </trkpt>
      <trkpt lat="59.200865503176" lon="17.894728528052">
        <ele>43.2</ele>
        <time>2017-07-21T13:09:42Z</time>
      </trkpt>
      <trkpt lat="59.200818145441" lon="17.89465325859">
        <ele>42.8</ele>
        <time>2017-07-21T13:09:43Z</time>
      </trkpt>
      <trkpt lat="59.200772967" lon="17.8945853652">
        <ele>42.4</ele>
        <time>2017-07-21T13:09:44Z</time>
      </trkpt>
      <trkpt lat="59.200728794387" lon="17.894521159846">
        <ele>42</ele>
        <time>2017-07-21T13:09:45Z</time>
      </trkpt>
      <trkpt lat="59.200685711421" lon="17.894460726347">
        <ele>41.6</ele>
        <time>2017-07-21T13:09:46Z</time>
      </trkpt>
      <trkpt lat="59.200601054231" lon="17.894348660344">
        <ele>41.6</ele>
        <time>2017-07-21T13:09:48Z</time>
      </trkpt>
      <trkpt lat="59.200471889152" lon="17.894148165296">
        <ele>41.6</ele>
        <time>2017-07-21T13:09:51Z</time>
      </trkpt>
      <trkpt lat="59.200203752171" lon="17.893747510476">
        <ele>41.6</ele>
        <time>2017-07-21T13:09:57Z</time>
      </trkpt>
      <trkpt lat="59.199797062383" lon="17.893346688018">
        <ele>41.6</ele>
        <time>2017-07-21T13:10:05Z</time>
      </trkpt>
      <trkpt lat="59.199435802493" lon="17.893092381172">
        <ele>41.6</ele>
        <time>2017-07-21T13:10:12Z</time>
      </trkpt>
      <trkpt lat="59.199386097826" lon="17.893034881338">
        <ele>41.6</ele>
        <time>2017-07-21T13:10:13Z</time>
      </trkpt>
      <trkpt lat="59.199264560276" lon="17.892791470962">
        <ele>41.6</ele>
        <time>2017-07-21T13:10:16Z</time>
      </trkpt>
      <trkpt lat="59.199194990506" lon="17.892616540709">
        <ele>41.6</ele>
        <time>2017-07-21T13:10:18Z</time>
      </trkpt>
      <trkpt lat="59.199066579798" lon="17.892255113181">
        <ele>41.6</ele>
        <time>2017-07-21T13:10:22Z</time>
      </trkpt>
      <trkpt lat="59.198926182973" lon="17.891653879494">
        <ele>41.6</ele>
        <time>2017-07-21T13:10:28Z</time>
      </trkpt>
      <trkpt lat="59.198940935117" lon="17.891427316737">
        <ele>41</ele>
        <time>2017-07-21T13:10:30Z</time>
      </trkpt>
      <trkpt lat="59.198948311189" lon="17.891313658173">
        <ele>40.6</ele>
        <time>2017-07-21T13:10:31Z</time>
      </trkpt>
      <trkpt lat="59.19895744746" lon="17.891200167247">
        <ele>40.2</ele>
        <time>2017-07-21T13:10:32Z</time>
      </trkpt>
      <trkpt lat="59.198969265939" lon="17.891081311905">
        <ele>39.8</ele>
        <time>2017-07-21T13:10:33Z</time>
      </trkpt>
      <trkpt lat="59.198978318391" lon="17.890952901197">
        <ele>39.4</ele>
        <time>2017-07-21T13:10:34Z</time>
      </trkpt>
      <trkpt lat="59.199004218462" lon="17.890312607856">
        <ele>39</ele>
        <time>2017-07-21T13:10:39Z</time>
      </trkpt>
      <trkpt lat="59.199006984489" lon="17.89017564761">
        <ele>38.6</ele>
        <time>2017-07-21T13:10:40Z</time>
      </trkpt>
      <trkpt lat="59.199008660869" lon="17.890041788667">
        <ele>38</ele>
        <time>2017-07-21T13:10:41Z</time>
      </trkpt>
      <trkpt lat="59.19900690067" lon="17.88991580871">
        <ele>37.2</ele>
        <time>2017-07-21T13:10:42Z</time>
      </trkpt>
      <trkpt lat="59.199000362788" lon="17.88966267533">
        <ele>36.8</ele>
        <time>2017-07-21T13:10:44Z</time>
      </trkpt>
      <trkpt lat="59.198996926209" lon="17.889531414776">
        <ele>36.4</ele>
        <time>2017-07-21T13:10:45Z</time>
      </trkpt>
      <trkpt lat="59.198995333648" lon="17.889398980756">
        <ele>36</ele>
        <time>2017-07-21T13:10:46Z</time>
      </trkpt>
      <trkpt lat="59.198995585105" lon="17.889260847044">
        <ele>35.6</ele>
        <time>2017-07-21T13:10:47Z</time>
      </trkpt>
      <trkpt lat="59.198993573449" lon="17.889110559577">
        <ele>35</ele>
        <time>2017-07-21T13:10:48Z</time>
      </trkpt>
      <trkpt lat="59.198989801594" lon="17.888950465287">
        <ele>34.6</ele>
        <time>2017-07-21T13:10:49Z</time>
      </trkpt>
      <trkpt lat="59.198989131042" lon="17.888796322146">
        <ele>34</ele>
        <time>2017-07-21T13:10:50Z</time>
      </trkpt>
      <trkpt lat="59.198985526825" lon="17.888638490969">
        <ele>33.6</ele>
        <time>2017-07-21T13:10:51Z</time>
      </trkpt>
      <trkpt lat="59.198976558192" lon="17.888487281493">
        <ele>33.2</ele>
        <time>2017-07-21T13:10:52Z</time>
      </trkpt>
      <trkpt lat="59.198944287877" lon="17.888203302721">
        <ele>32.8</ele>
        <time>2017-07-21T13:10:54Z</time>
      </trkpt>
      <trkpt lat="59.198904473852" lon="17.888091823451">
        <ele>32.2</ele>
        <time>2017-07-21T13:10:55Z</time>
      </trkpt>
      <trkpt lat="59.198859295411" lon="17.888004567872">
        <ele>31.8</ele>
        <time>2017-07-21T13:10:56Z</time>
      </trkpt>
      <trkpt lat="59.198823420879" lon="17.887923347261">
        <ele>31.4</ele>
        <time>2017-07-21T13:10:57Z</time>
      </trkpt>
      <trkpt lat="59.198783523035" lon="17.887849335084">
        <ele>31</ele>
        <time>2017-07-21T13:10:58Z</time>
      </trkpt>
      <trkpt lat="59.198709762315" lon="17.887729138638">
        <ele>31</ele>
        <time>2017-07-21T13:11:01Z</time>
      </trkpt>
      <trkpt lat="59.198721161699" lon="17.88768789969">
        <ele>31</ele>
        <time>2017-07-21T13:11:03Z</time>
      </trkpt>
      <trkpt lat="59.198724682097" lon="17.887635596634">
        <ele>31</ele>
        <time>2017-07-21T13:11:05Z</time>
      </trkpt>
      <trkpt lat="59.198683694606" lon="17.887572900022">
        <ele>30.6</ele>
        <time>2017-07-21T13:11:07Z</time>
      </trkpt>
      <trkpt lat="59.198643880581" lon="17.887543060458">
        <ele>30.2</ele>
        <time>2017-07-21T13:11:08Z</time>
      </trkpt>
      <trkpt lat="59.198616890863" lon="17.887504168442">
        <ele>29.8</ele>
        <time>2017-07-21T13:11:09Z</time>
      </trkpt>
      <trkpt lat="59.198587218937" lon="17.887470557023">
        <ele>29.4</ele>
        <time>2017-07-21T13:11:10Z</time>
      </trkpt>
      <trkpt lat="59.198561235047" lon="17.887433592844">
        <ele>29</ele>
        <time>2017-07-21T13:11:11Z</time>
      </trkpt>
      <trkpt lat="59.198540950849" lon="17.887390761335">
        <ele>29</ele>
        <time>2017-07-21T13:11:12Z</time>
      </trkpt>
      <trkpt lat="59.198498286978" lon="17.887270648708">
        <ele>29</ele>
        <time>2017-07-21T13:11:14Z</time>
      </trkpt>
      <trkpt lat="59.198480182074" lon="17.887208203553">
        <ele>28.6</ele>
        <time>2017-07-21T13:11:15Z</time>
      </trkpt>
      <trkpt lat="59.198464088826" lon="17.887142070362">
        <ele>28.2</ele>
        <time>2017-07-21T13:11:16Z</time>
      </trkpt>
      <trkpt lat="59.19845034251" lon="17.887082977967">
        <ele>27.8</ele>
        <time>2017-07-21T13:11:17Z</time>
      </trkpt>
      <trkpt lat="59.198431147959" lon="17.887016760957">
        <ele>27.2</ele>
        <time>2017-07-21T13:11:18Z</time>
      </trkpt>
      <trkpt lat="59.198410696123" lon="17.886938138735">
        <ele>26.8</ele>
        <time>2017-07-21T13:11:19Z</time>
      </trkpt>
      <trkpt lat="59.198396111617" lon="17.886841495428">
        <ele>26.8</ele>
        <time>2017-07-21T13:11:20Z</time>
      </trkpt>
      <trkpt lat="59.198383203491" lon="17.886722137172">
        <ele>26.4</ele>
        <time>2017-07-21T13:11:21Z</time>
      </trkpt>
      <trkpt lat="59.198377587618" lon="17.886619794173">
        <ele>26</ele>
        <time>2017-07-21T13:11:22Z</time>
      </trkpt>
      <trkpt lat="59.198378090532" lon="17.886517618812">
        <ele>25.6</ele>
        <time>2017-07-21T13:11:23Z</time>
      </trkpt>
      <trkpt lat="59.19838328731" lon="17.886386525896">
        <ele>25</ele>
        <time>2017-07-21T13:11:24Z</time>
      </trkpt>
      <trkpt lat="59.198391585391" lon="17.88625459479">
        <ele>24.6</ele>
        <time>2017-07-21T13:11:25Z</time>
      </trkpt>
      <trkpt lat="59.198401978947" lon="17.886114784698">
        <ele>24</ele>
        <time>2017-07-21T13:11:26Z</time>
      </trkpt>
      <trkpt lat="59.198419916213" lon="17.885967430896">
        <ele>23.4</ele>
        <time>2017-07-21T13:11:27Z</time>
      </trkpt>
      <trkpt lat="59.198442547343" lon="17.885828878089">
        <ele>22.6</ele>
        <time>2017-07-21T13:11:28Z</time>
      </trkpt>
      <trkpt lat="59.198462580084" lon="17.885700886476">
        <ele>22</ele>
        <time>2017-07-21T13:11:29Z</time>
      </trkpt>
      <trkpt lat="59.198483702472" lon="17.885574738881">
        <ele>21.4</ele>
        <time>2017-07-21T13:11:30Z</time>
      </trkpt>
      <trkpt lat="59.198507842344" lon="17.885442891594">
        <ele>20.2</ele>
        <time>2017-07-21T13:11:31Z</time>
      </trkpt>
      <trkpt lat="59.198531144026" lon="17.885318839474">
        <ele>19.6</ele>
        <time>2017-07-21T13:11:32Z</time>
      </trkpt>
      <trkpt lat="59.198554948622" lon="17.885196044639">
        <ele>19</ele>
        <time>2017-07-21T13:11:33Z</time>
      </trkpt>
      <trkpt lat="59.198584369091" lon="17.885067885388">
        <ele>18.4</ele>
        <time>2017-07-21T13:11:34Z</time>
      </trkpt>
      <trkpt lat="59.198615885035" lon="17.88494198925">
        <ele>17.8</ele>
        <time>2017-07-21T13:11:35Z</time>
      </trkpt>
      <trkpt lat="59.198645892237" lon="17.884810477239">
        <ele>17.8</ele>
        <time>2017-07-21T13:11:36Z</time>
      </trkpt>
      <trkpt lat="59.198706744831" lon="17.884556840945">
        <ele>17.4</ele>
        <time>2017-07-21T13:11:38Z</time>
      </trkpt>
      <trkpt lat="59.198734153644" lon="17.884432705006">
        <ele>16.8</ele>
        <time>2017-07-21T13:11:39Z</time>
      </trkpt>
      <trkpt lat="59.198761981552" lon="17.884320136089">
        <ele>16.4</ele>
        <time>2017-07-21T13:11:40Z</time>
      </trkpt>
      <trkpt lat="59.198794503324" lon="17.884207399534">
        <ele>16</ele>
        <time>2017-07-21T13:11:41Z</time>
      </trkpt>
      <trkpt lat="59.198831886598" lon="17.884091561676">
        <ele>15.4</ele>
        <time>2017-07-21T13:11:42Z</time>
      </trkpt>
      <trkpt lat="59.198875221021" lon="17.883992739075">
        <ele>15.4</ele>
        <time>2017-07-21T13:11:43Z</time>
      </trkpt>
      <trkpt lat="59.199021568995" lon="17.88375092126">
        <ele>15.4</ele>
        <time>2017-07-21T13:11:46Z</time>
      </trkpt>
      <trkpt lat="59.199196163972" lon="17.883643297664">
        <ele>15</ele>
        <time>2017-07-21T13:11:49Z</time>
      </trkpt>
      <trkpt lat="59.199248550847" lon="17.883634580488">
        <ele>14.6</ele>
        <time>2017-07-21T13:11:50Z</time>
      </trkpt>
      <trkpt lat="59.199301272998" lon="17.883628880796">
        <ele>14.2</ele>
        <time>2017-07-21T13:11:51Z</time>
      </trkpt>
      <trkpt lat="59.199347457267" lon="17.883621504724">
        <ele>13.8</ele>
        <time>2017-07-21T13:11:52Z</time>
      </trkpt>
      <trkpt lat="59.199392887165" lon="17.883604573286">
        <ele>13.4</ele>
        <time>2017-07-21T13:11:53Z</time>
      </trkpt>
      <trkpt lat="59.199473521043" lon="17.883572302971">
        <ele>13.4</ele>
        <time>2017-07-21T13:11:55Z</time>
      </trkpt>
      <trkpt lat="59.199537307302" lon="17.883531818394">
        <ele>13.4</ele>
        <time>2017-07-21T13:11:58Z</time>
      </trkpt>
      <trkpt lat="59.1995408277" lon="17.883528968548">
        <ele>13.4</ele>
        <time>2017-07-21T13:11:59Z</time>
      </trkpt>
      <trkpt lat="59.199552981455" lon="17.883526202521">
        <ele>13.4</ele>
        <time>2017-07-21T13:12:14Z</time>
      </trkpt>
      <trkpt lat="59.199571924549" lon="17.883502230287">
        <ele>13.4</ele>
        <time>2017-07-21T13:12:15Z</time>
      </trkpt>
      <trkpt lat="59.19966068887" lon="17.883341213988">
        <ele>13.4</ele>
        <time>2017-07-21T13:12:19Z</time>
      </trkpt>
      <trkpt lat="59.199802594437" lon="17.883027395652">
        <ele>13.4</ele>
        <time>2017-07-21T13:12:25Z</time>
      </trkpt>
      <trkpt lat="59.199930083136" lon="17.882835282504">
        <ele>13</ele>
        <time>2017-07-21T13:12:28Z</time>
      </trkpt>
      <trkpt lat="59.199983308201" lon="17.882759593947">
        <ele>12.4</ele>
        <time>2017-07-21T13:12:29Z</time>
      </trkpt>
      <trkpt lat="59.200035611257" lon="17.882681726096">
        <ele>12</ele>
        <time>2017-07-21T13:12:30Z</time>
      </trkpt>
      <trkpt lat="59.200083304268" lon="17.882602936236">
        <ele>11.4</ele>
        <time>2017-07-21T13:12:31Z</time>
      </trkpt>
      <trkpt lat="59.200123788845" lon="17.882522553815">
        <ele>11</ele>
        <time>2017-07-21T13:12:32Z</time>
      </trkpt>
      <trkpt lat="59.200164524879" lon="17.882436220245">
        <ele>10.4</ele>
        <time>2017-07-21T13:12:33Z</time>
      </trkpt>
      <trkpt lat="59.200203919809" lon="17.882350641046">
        <ele>10</ele>
        <time>2017-07-21T13:12:34Z</time>
      </trkpt>
      <trkpt lat="59.200238285599" lon="17.882261373811">
        <ele>9.4</ele>
        <time>2017-07-21T13:12:35Z</time>
      </trkpt>
      <trkpt lat="59.20027508214" lon="17.882172525671">
        <ele>9</ele>
        <time>2017-07-21T13:12:36Z</time>
      </trkpt>
      <trkpt lat="59.200310369939" lon="17.882085102454">
        <ele>8.4</ele>
        <time>2017-07-21T13:12:37Z</time>
      </trkpt>
      <trkpt lat="59.200348423765" lon="17.881991476631">
        <ele>8</ele>
        <time>2017-07-21T13:12:38Z</time>
      </trkpt>
      <trkpt lat="59.200383376288" lon="17.881898940455">
        <ele>7.6</ele>
        <time>2017-07-21T13:12:39Z</time>
      </trkpt>
      <trkpt lat="59.200416652431" lon="17.881796597456">
        <ele>7.2</ele>
        <time>2017-07-21T13:12:40Z</time>
      </trkpt>
      <trkpt lat="59.200451437316" lon="17.881698613045">
        <ele>6.8</ele>
        <time>2017-07-21T13:12:41Z</time>
      </trkpt>
      <trkpt lat="59.200484545821" lon="17.88159509658">
        <ele>6.4</ele>
        <time>2017-07-21T13:12:42Z</time>
      </trkpt>
      <trkpt lat="59.200550679012" lon="17.881392422238">
        <ele>5.6</ele>
        <time>2017-07-21T13:12:44Z</time>
      </trkpt>
      <trkpt lat="59.200583284603" lon="17.881291252705">
        <ele>5.2</ele>
        <time>2017-07-21T13:12:45Z</time>
      </trkpt>
      <trkpt lat="59.200610106683" lon="17.881192011009">
        <ele>4.8</ele>
        <time>2017-07-21T13:12:46Z</time>
      </trkpt>
      <trkpt lat="59.200632067261" lon="17.881078687721">
        <ele>4.4</ele>
        <time>2017-07-21T13:12:47Z</time>
      </trkpt>
      <trkpt lat="59.200658051151" lon="17.880705944628">
        <ele>4.4</ele>
        <time>2017-07-21T13:12:50Z</time>
      </trkpt>
      <trkpt lat="59.200649166337" lon="17.880539899189">
        <ele>3.8</ele>
        <time>2017-07-21T13:12:51Z</time>
      </trkpt>
      <trkpt lat="59.200639191876" lon="17.880359101606">
        <ele>3.4</ele>
        <time>2017-07-21T13:12:52Z</time>
      </trkpt>
      <trkpt lat="59.200633156908" lon="17.880163384241">
        <ele>2.8</ele>
        <time>2017-07-21T13:12:53Z</time>
      </trkpt>
      <trkpt lat="59.200618656221" lon="17.879966241953">
        <ele>2</ele>
        <time>2017-07-21T13:12:54Z</time>
      </trkpt>
      <trkpt lat="59.200601808602" lon="17.879762729421">
        <ele>1.4</ele>
        <time>2017-07-21T13:12:55Z</time>
      </trkpt>
      <trkpt lat="59.200584960983" lon="17.879568101703">
        <ele>0.6</ele>
        <time>2017-07-21T13:12:56Z</time>
      </trkpt>
      <trkpt lat="59.200571047029" lon="17.879383783722">
        <ele>0</ele>
        <time>2017-07-21T13:12:57Z</time>
      </trkpt>
      <trkpt lat="59.200554953781" lon="17.879208518193">
        <ele>0</ele>
        <time>2017-07-21T13:12:58Z</time>
      </trkpt>
      <trkpt lat="59.200541291284" lon="17.878886653233">
        <ele>0</ele>
        <time>2017-07-21T13:13:00Z</time>
      </trkpt>
      <trkpt lat="59.200547410071" lon="17.878735946671">
        <ele>0</ele>
        <time>2017-07-21T13:13:01Z</time>
      </trkpt>
      <trkpt lat="59.200584960983" lon="17.878206797324">
        <ele>0</ele>
        <time>2017-07-21T13:13:05Z</time>
      </trkpt>
      <trkpt lat="59.20060113805" lon="17.878091797656">
        <ele>0</ele>
        <time>2017-07-21T13:13:06Z</time>
      </trkpt>
      <trkpt lat="59.200705660343" lon="17.877564743784">
        <ele>0</ele>
        <time>2017-07-21T13:13:11Z</time>
      </trkpt>
      <trkpt lat="59.20073608664" lon="17.877469693038">
        <ele>0</ele>
        <time>2017-07-21T13:13:12Z</time>
      </trkpt>
      <trkpt lat="59.200874136533" lon="17.877143720947">
        <ele>0</ele>
        <time>2017-07-21T13:13:16Z</time>
      </trkpt>
      <trkpt lat="59.20095820699" lon="17.877007934167">
        <ele>0</ele>
        <time>2017-07-21T13:13:18Z</time>
      </trkpt>
      <trkpt lat="59.201104554964" lon="17.87685597032">
        <ele>0</ele>
        <time>2017-07-21T13:13:21Z</time>
      </trkpt>
      <trkpt lat="59.201151996518" lon="17.876817916494">
        <ele>0</ele>
        <time>2017-07-21T13:13:22Z</time>
      </trkpt>
      <trkpt lat="59.201396999455" lon="17.876728062526">
        <ele>0</ele>
        <time>2017-07-21T13:13:27Z</time>
      </trkpt>
      <trkpt lat="59.201613839208" lon="17.876629323744">
        <ele>0</ele>
        <time>2017-07-21T13:13:32Z</time>
      </trkpt>
      <trkpt lat="59.201692209973" lon="17.876606022062">
        <ele>0</ele>
        <time>2017-07-21T13:13:34Z</time>
      </trkpt>
      <trkpt lat="59.201768652901" lon="17.87657014753">
        <ele>0</ele>
        <time>2017-07-21T13:13:36Z</time>
      </trkpt>
      <trkpt lat="59.201875941221" lon="17.87651063604">
        <ele>0</ele>
        <time>2017-07-21T13:13:39Z</time>
      </trkpt>
      <trkpt lat="59.202063528143" lon="17.876334029407">
        <ele>0</ele>
        <time>2017-07-21T13:13:44Z</time>
      </trkpt>
      <trkpt lat="59.202096049915" lon="17.876281642532">
        <ele>0</ele>
        <time>2017-07-21T13:13:45Z</time>
      </trkpt>
      <trkpt lat="59.202187244987" lon="17.876101850777">
        <ele>0</ele>
        <time>2017-07-21T13:13:48Z</time>
      </trkpt>
      <trkpt lat="59.202213899429" lon="17.87602867679">
        <ele>0</ele>
        <time>2017-07-21T13:13:49Z</time>
      </trkpt>
      <trkpt lat="59.202401989265" lon="17.875483601833">
        <ele>0</ele>
        <time>2017-07-21T13:13:56Z</time>
      </trkpt>
      <trkpt lat="59.202592174576" lon="17.874967779707">
        <ele>0</ele>
        <time>2017-07-21T13:14:03Z</time>
      </trkpt>
      <trkpt lat="59.202616482086" lon="17.87489376753">
        <ele>0</ele>
        <time>2017-07-21T13:14:04Z</time>
      </trkpt>
      <trkpt lat="59.202663253088" lon="17.874759321854">
        <ele>0</ele>
        <time>2017-07-21T13:14:06Z</time>
      </trkpt>
      <trkpt lat="59.202714969411" lon="17.874630827327">
        <ele>0</ele>
        <time>2017-07-21T13:14:08Z</time>
      </trkpt>
      <trkpt lat="59.202766518096" lon="17.874496884565">
        <ele>0</ele>
        <time>2017-07-21T13:14:10Z</time>
      </trkpt>
      <trkpt lat="59.202858802815" lon="17.87429697625">
        <ele>0</ele>
        <time>2017-07-21T13:14:13Z</time>
      </trkpt>
      <trkpt lat="59.202891743682" lon="17.874242745357">
        <ele>0</ele>
        <time>2017-07-21T13:14:14Z</time>
      </trkpt>
      <trkpt lat="59.202959050339" lon="17.874119866703">
        <ele>0</ele>
        <time>2017-07-21T13:14:16Z</time>
      </trkpt>
      <trkpt lat="59.203029290661" lon="17.873994724936">
        <ele>0</ele>
        <time>2017-07-21T13:14:18Z</time>
      </trkpt>
      <trkpt lat="59.203287201724" lon="17.873566745122">
        <ele>0</ele>
        <time>2017-07-21T13:14:25Z</time>
      </trkpt>
      <trkpt lat="59.203420893029" lon="17.873357281441">
        <ele>0</ele>
        <time>2017-07-21T13:14:29Z</time>
      </trkpt>
      <trkpt lat="59.203587022287" lon="17.873130802503">
        <ele>0</ele>
        <time>2017-07-21T13:14:34Z</time>
      </trkpt>
      <trkpt lat="59.20382900774" lon="17.87274464837">
        <ele>0</ele>
        <time>2017-07-21T13:14:41Z</time>
      </trkpt>
      <trkpt lat="59.204099994567" lon="17.872341395161">
        <ele>0</ele>
        <time>2017-07-21T13:14:49Z</time>
      </trkpt>
      <trkpt lat="59.204197224607" lon="17.872169230935">
        <ele>0</ele>
        <time>2017-07-21T13:14:52Z</time>
      </trkpt>
      <trkpt lat="59.204288587317" lon="17.871982817479">
        <ele>0</ele>
        <time>2017-07-21T13:14:55Z</time>
      </trkpt>
      <trkpt lat="59.204385062986" lon="17.871687271685">
        <ele>0</ele>
        <time>2017-07-21T13:14:59Z</time>
      </trkpt>
      <trkpt lat="59.204419596414" lon="17.871515107459">
        <ele>0</ele>
        <time>2017-07-21T13:15:01Z</time>
      </trkpt>
      <trkpt lat="59.204469468719" lon="17.870906330062">
        <ele>0</ele>
        <time>2017-07-21T13:15:07Z</time>
      </trkpt>
      <trkpt lat="59.204505259432" lon="17.87013284833">
        <ele>0</ele>
        <time>2017-07-21T13:15:14Z</time>
      </trkpt>
      <trkpt lat="59.204510288572" lon="17.870024554182">
        <ele>0</ele>
        <time>2017-07-21T13:15:15Z</time>
      </trkpt>
      <trkpt lat="59.204516239721" lon="17.86991575712">
        <ele>0</ele>
        <time>2017-07-21T13:15:16Z</time>
      </trkpt>
      <trkpt lat="59.204520849766" lon="17.869808301162">
        <ele>0</ele>
        <time>2017-07-21T13:15:17Z</time>
      </trkpt>
      <trkpt lat="59.204524956897" lon="17.869700761385">
        <ele>0</ele>
        <time>2017-07-21T13:15:18Z</time>
      </trkpt>
      <trkpt lat="59.204546163104" lon="17.868919316848">
        <ele>0</ele>
        <time>2017-07-21T13:15:25Z</time>
      </trkpt>
      <trkpt lat="59.204520263033" lon="17.867862023982">
        <ele>0</ele>
        <time>2017-07-21T13:15:34Z</time>
      </trkpt>
      <trkpt lat="59.204491094021" lon="17.866942781009">
        <ele>0</ele>
        <time>2017-07-21T13:15:42Z</time>
      </trkpt>
      <trkpt lat="59.204476509515" lon="17.866619239669">
        <ele>0</ele>
        <time>2017-07-21T13:15:45Z</time>
      </trkpt>
      <trkpt lat="59.204465277769" lon="17.866299554003">
        <ele>0</ele>
        <time>2017-07-21T13:15:48Z</time>
      </trkpt>
      <trkpt lat="59.204442059906" lon="17.865306969405">
        <ele>0</ele>
        <time>2017-07-21T13:15:57Z</time>
      </trkpt>
      <trkpt lat="59.204429738513" lon="17.864554442423">
        <ele>0</ele>
        <time>2017-07-21T13:16:04Z</time>
      </trkpt>
      <trkpt lat="59.204404928089" lon="17.86365363963">
        <ele>0</ele>
        <time>2017-07-21T13:16:13Z</time>
      </trkpt>
      <trkpt lat="59.204388499565" lon="17.862981327431">
        <ele>0</ele>
        <time>2017-07-21T13:16:20Z</time>
      </trkpt>
      <trkpt lat="59.204357318897" lon="17.861918921606">
        <ele>0</ele>
        <time>2017-07-21T13:16:30Z</time>
      </trkpt>
      <trkpt lat="59.204344243133" lon="17.861080144873">
        <ele>0</ele>
        <time>2017-07-21T13:16:37Z</time>
      </trkpt>
      <trkpt lat="59.204313649198" lon="17.860012458451">
        <ele>0</ele>
        <time>2017-07-21T13:16:45Z</time>
      </trkpt>
      <trkpt lat="59.204312224275" lon="17.859032865798">
        <ele>0</ele>
        <time>2017-07-21T13:16:52Z</time>
      </trkpt>
      <trkpt lat="59.204289257869" lon="17.858470607946">
        <ele>0</ele>
        <time>2017-07-21T13:16:57Z</time>
      </trkpt>
      <trkpt lat="59.204277774666" lon="17.858301209747">
        <ele>0</ele>
        <time>2017-07-21T13:16:59Z</time>
      </trkpt>
      <trkpt lat="59.204258244839" lon="17.858163411311">
        <ele>0</ele>
        <time>2017-07-21T13:17:01Z</time>
      </trkpt>
      <trkpt lat="59.20423888265" lon="17.857931567957">
        <ele>0</ele>
        <time>2017-07-21T13:17:04Z</time>
      </trkpt>
      <trkpt lat="59.204225220153" lon="17.857779687929">
        <ele>0</ele>
        <time>2017-07-21T13:17:06Z</time>
      </trkpt>
      <trkpt lat="59.204203427213" lon="17.857274007902">
        <ele>0</ele>
        <time>2017-07-21T13:17:13Z</time>
      </trkpt>
      <trkpt lat="59.204163864645" lon="17.856677719536">
        <ele>0</ele>
        <time>2017-07-21T13:17:19Z</time>
      </trkpt>
      <trkpt lat="59.204113573245" lon="17.855939357965">
        <ele>0</ele>
        <time>2017-07-21T13:17:26Z</time>
      </trkpt>
      <trkpt lat="59.204085745337" lon="17.85555672423">
        <ele>0</ele>
        <time>2017-07-21T13:17:30Z</time>
      </trkpt>
      <trkpt lat="59.204080716197" lon="17.855466954081">
        <ele>0</ele>
        <time>2017-07-21T13:17:31Z</time>
      </trkpt>
      <trkpt lat="59.204037046498" lon="17.854852560811">
        <ele>0</ele>
        <time>2017-07-21T13:17:38Z</time>
      </trkpt>
      <trkpt lat="59.203993125342" lon="17.854313437003">
        <ele>0</ele>
        <time>2017-07-21T13:17:44Z</time>
      </trkpt>
      <trkpt lat="59.20399748393" lon="17.854234311867">
        <ele>0</ele>
        <time>2017-07-21T13:17:45Z</time>
      </trkpt>
      <trkpt lat="59.204048278244" lon="17.854123167873">
        <ele>0</ele>
        <time>2017-07-21T13:17:47Z</time>
      </trkpt>
      <trkpt lat="59.204168726147" lon="17.854041863443">
        <ele>0</ele>
        <time>2017-07-21T13:17:51Z</time>
      </trkpt>
      <trkpt lat="59.204194626218" lon="17.854023926177">
        <ele>0</ele>
        <time>2017-07-21T13:17:52Z</time>
      </trkpt>
      <trkpt lat="59.204217005891" lon="17.854006659463">
        <ele>0</ele>
        <time>2017-07-21T13:17:53Z</time>
      </trkpt>
      <trkpt lat="59.20423972084" lon="17.853989141292">
        <ele>0</ele>
        <time>2017-07-21T13:17:54Z</time>
      </trkpt>
      <trkpt lat="59.204266291463" lon="17.853975394976">
        <ele>0</ele>
        <time>2017-07-21T13:17:55Z</time>
      </trkpt>
      <trkpt lat="59.204318259243" lon="17.853950081638">
        <ele>0</ele>
        <time>2017-07-21T13:17:57Z</time>
      </trkpt>
      <trkpt lat="59.204392606696" lon="17.853919152427">
        <ele>0</ele>
        <time>2017-07-21T13:17:59Z</time>
      </trkpt>
      <trkpt lat="59.204476425696" lon="17.853868190475">
        <ele>0</ele>
        <time>2017-07-21T13:18:01Z</time>
      </trkpt>
      <trkpt lat="59.204570302976" lon="17.853796357592">
        <ele>0</ele>
        <time>2017-07-21T13:18:04Z</time>
      </trkpt>
      <trkpt lat="59.204594107572" lon="17.853764757829">
        <ele>0.2</ele>
        <time>2017-07-21T13:18:05Z</time>
      </trkpt>
      <trkpt lat="59.204619840005" lon="17.853741623785">
        <ele>0.6</ele>
        <time>2017-07-21T13:18:06Z</time>
      </trkpt>
      <trkpt lat="59.204646829723" lon="17.8537236027">
        <ele>1</ele>
        <time>2017-07-21T13:18:07Z</time>
      </trkpt>
      <trkpt lat="59.204722434461" lon="17.853664845581">
        <ele>1.6</ele>
        <time>2017-07-21T13:18:10Z</time>
      </trkpt>
      <trkpt lat="59.204748250713" lon="17.85364565103">
        <ele>2</ele>
        <time>2017-07-21T13:18:11Z</time>
      </trkpt>
      <trkpt lat="59.204773899327" lon="17.853625031556">
        <ele>2.4</ele>
        <time>2017-07-21T13:18:12Z</time>
      </trkpt>
      <trkpt lat="59.204803403615" lon="17.853603406254">
        <ele>2.8</ele>
        <time>2017-07-21T13:18:14Z</time>
      </trkpt>
      <trkpt lat="59.204823436356" lon="17.853580607486">
        <ele>3.4</ele>
        <time>2017-07-21T13:18:15Z</time>
      </trkpt>
      <trkpt lat="59.204866184046" lon="17.853535345226">
        <ele>3.8</ele>
        <time>2017-07-21T13:18:17Z</time>
      </trkpt>
      <trkpt lat="59.204888563719" lon="17.853520593082">
        <ele>4.2</ele>
        <time>2017-07-21T13:18:18Z</time>
      </trkpt>
      <trkpt lat="59.204912452134" lon="17.853512965553">
        <ele>4.6</ele>
        <time>2017-07-21T13:18:19Z</time>
      </trkpt>
      <trkpt lat="59.204936424368" lon="17.853500476522">
        <ele>5</ele>
        <time>2017-07-21T13:18:20Z</time>
      </trkpt>
      <trkpt lat="59.204959809869" lon="17.853485640559">
        <ele>5.4</ele>
        <time>2017-07-21T13:18:21Z</time>
      </trkpt>
      <trkpt lat="59.205072127329" lon="17.853404671405">
        <ele>5.4</ele>
        <time>2017-07-21T13:18:26Z</time>
      </trkpt>
      <trkpt lat="59.205184109513" lon="17.853308279555">
        <ele>5.8</ele>
        <time>2017-07-21T13:18:31Z</time>
      </trkpt>
      <trkpt lat="59.205208836118" lon="17.853290593746">
        <ele>6.2</ele>
        <time>2017-07-21T13:18:32Z</time>
      </trkpt>
      <trkpt lat="59.205232053981" lon="17.853275338688">
        <ele>6.6</ele>
        <time>2017-07-21T13:18:33Z</time>
      </trkpt>
      <trkpt lat="59.205252002903" lon="17.85325840725">
        <ele>7.2</ele>
        <time>2017-07-21T13:18:34Z</time>
      </trkpt>
      <trkpt lat="59.205274634033" lon="17.853241308174">
        <ele>7.6</ele>
        <time>2017-07-21T13:18:35Z</time>
      </trkpt>
      <trkpt lat="59.205384772199" lon="17.853192022602">
        <ele>7.6</ele>
        <time>2017-07-21T13:18:40Z</time>
      </trkpt>
      <trkpt lat="59.20543665616" lon="17.853140976831">
        <ele>8</ele>
        <time>2017-07-21T13:18:42Z</time>
      </trkpt>
      <trkpt lat="59.205465238439" lon="17.853125386497">
        <ele>8.4</ele>
        <time>2017-07-21T13:18:43Z</time>
      </trkpt>
      <trkpt lat="59.205492479614" lon="17.85311675314">
        <ele>8.8</ele>
        <time>2017-07-21T13:18:44Z</time>
      </trkpt>
      <trkpt lat="59.205520139884" lon="17.853107952145">
        <ele>9.2</ele>
        <time>2017-07-21T13:18:45Z</time>
      </trkpt>
      <trkpt lat="59.205548219249" lon="17.853087584128">
        <ele>9.8</ele>
        <time>2017-07-21T13:18:46Z</time>
      </trkpt>
      <trkpt lat="59.205650143153" lon="17.8530027593">
        <ele>9.8</ele>
        <time>2017-07-21T13:18:51Z</time>
      </trkpt>
      <trkpt lat="59.20567973126" lon="17.852978787066">
        <ele>9.8</ele>
        <time>2017-07-21T13:18:53Z</time>
      </trkpt>
      <trkpt lat="59.205693477576" lon="17.852970321347">
        <ele>10.2</ele>
        <time>2017-07-21T13:18:54Z</time>
      </trkpt>
      <trkpt lat="59.205712504489" lon="17.852968812605">
        <ele>10.6</ele>
        <time>2017-07-21T13:18:55Z</time>
      </trkpt>
      <trkpt lat="59.205730190298" lon="17.852967303863">
        <ele>11</ele>
        <time>2017-07-21T13:18:56Z</time>
      </trkpt>
      <trkpt lat="59.205745277718" lon="17.852950288606">
        <ele>11.4</ele>
        <time>2017-07-21T13:18:57Z</time>
      </trkpt>
      <trkpt lat="59.205757850568" lon="17.852933860082">
        <ele>11.8</ele>
        <time>2017-07-21T13:18:58Z</time>
      </trkpt>
      <trkpt lat="59.205784924105" lon="17.852905445441">
        <ele>11.8</ele>
        <time>2017-07-21T13:19:00Z</time>
      </trkpt>
      <trkpt lat="59.205842256301" lon="17.852825482115">
        <ele>11.8</ele>
        <time>2017-07-21T13:19:04Z</time>
      </trkpt>
      <trkpt lat="59.205870922399" lon="17.852794217628">
        <ele>11.8</ele>
        <time>2017-07-21T13:19:06Z</time>
      </trkpt>
      <trkpt lat="59.205928003138" lon="17.852755744707">
        <ele>11.8</ele>
        <time>2017-07-21T13:19:09Z</time>
      </trkpt>
      <trkpt lat="59.205946108042" lon="17.852735711966">
        <ele>12.2</ele>
        <time>2017-07-21T13:19:10Z</time>
      </trkpt>
      <trkpt lat="59.205968739172" lon="17.852726575695">
        <ele>12.6</ele>
        <time>2017-07-21T13:19:11Z</time>
      </trkpt>
      <trkpt lat="59.205988017542" lon="17.852715511587">
        <ele>13</ele>
        <time>2017-07-21T13:19:12Z</time>
      </trkpt>
      <trkpt lat="59.206007295912" lon="17.852702771099">
        <ele>13.4</ele>
        <time>2017-07-21T13:19:13Z</time>
      </trkpt>
      <trkpt lat="59.206028334481" lon="17.852692377543">
        <ele>13.8</ele>
        <time>2017-07-21T13:19:14Z</time>
      </trkpt>
      <trkpt lat="59.206165294727" lon="17.852641331772">
        <ele>13.8</ele>
        <time>2017-07-21T13:19:20Z</time>
      </trkpt>
      <trkpt lat="59.206186081839" lon="17.852626914904">
        <ele>14.2</ele>
        <time>2017-07-21T13:19:21Z</time>
      </trkpt>
      <trkpt lat="59.206207623322" lon="17.852611576027">
        <ele>14.6</ele>
        <time>2017-07-21T13:19:22Z</time>
      </trkpt>
      <trkpt lat="59.206223297475" lon="17.852591627105">
        <ele>15</ele>
        <time>2017-07-21T13:19:23Z</time>
      </trkpt>
      <trkpt lat="59.20623880399" lon="17.852563463921">
        <ele>15.4</ele>
        <time>2017-07-21T13:19:24Z</time>
      </trkpt>
      <trkpt lat="59.206252047392" lon="17.85253588747">
        <ele>15.8</ele>
        <time>2017-07-21T13:19:25Z</time>
      </trkpt>
      <trkpt lat="59.206280629671" lon="17.85249230159">
        <ele>15.8</ele>
        <time>2017-07-21T13:19:27Z</time>
      </trkpt>
      <trkpt lat="59.206406022895" lon="17.852413260273">
        <ele>15.8</ele>
        <time>2017-07-21T13:19:33Z</time>
      </trkpt>
      <trkpt lat="59.206465366747" lon="17.852367243642">
        <ele>16.4</ele>
        <time>2017-07-21T13:19:36Z</time>
      </trkpt>
      <trkpt lat="59.206487830239" lon="17.852347462358">
        <ele>16.8</ele>
        <time>2017-07-21T13:19:37Z</time>
      </trkpt>
      <trkpt lat="59.20650870117" lon="17.852331704386">
        <ele>17.2</ele>
        <time>2017-07-21T13:19:38Z</time>
      </trkpt>
      <trkpt lat="59.206528314816" lon="17.852308067428">
        <ele>17.6</ele>
        <time>2017-07-21T13:19:39Z</time>
      </trkpt>
      <trkpt lat="59.206549018109" lon="17.852287280316">
        <ele>18</ele>
        <time>2017-07-21T13:19:40Z</time>
      </trkpt>
      <trkpt lat="59.206667286718" lon="17.852186110783">
        <ele>18</ele>
        <time>2017-07-21T13:19:45Z</time>
      </trkpt>
      <trkpt lat="59.206715147367" lon="17.852154678658">
        <ele>18.6</ele>
        <time>2017-07-21T13:19:47Z</time>
      </trkpt>
      <trkpt lat="59.20673836523" lon="17.852135651745">
        <ele>19</ele>
        <time>2017-07-21T13:19:48Z</time>
      </trkpt>
      <trkpt lat="59.206760409627" lon="17.852110338407">
        <ele>19.4</ele>
        <time>2017-07-21T13:19:49Z</time>
      </trkpt>
      <trkpt lat="59.206788572811" lon="17.852087623458">
        <ele>19.8</ele>
        <time>2017-07-21T13:19:50Z</time>
      </trkpt>
      <trkpt lat="59.20682805156" lon="17.852061136654">
        <ele>20.2</ele>
        <time>2017-07-21T13:19:51Z</time>
      </trkpt>
      <trkpt lat="59.206923856677" lon="17.852011515806">
        <ele>20.2</ele>
        <time>2017-07-21T13:19:54Z</time>
      </trkpt>
      <trkpt lat="59.206946906902" lon="17.851983604079">
        <ele>20.6</ele>
        <time>2017-07-21T13:19:55Z</time>
      </trkpt>
      <trkpt lat="59.206962581055" lon="17.851963655157">
        <ele>21</ele>
        <time>2017-07-21T13:19:56Z</time>
      </trkpt>
      <trkpt lat="59.206984290176" lon="17.851942365131">
        <ele>21.4</ele>
        <time>2017-07-21T13:19:57Z</time>
      </trkpt>
      <trkpt lat="59.207003820003" lon="17.851926271883">
        <ele>22</ele>
        <time>2017-07-21T13:19:58Z</time>
      </trkpt>
      <trkpt lat="59.207025696762" lon="17.851911184463">
        <ele>22.4</ele>
        <time>2017-07-21T13:19:59Z</time>
      </trkpt>
      <trkpt lat="59.207121250422" lon="17.851840105951">
        <ele>22.8</ele>
        <time>2017-07-21T13:20:04Z</time>
      </trkpt>
      <trkpt lat="59.207141702258" lon="17.851826359635">
        <ele>23.2</ele>
        <time>2017-07-21T13:20:05Z</time>
      </trkpt>
      <trkpt lat="59.20715243109" lon="17.851818145373">
        <ele>23.6</ele>
        <time>2017-07-21T13:20:06Z</time>
      </trkpt>
      <trkpt lat="59.207168105243" lon="17.851809847292">
        <ele>24</ele>
        <time>2017-07-21T13:20:07Z</time>
      </trkpt>
      <trkpt lat="59.207178834075" lon="17.851797022985">
        <ele>24.4</ele>
        <time>2017-07-21T13:20:08Z</time>
      </trkpt>
      <trkpt lat="59.207194005314" lon="17.851791490931">
        <ele>24.4</ele>
        <time>2017-07-21T13:20:09Z</time>
      </trkpt>
      <trkpt lat="59.207274974468" lon="17.851726279749">
        <ele>24.4</ele>
        <time>2017-07-21T13:20:13Z</time>
      </trkpt>
      <trkpt lat="59.207365918083" lon="17.851668109363">
        <ele>24.4</ele>
        <time>2017-07-21T13:20:18Z</time>
      </trkpt>
      <trkpt lat="59.207500531397" lon="17.851596527937">
        <ele>24.4</ele>
        <time>2017-07-21T13:20:24Z</time>
      </trkpt>
      <trkpt lat="59.207551996263" lon="17.851563251794">
        <ele>24.8</ele>
        <time>2017-07-21T13:20:26Z</time>
      </trkpt>
      <trkpt lat="59.207575381764" lon="17.851550846582">
        <ele>25.2</ele>
        <time>2017-07-21T13:20:27Z</time>
      </trkpt>
      <trkpt lat="59.207601114197" lon="17.851532154945">
        <ele>25.6</ele>
        <time>2017-07-21T13:20:28Z</time>
      </trkpt>
      <trkpt lat="59.207621566033" lon="17.85151581024">
        <ele>26</ele>
        <time>2017-07-21T13:20:29Z</time>
      </trkpt>
      <trkpt lat="59.207640341489" lon="17.851501896286">
        <ele>26.4</ele>
        <time>2017-07-21T13:20:30Z</time>
      </trkpt>
      <trkpt lat="59.207721059186" lon="17.85144707866">
        <ele>26.4</ele>
        <time>2017-07-21T13:20:34Z</time>
      </trkpt>
      <trkpt lat="59.207820971434" lon="17.85137918527">
        <ele>26.8</ele>
        <time>2017-07-21T13:20:38Z</time>
      </trkpt>
      <trkpt lat="59.207845530401" lon="17.851351692638">
        <ele>27.2</ele>
        <time>2017-07-21T13:20:39Z</time>
      </trkpt>
      <trkpt lat="59.207867490979" lon="17.851329815879">
        <ele>27.6</ele>
        <time>2017-07-21T13:20:40Z</time>
      </trkpt>
      <trkpt lat="59.207892971955" lon="17.851304167265">
        <ele>28.2</ele>
        <time>2017-07-21T13:20:41Z</time>
      </trkpt>
      <trkpt lat="59.207919877854" lon="17.851286313818">
        <ele>28.6</ele>
        <time>2017-07-21T13:20:42Z</time>
      </trkpt>
      <trkpt lat="59.207973605833" lon="17.851264269421">
        <ele>28.6</ele>
        <time>2017-07-21T13:20:44Z</time>
      </trkpt>
      <trkpt lat="59.208104112016" lon="17.851173661082">
        <ele>28.6</ele>
        <time>2017-07-21T13:20:49Z</time>
      </trkpt>
      <trkpt lat="59.208211819431" lon="17.851075509033">
        <ele>29</ele>
        <time>2017-07-21T13:20:53Z</time>
      </trkpt>
      <trkpt lat="59.20824040171" lon="17.851059331966">
        <ele>29.4</ele>
        <time>2017-07-21T13:20:54Z</time>
      </trkpt>
      <trkpt lat="59.208268481075" lon="17.851047010573">
        <ele>29.8</ele>
        <time>2017-07-21T13:20:55Z</time>
      </trkpt>
      <trkpt lat="59.208295219336" lon="17.851028486574">
        <ele>30.4</ele>
        <time>2017-07-21T13:20:56Z</time>
      </trkpt>
      <trkpt lat="59.208323047244" lon="17.851010130213">
        <ele>30.8</ele>
        <time>2017-07-21T13:20:57Z</time>
      </trkpt>
      <trkpt lat="59.208418265628" lon="17.850953300931">
        <ele>30.8</ele>
        <time>2017-07-21T13:21:01Z</time>
      </trkpt>
      <trkpt lat="59.208517926419" lon="17.850878450564">
        <ele>31.2</ele>
        <time>2017-07-21T13:21:05Z</time>
      </trkpt>
      <trkpt lat="59.208543407395" lon="17.850859591289">
        <ele>31.6</ele>
        <time>2017-07-21T13:21:06Z</time>
      </trkpt>
      <trkpt lat="59.208571402941" lon="17.850843162765">
        <ele>32</ele>
        <time>2017-07-21T13:21:07Z</time>
      </trkpt>
      <trkpt lat="59.208599901401" lon="17.85082765625">
        <ele>32.4</ele>
        <time>2017-07-21T13:21:08Z</time>
      </trkpt>
      <trkpt lat="59.208627226395" lon="17.850801588541">
        <ele>32.8</ele>
        <time>2017-07-21T13:21:09Z</time>
      </trkpt>
      <trkpt lat="59.208646504765" lon="17.85075724829">
        <ele>32.8</ele>
        <time>2017-07-21T13:21:10Z</time>
      </trkpt>
      <trkpt lat="59.208660083443" lon="17.850630262505">
        <ele>32.8</ele>
        <time>2017-07-21T13:21:12Z</time>
      </trkpt>
      <trkpt lat="59.208656479226" lon="17.850419206263">
        <ele>32.8</ele>
        <time>2017-07-21T13:21:15Z</time>
      </trkpt>
      <trkpt lat="59.208638793417" lon="17.850278557981">
        <ele>32.8</ele>
        <time>2017-07-21T13:21:17Z</time>
      </trkpt>
      <trkpt lat="59.208600488134" lon="17.850087366842">
        <ele>32.8</ele>
        <time>2017-07-21T13:21:20Z</time>
      </trkpt>
      <trkpt lat="59.208592273872" lon="17.850022239479">
        <ele>32.8</ele>
        <time>2017-07-21T13:21:21Z</time>
      </trkpt>
      <trkpt lat="59.20853041545" lon="17.849711438627">
        <ele>32.8</ele>
        <time>2017-07-21T13:21:26Z</time>
      </trkpt>
      <trkpt lat="59.208547263069" lon="17.84949325777">
        <ele>32.8</ele>
        <time>2017-07-21T13:21:30Z</time>
      </trkpt>
      <trkpt lat="59.208654216113" lon="17.849367193994">
        <ele>32.8</ele>
        <time>2017-07-21T13:21:34Z</time>
      </trkpt>
      <trkpt lat="59.20877097598" lon="17.849272310886">
        <ele>32.8</ele>
        <time>2017-07-21T13:21:38Z</time>
      </trkpt>
      <trkpt lat="59.208803916847" lon="17.849254792715">
        <ele>32.8</ele>
        <time>2017-07-21T13:21:39Z</time>
      </trkpt>
      <trkpt lat="59.208960239282" lon="17.849158987598">
        <ele>33.2</ele>
        <time>2017-07-21T13:21:44Z</time>
      </trkpt>
      <trkpt lat="59.208988821561" lon="17.84914457073">
        <ele>33.6</ele>
        <time>2017-07-21T13:21:45Z</time>
      </trkpt>
      <trkpt lat="59.2090207566" lon="17.849123280704">
        <ele>34.2</ele>
        <time>2017-07-21T13:21:46Z</time>
      </trkpt>
      <trkpt lat="59.20905344601" lon="17.849101487764">
        <ele>34.6</ele>
        <time>2017-07-21T13:21:47Z</time>
      </trkpt>
      <trkpt lat="59.209081609194" lon="17.849079359548">
        <ele>35</ele>
        <time>2017-07-21T13:21:48Z</time>
      </trkpt>
      <trkpt lat="59.209175570293" lon="17.84900207843">
        <ele>35</ele>
        <time>2017-07-21T13:21:51Z</time>
      </trkpt>
      <trkpt lat="59.209247654633" lon="17.848936531972">
        <ele>35.4</ele>
        <time>2017-07-21T13:21:53Z</time>
      </trkpt>
      <trkpt lat="59.209280008767" lon="17.848910631901">
        <ele>35.8</ele>
        <time>2017-07-21T13:21:54Z</time>
      </trkpt>
      <trkpt lat="59.209309261598" lon="17.848884312735">
        <ele>36.2</ele>
        <time>2017-07-21T13:21:55Z</time>
      </trkpt>
      <trkpt lat="59.209335413126" lon="17.848868219487">
        <ele>36.6</ele>
        <time>2017-07-21T13:21:56Z</time>
      </trkpt>
      <trkpt lat="59.209364833595" lon="17.848854640809">
        <ele>37</ele>
        <time>2017-07-21T13:21:57Z</time>
      </trkpt>
      <trkpt lat="59.209475642313" lon="17.84874307772">
        <ele>37</ele>
        <time>2017-07-21T13:22:01Z</time>
      </trkpt>
      <trkpt lat="59.209640011372" lon="17.84850335538">
        <ele>37</ele>
        <time>2017-07-21T13:22:07Z</time>
      </trkpt>
      <trkpt lat="59.209844529732" lon="17.848143268956">
        <ele>37</ele>
        <time>2017-07-21T13:22:14Z</time>
      </trkpt>
      <trkpt lat="59.209902951575" lon="17.84804821821">
        <ele>37.4</ele>
        <time>2017-07-21T13:22:16Z</time>
      </trkpt>
      <trkpt lat="59.209928684008" lon="17.84799792681">
        <ele>38</ele>
        <time>2017-07-21T13:22:17Z</time>
      </trkpt>
      <trkpt lat="59.209946285998" lon="17.847958028966">
        <ele>38.4</ele>
        <time>2017-07-21T13:22:18Z</time>
      </trkpt>
      <trkpt lat="59.209974281544" lon="17.847909581584">
        <ele>38.8</ele>
        <time>2017-07-21T13:22:19Z</time>
      </trkpt>
      <trkpt lat="59.20999892433" lon="17.847857781442">
        <ele>39.2</ele>
        <time>2017-07-21T13:22:20Z</time>
      </trkpt>
      <trkpt lat="59.210152061643" lon="17.847613868152">
        <ele>39.2</ele>
        <time>2017-07-21T13:22:25Z</time>
      </trkpt>
      <trkpt lat="59.210256835393" lon="17.84727540703">
        <ele>39.2</ele>
        <time>2017-07-21T13:22:30Z</time>
      </trkpt>
      <trkpt lat="59.210410559439" lon="17.846836111651">
        <ele>39.2</ele>
        <time>2017-07-21T13:22:36Z</time>
      </trkpt>
      <trkpt lat="59.210527989858" lon="17.846463452377">
        <ele>39.2</ele>
        <time>2017-07-21T13:22:41Z</time>
      </trkpt>
      <trkpt lat="59.210554728119" lon="17.846391870951">
        <ele>39.2</ele>
        <time>2017-07-21T13:22:42Z</time>
      </trkpt>
      <trkpt lat="59.210626477183" lon="17.846181820537">
        <ele>39.2</ele>
        <time>2017-07-21T13:22:45Z</time>
      </trkpt>
      <trkpt lat="59.21067869642" lon="17.846023318808">
        <ele>39.2</ele>
        <time>2017-07-21T13:22:47Z</time>
      </trkpt>
      <trkpt lat="59.210763018334" lon="17.845762390261">
        <ele>39.2</ele>
        <time>2017-07-21T13:22:50Z</time>
      </trkpt>
      <trkpt lat="59.210829989715" lon="17.845463156431">
        <ele>39.2</ele>
        <time>2017-07-21T13:22:53Z</time>
      </trkpt>
      <trkpt lat="59.210975248042" lon="17.844768045464">
        <ele>39.2</ele>
        <time>2017-07-21T13:23:00Z</time>
      </trkpt>
      <trkpt lat="59.211007434538" lon="17.844571070814">
        <ele>39.2</ele>
        <time>2017-07-21T13:23:02Z</time>
      </trkpt>
      <trkpt lat="59.211018917741" lon="17.844469566005">
        <ele>38.8</ele>
        <time>2017-07-21T13:23:03Z</time>
      </trkpt>
      <trkpt lat="59.211033166971" lon="17.8443694023">
        <ele>38.4</ele>
        <time>2017-07-21T13:23:04Z</time>
      </trkpt>
      <trkpt lat="59.21104414726" lon="17.844264125636">
        <ele>38</ele>
        <time>2017-07-21T13:23:05Z</time>
      </trkpt>
      <trkpt lat="59.211055798101" lon="17.844170583632">
        <ele>37.6</ele>
        <time>2017-07-21T13:23:06Z</time>
      </trkpt>
      <trkpt lat="59.211068873865" lon="17.844084501519">
        <ele>37</ele>
        <time>2017-07-21T13:23:07Z</time>
      </trkpt>
      <trkpt lat="59.211150681209" lon="17.843627687969">
        <ele>37</ele>
        <time>2017-07-21T13:23:12Z</time>
      </trkpt>
      <trkpt lat="59.21126962037" lon="17.843160145587">
        <ele>36.6</ele>
        <time>2017-07-21T13:23:17Z</time>
      </trkpt>
      <trkpt lat="59.211300214305" lon="17.84306936961">
        <ele>36.2</ele>
        <time>2017-07-21T13:23:18Z</time>
      </trkpt>
      <trkpt lat="59.211328042213" lon="17.842973648312">
        <ele>35.8</ele>
        <time>2017-07-21T13:23:19Z</time>
      </trkpt>
      <trkpt lat="59.211355534845" lon="17.842879687213">
        <ele>35.4</ele>
        <time>2017-07-21T13:23:20Z</time>
      </trkpt>
      <trkpt lat="59.211383111296" lon="17.842787821589">
        <ele>35</ele>
        <time>2017-07-21T13:23:21Z</time>
      </trkpt>
      <trkpt lat="59.21146240407" lon="17.842479451488">
        <ele>35</ele>
        <time>2017-07-21T13:23:24Z</time>
      </trkpt>
      <trkpt lat="59.211597436479" lon="17.842050884941">
        <ele>35</ele>
        <time>2017-07-21T13:23:29Z</time>
      </trkpt>
      <trkpt lat="59.211640519445" lon="17.842033282951">
        <ele>35</ele>
        <time>2017-07-21T13:23:30Z</time>
      </trkpt>
      <trkpt lat="59.211763565737" lon="17.842111569897">
        <ele>34.6</ele>
        <time>2017-07-21T13:23:33Z</time>
      </trkpt>
      <trkpt lat="59.211815533517" lon="17.84210209835">
        <ele>34.2</ele>
        <time>2017-07-21T13:23:34Z</time>
      </trkpt>
      <trkpt lat="59.211820395019" lon="17.842021129196">
        <ele>33.8</ele>
        <time>2017-07-21T13:23:35Z</time>
      </trkpt>
      <trkpt lat="59.21180438559" lon="17.841967233579">
        <ele>33.2</ele>
        <time>2017-07-21T13:23:36Z</time>
      </trkpt>
      <trkpt lat="59.211797428613" lon="17.84191182922">
        <ele>32.8</ele>
        <time>2017-07-21T13:23:37Z</time>
      </trkpt>
      <trkpt lat="59.211797009518" lon="17.841853658834">
        <ele>32.8</ele>
        <time>2017-07-21T13:23:38Z</time>
      </trkpt>
      <trkpt lat="59.211797093337" lon="17.841791632774">
        <ele>32.8</ele>
        <time>2017-07-21T13:23:39Z</time>
      </trkpt>
      <trkpt lat="59.211827435815" lon="17.841433055092">
        <ele>32.8</ele>
        <time>2017-07-21T13:23:44Z</time>
      </trkpt>
      <trkpt lat="59.211895580662" lon="17.841042039457">
        <ele>32.8</ele>
        <time>2017-07-21T13:23:48Z</time>
      </trkpt>
      <trkpt lat="59.212050394355" lon="17.840538957819">
        <ele>32.8</ele>
        <time>2017-07-21T13:23:53Z</time>
      </trkpt>
      <trkpt lat="59.212209147541" lon="17.840092873101">
        <ele>32.4</ele>
        <time>2017-07-21T13:23:57Z</time>
      </trkpt>
      <trkpt lat="59.212245441168" lon="17.839983321668">
        <ele>32</ele>
        <time>2017-07-21T13:23:58Z</time>
      </trkpt>
      <trkpt lat="59.212284249365" lon="17.839861281204">
        <ele>31.6</ele>
        <time>2017-07-21T13:23:59Z</time>
      </trkpt>
      <trkpt lat="59.212321381182" lon="17.839738989283">
        <ele>31.2</ele>
        <time>2017-07-21T13:24:00Z</time>
      </trkpt>
      <trkpt lat="59.212360859931" lon="17.839618122285">
        <ele>30.8</ele>
        <time>2017-07-21T13:24:01Z</time>
      </trkpt>
      <trkpt lat="59.212594044389" lon="17.838908342993">
        <ele>30.8</ele>
        <time>2017-07-21T13:24:07Z</time>
      </trkpt>
      <trkpt lat="59.212703176727" lon="17.838520931575">
        <ele>30.4</ele>
        <time>2017-07-21T13:24:10Z</time>
      </trkpt>
      <trkpt lat="59.212736704327" lon="17.83839646036">
        <ele>29.8</ele>
        <time>2017-07-21T13:24:11Z</time>
      </trkpt>
      <trkpt lat="59.212768807004" lon="17.838279700493">
        <ele>29.4</ele>
        <time>2017-07-21T13:24:12Z</time>
      </trkpt>
      <trkpt lat="59.212802921337" lon="17.838164952282">
        <ele>29</ele>
        <time>2017-07-21T13:24:13Z</time>
      </trkpt>
      <trkpt lat="59.212835191652" lon="17.838053724469">
        <ele>28.6</ele>
        <time>2017-07-21T13:24:14Z</time>
      </trkpt>
      <trkpt lat="59.21289906173" lon="17.837839483105">
        <ele>28.2</ele>
        <time>2017-07-21T13:24:16Z</time>
      </trkpt>
      <trkpt lat="59.212929488027" lon="17.837733954984">
        <ele>27.6</ele>
        <time>2017-07-21T13:24:17Z</time>
      </trkpt>
      <trkpt lat="59.212956310107" lon="17.837628259225">
        <ele>27.2</ele>
        <time>2017-07-21T13:24:18Z</time>
      </trkpt>
      <trkpt lat="59.212983635101" lon="17.837535471592">
        <ele>26.8</ele>
        <time>2017-07-21T13:24:19Z</time>
      </trkpt>
      <trkpt lat="59.213009116077" lon="17.837437319543">
        <ele>26.2</ele>
        <time>2017-07-21T13:24:20Z</time>
      </trkpt>
      <trkpt lat="59.213029651732" lon="17.837337658752">
        <ele>26.2</ele>
        <time>2017-07-21T13:24:21Z</time>
      </trkpt>
      <trkpt lat="59.213092851258" lon="17.83702182876">
        <ele>26.2</ele>
        <time>2017-07-21T13:24:24Z</time>
      </trkpt>
      <trkpt lat="59.213247581132" lon="17.83667397991">
        <ele>26.2</ele>
        <time>2017-07-21T13:24:28Z</time>
      </trkpt>
      <trkpt lat="59.213343721525" lon="17.836531319972">
        <ele>26.2</ele>
        <time>2017-07-21T13:24:30Z</time>
      </trkpt>
      <trkpt lat="59.213399293522" lon="17.836476669984">
        <ele>25.8</ele>
        <time>2017-07-21T13:24:31Z</time>
      </trkpt>
      <trkpt lat="59.213456877175" lon="17.836428725516">
        <ele>25.4</ele>
        <time>2017-07-21T13:24:32Z</time>
      </trkpt>
      <trkpt lat="59.213523429461" lon="17.836389414405">
        <ele>25</ele>
        <time>2017-07-21T13:24:33Z</time>
      </trkpt>
      <trkpt lat="59.213589143557" lon="17.836359155746">
        <ele>24.6</ele>
        <time>2017-07-21T13:24:34Z</time>
      </trkpt>
      <trkpt lat="59.213653684187" lon="17.836326885431">
        <ele>24.2</ele>
        <time>2017-07-21T13:24:35Z</time>
      </trkpt>
      <trkpt lat="59.21378335218" lon="17.836270559063">
        <ele>24.2</ele>
        <time>2017-07-21T13:24:37Z</time>
      </trkpt>
      <trkpt lat="59.214171517969" lon="17.836085654349">
        <ele>24.2</ele>
        <time>2017-07-21T13:24:43Z</time>
      </trkpt>
      <trkpt lat="59.214342844005" lon="17.835980545323">
        <ele>24.2</ele>
        <time>2017-07-21T13:24:46Z</time>
      </trkpt>
      <trkpt lat="59.214423813159" lon="17.835830174037">
        <ele>24.2</ele>
        <time>2017-07-21T13:24:48Z</time>
      </trkpt>
      <trkpt lat="59.214498747345" lon="17.835557929925">
        <ele>24.2</ele>
        <time>2017-07-21T13:24:51Z</time>
      </trkpt>
      <trkpt lat="59.214522300484" lon="17.835462879179">
        <ele>24.2</ele>
        <time>2017-07-21T13:24:52Z</time>
      </trkpt>
      <trkpt lat="59.214553062057" lon="17.835248302539">
        <ele>24.2</ele>
        <time>2017-07-21T13:24:54Z</time>
      </trkpt>
      <trkpt lat="59.214571334599" lon="17.835002293774">
        <ele>24.2</ele>
        <time>2017-07-21T13:24:56Z</time>
      </trkpt>
      <trkpt lat="59.214570831685" lon="17.834423272122">
        <ele>23.8</ele>
        <time>2017-07-21T13:25:00Z</time>
      </trkpt>
      <trkpt lat="59.214562617423" lon="17.834280528365">
        <ele>23.4</ele>
        <time>2017-07-21T13:25:01Z</time>
      </trkpt>
      <trkpt lat="59.21455867793" lon="17.834136192047">
        <ele>23</ele>
        <time>2017-07-21T13:25:02Z</time>
      </trkpt>
      <trkpt lat="59.214545518347" lon="17.833992526281">
        <ele>22.4</ele>
        <time>2017-07-21T13:25:03Z</time>
      </trkpt>
      <trkpt lat="59.214531520574" lon="17.833860678994">
        <ele>22</ele>
        <time>2017-07-21T13:25:04Z</time>
      </trkpt>
      <trkpt lat="59.214485336305" lon="17.833492629765">
        <ele>22</ele>
        <time>2017-07-21T13:25:07Z</time>
      </trkpt>
      <trkpt lat="59.214461699347" lon="17.833252404511">
        <ele>22</ele>
        <time>2017-07-21T13:25:09Z</time>
      </trkpt>
      <trkpt lat="59.214480223346" lon="17.83291805052">
        <ele>22</ele>
        <time>2017-07-21T13:25:12Z</time>
      </trkpt>
      <trkpt lat="59.214495646042" lon="17.832814031141">
        <ele>22</ele>
        <time>2017-07-21T13:25:13Z</time>
      </trkpt>
      <trkpt lat="59.214605113656" lon="17.832179186035">
        <ele>22</ele>
        <time>2017-07-21T13:25:19Z</time>
      </trkpt>
      <trkpt lat="59.214656327065" lon="17.83189294415">
        <ele>22</ele>
        <time>2017-07-21T13:25:22Z</time>
      </trkpt>
      <trkpt lat="59.214682897688" lon="17.831692281464">
        <ele>22</ele>
        <time>2017-07-21T13:25:24Z</time>
      </trkpt>
      <trkpt lat="59.214749198517" lon="17.831086437732">
        <ele>22</ele>
        <time>2017-07-21T13:25:30Z</time>
      </trkpt>
      <trkpt lat="59.214716341469" lon="17.830702798169">
        <ele>22</ele>
        <time>2017-07-21T13:25:34Z</time>
      </trkpt>
      <trkpt lat="59.21479420932" lon="17.830539770214">
        <ele>22</ele>
        <time>2017-07-21T13:25:36Z</time>
      </trkpt>
      <trkpt lat="59.214840812684" lon="17.830470116625">
        <ele>22</ele>
        <time>2017-07-21T13:25:37Z</time>
      </trkpt>
      <trkpt lat="59.214930163738" lon="17.83034732179">
        <ele>22</ele>
        <time>2017-07-21T13:25:39Z</time>
      </trkpt>
      <trkpt lat="59.214978192025" lon="17.830289319042">
        <ele>21.6</ele>
        <time>2017-07-21T13:25:40Z</time>
      </trkpt>
      <trkpt lat="59.215021442629" lon="17.830224778412">
        <ele>21.2</ele>
        <time>2017-07-21T13:25:41Z</time>
      </trkpt>
      <trkpt lat="59.215043235569" lon="17.830123105965">
        <ele>20.8</ele>
        <time>2017-07-21T13:25:42Z</time>
      </trkpt>
      <trkpt lat="59.215030997995" lon="17.8300028257">
        <ele>20.4</ele>
        <time>2017-07-21T13:25:43Z</time>
      </trkpt>
      <trkpt lat="59.215020352982" lon="17.829897549036">
        <ele>19.8</ele>
        <time>2017-07-21T13:25:44Z</time>
      </trkpt>
      <trkpt lat="59.215010378521" lon="17.829778945151">
        <ele>19.2</ele>
        <time>2017-07-21T13:25:45Z</time>
      </trkpt>
      <trkpt lat="59.215000990793" lon="17.829661850008">
        <ele>18.6</ele>
        <time>2017-07-21T13:25:46Z</time>
      </trkpt>
      <trkpt lat="59.214983556441" lon="17.829556657163">
        <ele>18.2</ele>
        <time>2017-07-21T13:25:47Z</time>
      </trkpt>
      <trkpt lat="59.214968385202" lon="17.829447776282">
        <ele>17.6</ele>
        <time>2017-07-21T13:25:48Z</time>
      </trkpt>
      <trkpt lat="59.214949525927" lon="17.829340487962">
        <ele>17.6</ele>
        <time>2017-07-21T13:25:49Z</time>
      </trkpt>
      <trkpt lat="59.214933851774" lon="17.829245269578">
        <ele>17.6</ele>
        <time>2017-07-21T13:25:50Z</time>
      </trkpt>
      <trkpt lat="59.21492496696" lon="17.829153906868">
        <ele>17.6</ele>
        <time>2017-07-21T13:25:51Z</time>
      </trkpt>
      <trkpt lat="59.214922703847" lon="17.828992052379">
        <ele>17.6</ele>
        <time>2017-07-21T13:25:53Z</time>
      </trkpt>
      <trkpt lat="59.214948101004" lon="17.828935558373">
        <ele>17.6</ele>
        <time>2017-07-21T13:25:54Z</time>
      </trkpt>
      <trkpt lat="59.215063435948" lon="17.828900438212">
        <ele>17.6</ele>
        <time>2017-07-21T13:25:57Z</time>
      </trkpt>
      <trkpt lat="59.215200899108" lon="17.828890882846">
        <ele>17.6</ele>
        <time>2017-07-21T13:26:01Z</time>
      </trkpt>
      <trkpt lat="59.215266697023" lon="17.828891888674">
        <ele>18</ele>
        <time>2017-07-21T13:26:03Z</time>
      </trkpt>
      <trkpt lat="59.215302236279" lon="17.828900438212">
        <ele>18.4</ele>
        <time>2017-07-21T13:26:04Z</time>
      </trkpt>
      <trkpt lat="59.215328723083" lon="17.828929355767">
        <ele>18.8</ele>
        <time>2017-07-21T13:26:05Z</time>
      </trkpt>
      <trkpt lat="59.215353365869" lon="17.828955172019">
        <ele>19.2</ele>
        <time>2017-07-21T13:26:06Z</time>
      </trkpt>
      <trkpt lat="59.215387312564" lon="17.82897939571">
        <ele>19.6</ele>
        <time>2017-07-21T13:26:07Z</time>
      </trkpt>
      <trkpt lat="59.215419834336" lon="17.828979730986">
        <ele>19.6</ele>
        <time>2017-07-21T13:26:08Z</time>
      </trkpt>
      <trkpt lat="59.21560306267" lon="17.829108896065">
        <ele>19.6</ele>
        <time>2017-07-21T13:26:12Z</time>
      </trkpt>
      <trkpt lat="59.215847311236" lon="17.82926940945">
        <ele>19.6</ele>
        <time>2017-07-21T13:26:17Z</time>
      </trkpt>
      <trkpt lat="59.215929034761" lon="17.829334955908">
        <ele>20</ele>
        <time>2017-07-21T13:26:19Z</time>
      </trkpt>
      <trkpt lat="59.215968764967" lon="17.829356162115">
        <ele>20.4</ele>
        <time>2017-07-21T13:26:20Z</time>
      </trkpt>
      <trkpt lat="59.216016457978" lon="17.82937837415">
        <ele>21</ele>
        <time>2017-07-21T13:26:21Z</time>
      </trkpt>
      <trkpt lat="59.216060127677" lon="17.829400753823">
        <ele>21.4</ele>
        <time>2017-07-21T13:26:22Z</time>
      </trkpt>
      <trkpt lat="59.216104467928" lon="17.829417936718">
        <ele>21.8</ele>
        <time>2017-07-21T13:26:23Z</time>
      </trkpt>
      <trkpt lat="59.216261796191" lon="17.829434449061">
        <ele>21.8</ele>
        <time>2017-07-21T13:26:26Z</time>
      </trkpt>
      <trkpt lat="59.216330108676" lon="17.82939346157">
        <ele>21.8</ele>
        <time>2017-07-21T13:26:27Z</time>
      </trkpt>
      <trkpt lat="59.216436558806" lon="17.829256585143">
        <ele>21.2</ele>
        <time>2017-07-21T13:26:29Z</time>
      </trkpt>
      <trkpt lat="59.216476121374" lon="17.829192631246">
        <ele>20.8</ele>
        <time>2017-07-21T13:26:30Z</time>
      </trkpt>
      <trkpt lat="59.216512750277" lon="17.829118032336">
        <ele>20.2</ele>
        <time>2017-07-21T13:26:31Z</time>
      </trkpt>
      <trkpt lat="59.216550804103" lon="17.829041002675">
        <ele>19.8</ele>
        <time>2017-07-21T13:26:32Z</time>
      </trkpt>
      <trkpt lat="59.216596401639" lon="17.828960452616">
        <ele>19.2</ele>
        <time>2017-07-21T13:26:33Z</time>
      </trkpt>
      <trkpt lat="59.216643675555" lon="17.828875627788">
        <ele>18.8</ele>
        <time>2017-07-21T13:26:34Z</time>
      </trkpt>
      <trkpt lat="59.216690362738" lon="17.82878577382">
        <ele>18.4</ele>
        <time>2017-07-21T13:26:35Z</time>
      </trkpt>
      <trkpt lat="59.216747108201" lon="17.828697177137">
        <ele>18</ele>
        <time>2017-07-21T13:26:36Z</time>
      </trkpt>
      <trkpt lat="59.216814498677" lon="17.828656524922">
        <ele>17.6</ele>
        <time>2017-07-21T13:26:37Z</time>
      </trkpt>
      <trkpt lat="59.216887924121" lon="17.828678988414">
        <ele>17.2</ele>
        <time>2017-07-21T13:26:38Z</time>
      </trkpt>
      <trkpt lat="59.216959170271" lon="17.828738164628">
        <ele>16.8</ele>
        <time>2017-07-21T13:26:39Z</time>
      </trkpt>
      <trkpt lat="59.217027482756" lon="17.828788204571">
        <ele>16.4</ele>
        <time>2017-07-21T13:26:40Z</time>
      </trkpt>
      <trkpt lat="59.217111050299" lon="17.828899264746">
        <ele>15.6</ele>
        <time>2017-07-21T13:26:41Z</time>
      </trkpt>
      <trkpt lat="59.217146254279" lon="17.828983670479">
        <ele>15.2</ele>
        <time>2017-07-21T13:26:42Z</time>
      </trkpt>
      <trkpt lat="59.217376253615" lon="17.829444088246">
        <ele>15.2</ele>
        <time>2017-07-21T13:26:47Z</time>
      </trkpt>
      <trkpt lat="59.217427550843" lon="17.829501336623">
        <ele>15.2</ele>
        <time>2017-07-21T13:26:48Z</time>
      </trkpt>
      <trkpt lat="59.217529558566" lon="17.829583563062">
        <ele>15.2</ele>
        <time>2017-07-21T13:26:50Z</time>
      </trkpt>
      <trkpt lat="59.217738435514" lon="17.829771233803">
        <ele>15.2</ele>
        <time>2017-07-21T13:26:54Z</time>
      </trkpt>
      <trkpt lat="59.217795851529" lon="17.829792020915">
        <ele>15.2</ele>
        <time>2017-07-21T13:26:55Z</time>
      </trkpt>
      <trkpt lat="59.217863828738" lon="17.829889502412">
        <ele>15.2</ele>
        <time>2017-07-21T13:26:57Z</time>
      </trkpt>
      <trkpt lat="59.217964327719" lon="17.830048171779">
        <ele>15.2</ele>
        <time>2017-07-21T13:27:00Z</time>
      </trkpt>
      <trkpt lat="59.217993496731" lon="17.830112293314">
        <ele>15.2</ele>
        <time>2017-07-21T13:27:01Z</time>
      </trkpt>
      <trkpt lat="59.218049068728" lon="17.830212540838">
        <ele>15.2</ele>
        <time>2017-07-21T13:27:03Z</time>
      </trkpt>
      <trkpt lat="59.218116626842" lon="17.830310692887">
        <ele>15.2</ele>
        <time>2017-07-21T13:27:05Z</time>
      </trkpt>
      <trkpt lat="59.218226429732" lon="17.830479169077">
        <ele>15.2</ele>
        <time>2017-07-21T13:27:08Z</time>
      </trkpt>
      <trkpt lat="59.218274541838" lon="17.830542787698">
        <ele>15.2</ele>
        <time>2017-07-21T13:27:09Z</time>
      </trkpt>
      <trkpt lat="59.218529854512" lon="17.830880326811">
        <ele>15.2</ele>
        <time>2017-07-21T13:27:14Z</time>
      </trkpt>
      <trkpt lat="59.218787597937" lon="17.831182242849">
        <ele>15.2</ele>
        <time>2017-07-21T13:27:19Z</time>
      </trkpt>
      <trkpt lat="59.219013741599" lon="17.831453648771">
        <ele>15.2</ele>
        <time>2017-07-21T13:27:24Z</time>
      </trkpt>
      <trkpt lat="59.21916956112" lon="17.83164064896">
        <ele>15.2</ele>
        <time>2017-07-21T13:27:28Z</time>
      </trkpt>
      <trkpt lat="59.21920392691" lon="17.83168674941">
        <ele>15.2</ele>
        <time>2017-07-21T13:27:29Z</time>
      </trkpt>
      <trkpt lat="59.219309035936" lon="17.831864613328">
        <ele>15.2</ele>
        <time>2017-07-21T13:27:32Z</time>
      </trkpt>
      <trkpt lat="59.219360584621" lon="17.832018924107">
        <ele>15.2</ele>
        <time>2017-07-21T13:27:34Z</time>
      </trkpt>
      <trkpt lat="59.219381958466" lon="17.832108023704">
        <ele>15.2</ele>
        <time>2017-07-21T13:27:35Z</time>
      </trkpt>
      <trkpt lat="59.219505088577" lon="17.832353529555">
        <ele>15.2</ele>
        <time>2017-07-21T13:27:38Z</time>
      </trkpt>
      <trkpt lat="59.219712875878" lon="17.832525526143">
        <ele>15.2</ele>
        <time>2017-07-21T13:27:42Z</time>
      </trkpt>
      <trkpt lat="59.219756629396" lon="17.832552934956">
        <ele>15.2</ele>
        <time>2017-07-21T13:27:43Z</time>
      </trkpt>
      <trkpt lat="59.21984262769" lon="17.832577326285">
        <ele>15.2</ele>
        <time>2017-07-21T13:27:45Z</time>
      </trkpt>
      <trkpt lat="59.219926781966" lon="17.832583361253">
        <ele>15.2</ele>
        <time>2017-07-21T13:27:47Z</time>
      </trkpt>
      <trkpt lat="59.219974894072" lon="17.832567268005">
        <ele>15.2</ele>
        <time>2017-07-21T13:27:48Z</time>
      </trkpt>
      <trkpt lat="59.220105567893" lon="17.832505828678">
        <ele>15.2</ele>
        <time>2017-07-21T13:27:51Z</time>
      </trkpt>
      <trkpt lat="59.22029860305" lon="17.832437013279">
        <ele>15.2</ele>
        <time>2017-07-21T13:27:55Z</time>
      </trkpt>
      <trkpt lat="59.220395581633" lon="17.832461739884">
        <ele>15.6</ele>
        <time>2017-07-21T13:27:57Z</time>
      </trkpt>
      <trkpt lat="59.220449980164" lon="17.832497949692">
        <ele>16</ele>
        <time>2017-07-21T13:27:58Z</time>
      </trkpt>
      <trkpt lat="59.220489794189" lon="17.832569782575">
        <ele>16.4</ele>
        <time>2017-07-21T13:27:59Z</time>
      </trkpt>
      <trkpt lat="59.220520052848" lon="17.832641950734">
        <ele>16.8</ele>
        <time>2017-07-21T13:28:00Z</time>
      </trkpt>
      <trkpt lat="59.220546623471" lon="17.832716549644">
        <ele>17.2</ele>
        <time>2017-07-21T13:28:01Z</time>
      </trkpt>
      <trkpt lat="59.220575457207" lon="17.832783604844">
        <ele>17.2</ele>
        <time>2017-07-21T13:28:02Z</time>
      </trkpt>
      <trkpt lat="59.22068081769" lon="17.833092310221">
        <ele>17.2</ele>
        <time>2017-07-21T13:28:07Z</time>
      </trkpt>
      <trkpt lat="59.220752734392" lon="17.833283668998">
        <ele>17.2</ele>
        <time>2017-07-21T13:28:10Z</time>
      </trkpt>
      <trkpt lat="59.220781568128" lon="17.833352316759">
        <ele>17.2</ele>
        <time>2017-07-21T13:28:11Z</time>
      </trkpt>
      <trkpt lat="59.220976866398" lon="17.833682647438">
        <ele>17.2</ele>
        <time>2017-07-21T13:28:16Z</time>
      </trkpt>
      <trkpt lat="59.221025732875" lon="17.833729586078">
        <ele>17.2</ele>
        <time>2017-07-21T13:28:17Z</time>
      </trkpt>
      <trkpt lat="59.221342065781" lon="17.834014822135">
        <ele>17.2</ele>
        <time>2017-07-21T13:28:24Z</time>
      </trkpt>
      <trkpt lat="59.221559408448" lon="17.834258483968">
        <ele>16.8</ele>
        <time>2017-07-21T13:28:28Z</time>
      </trkpt>
      <trkpt lat="59.221613471703" lon="17.834332412326">
        <ele>16.4</ele>
        <time>2017-07-21T13:28:29Z</time>
      </trkpt>
      <trkpt lat="59.221659991248" lon="17.834394689843">
        <ele>16</ele>
        <time>2017-07-21T13:28:30Z</time>
      </trkpt>
      <trkpt lat="59.221698967083" lon="17.83445026184">
        <ele>15.6</ele>
        <time>2017-07-21T13:28:31Z</time>
      </trkpt>
      <trkpt lat="59.221735512167" lon="17.834510527701">
        <ele>15.2</ele>
        <time>2017-07-21T13:28:32Z</time>
      </trkpt>
      <trkpt lat="59.221776751115" lon="17.834560986739">
        <ele>15.2</ele>
        <time>2017-07-21T13:28:33Z</time>
      </trkpt>
      <trkpt lat="59.22189451681" lon="17.834685290316">
        <ele>14.8</ele>
        <time>2017-07-21T13:28:36Z</time>
      </trkpt>
      <trkpt lat="59.221935252844" lon="17.834711274206">
        <ele>14.2</ele>
        <time>2017-07-21T13:28:37Z</time>
      </trkpt>
      <trkpt lat="59.221974061041" lon="17.834749411851">
        <ele>13.8</ele>
        <time>2017-07-21T13:28:38Z</time>
      </trkpt>
      <trkpt lat="59.22201353979" lon="17.834789142057">
        <ele>13.4</ele>
        <time>2017-07-21T13:28:39Z</time>
      </trkpt>
      <trkpt lat="59.222058382955" lon="17.834838846724">
        <ele>12.8</ele>
        <time>2017-07-21T13:28:40Z</time>
      </trkpt>
      <trkpt lat="59.222460714155" lon="17.835256265344">
        <ele>12.8</ele>
        <time>2017-07-21T13:28:49Z</time>
      </trkpt>
      <trkpt lat="59.222796744526" lon="17.835600007063">
        <ele>12.8</ele>
        <time>2017-07-21T13:28:56Z</time>
      </trkpt>
      <trkpt lat="59.222909732538" lon="17.835721460794">
        <ele>12.8</ele>
        <time>2017-07-21T13:28:58Z</time>
      </trkpt>
      <trkpt lat="59.222964382526" lon="17.835790108555">
        <ele>12.4</ele>
        <time>2017-07-21T13:28:59Z</time>
      </trkpt>
      <trkpt lat="59.223014422469" lon="17.835846770199">
        <ele>12</ele>
        <time>2017-07-21T13:29:00Z</time>
      </trkpt>
      <trkpt lat="59.223062199299" lon="17.835896307228">
        <ele>11.6</ele>
        <time>2017-07-21T13:29:01Z</time>
      </trkpt>
      <trkpt lat="59.223106455731" lon="17.8359372109">
        <ele>11.2</ele>
        <time>2017-07-21T13:29:02Z</time>
      </trkpt>
      <trkpt lat="59.223144844833" lon="17.835978785124">
        <ele>10.8</ele>
        <time>2017-07-21T13:29:03Z</time>
      </trkpt>
      <trkpt lat="59.223314243032" lon="17.836166623503">
        <ele>10.8</ele>
        <time>2017-07-21T13:29:07Z</time>
      </trkpt>
      <trkpt lat="59.223592103017" lon="17.836434425208">
        <ele>11.4</ele>
        <time>2017-07-21T13:29:13Z</time>
      </trkpt>
      <trkpt lat="59.22364046658" lon="17.836483040228">
        <ele>11.8</ele>
        <time>2017-07-21T13:29:14Z</time>
      </trkpt>
      <trkpt lat="59.223687656677" lon="17.836535510922">
        <ele>12.2</ele>
        <time>2017-07-21T13:29:15Z</time>
      </trkpt>
      <trkpt lat="59.223735098231" lon="17.836586640512">
        <ele>12.6</ele>
        <time>2017-07-21T13:29:16Z</time>
      </trkpt>
      <trkpt lat="59.223782036871" lon="17.836638356835">
        <ele>13.2</ele>
        <time>2017-07-21T13:29:17Z</time>
      </trkpt>
      <trkpt lat="59.224059393942" lon="17.836926107462">
        <ele>13.2</ele>
        <time>2017-07-21T13:29:23Z</time>
      </trkpt>
      <trkpt lat="59.224230049426" lon="17.837093745462">
        <ele>13.2</ele>
        <time>2017-07-21T13:29:27Z</time>
      </trkpt>
      <trkpt lat="59.224350832605" lon="17.837193825348">
        <ele>13.2</ele>
        <time>2017-07-21T13:29:30Z</time>
      </trkpt>
      <trkpt lat="59.224489301593" lon="17.837323744798">
        <ele>13.2</ele>
        <time>2017-07-21T13:29:34Z</time>
      </trkpt>
      <trkpt lat="59.224634224644" lon="17.837503201277">
        <ele>13.2</ele>
        <time>2017-07-21T13:29:38Z</time>
      </trkpt>
      <trkpt lat="59.224671188823" lon="17.83756246131">
        <ele>13.2</ele>
        <time>2017-07-21T13:29:39Z</time>
      </trkpt>
      <trkpt lat="59.224796498228" lon="17.837722807057">
        <ele>13.2</ele>
        <time>2017-07-21T13:29:42Z</time>
      </trkpt>
      <trkpt lat="59.224886100739" lon="17.837815510871">
        <ele>13.2</ele>
        <time>2017-07-21T13:29:44Z</time>
      </trkpt>
      <trkpt lat="59.225029012134" lon="17.837936377869">
        <ele>13.2</ele>
        <time>2017-07-21T13:29:47Z</time>
      </trkpt>
      <trkpt lat="59.225072849471" lon="17.837989435296">
        <ele>13.2</ele>
        <time>2017-07-21T13:29:48Z</time>
      </trkpt>
      <trkpt lat="59.225184161103" lon="17.838133520157">
        <ele>13.2</ele>
        <time>2017-07-21T13:29:51Z</time>
      </trkpt>
      <trkpt lat="59.225249875199" lon="17.838234773509">
        <ele>13.2</ele>
        <time>2017-07-21T13:29:53Z</time>
      </trkpt>
      <trkpt lat="59.225336041131" lon="17.838296045198">
        <ele>13.2</ele>
        <time>2017-07-21T13:29:55Z</time>
      </trkpt>
      <trkpt lat="59.225378788821" lon="17.838324627477">
        <ele>13.6</ele>
        <time>2017-07-21T13:29:56Z</time>
      </trkpt>
      <trkpt lat="59.225437797397" lon="17.838368380995">
        <ele>14</ele>
        <time>2017-07-21T13:29:57Z</time>
      </trkpt>
      <trkpt lat="59.225483059657" lon="17.8384014895">
        <ele>14.4</ele>
        <time>2017-07-21T13:29:58Z</time>
      </trkpt>
      <trkpt lat="59.225525639709" lon="17.838441471163">
        <ele>15</ele>
        <time>2017-07-21T13:29:59Z</time>
      </trkpt>
      <trkpt lat="59.225563609716" lon="17.838487571613">
        <ele>15.4</ele>
        <time>2017-07-21T13:30:00Z</time>
      </trkpt>
      <trkpt lat="59.225643573042" lon="17.838567283482">
        <ele>15.4</ele>
        <time>2017-07-21T13:30:02Z</time>
      </trkpt>
      <trkpt lat="59.225817665105" lon="17.838722935365">
        <ele>15.4</ele>
        <time>2017-07-21T13:30:06Z</time>
      </trkpt>
      <trkpt lat="59.225866615401" lon="17.838764090494">
        <ele>15.4</ele>
        <time>2017-07-21T13:30:07Z</time>
      </trkpt>
      <trkpt lat="59.226028805166" lon="17.838869786253">
        <ele>14.8</ele>
        <time>2017-07-21T13:30:10Z</time>
      </trkpt>
      <trkpt lat="59.226089238665" lon="17.838900380188">
        <ele>14.4</ele>
        <time>2017-07-21T13:30:11Z</time>
      </trkpt>
      <trkpt lat="59.226153863114" lon="17.838934662159">
        <ele>13.4</ele>
        <time>2017-07-21T13:30:12Z</time>
      </trkpt>
      <trkpt lat="59.226213626061" lon="17.838972213071">
        <ele>12.8</ele>
        <time>2017-07-21T13:30:13Z</time>
      </trkpt>
      <trkpt lat="59.226574466856" lon="17.839210761945">
        <ele>12.8</ele>
        <time>2017-07-21T13:30:19Z</time>
      </trkpt>
      <trkpt lat="59.226964895758" lon="17.839427936974">
        <ele>12.8</ele>
        <time>2017-07-21T13:30:26Z</time>
      </trkpt>
      <trkpt lat="59.227275864248" lon="17.839599346829">
        <ele>12.8</ele>
        <time>2017-07-21T13:30:33Z</time>
      </trkpt>
      <trkpt lat="59.227520783366" lon="17.8397593573">
        <ele>13.2</ele>
        <time>2017-07-21T13:30:39Z</time>
      </trkpt>
      <trkpt lat="59.227559926839" lon="17.839783245715">
        <ele>13.6</ele>
        <time>2017-07-21T13:30:40Z</time>
      </trkpt>
      <trkpt lat="59.227597896846" lon="17.839803194637">
        <ele>14</ele>
        <time>2017-07-21T13:30:41Z</time>
      </trkpt>
      <trkpt lat="59.227635615396" lon="17.839814929297">
        <ele>14.6</ele>
        <time>2017-07-21T13:30:42Z</time>
      </trkpt>
      <trkpt lat="59.227669562091" lon="17.839834878219">
        <ele>15</ele>
        <time>2017-07-21T13:30:43Z</time>
      </trkpt>
      <trkpt lat="59.227741059698" lon="17.839886175447">
        <ele>15</ele>
        <time>2017-07-21T13:30:45Z</time>
      </trkpt>
      <trkpt lat="59.227940884194" lon="17.840005952798">
        <ele>15</ele>
        <time>2017-07-21T13:30:52Z</time>
      </trkpt>
      <trkpt lat="59.227980949676" lon="17.840039145122">
        <ele>15</ele>
        <time>2017-07-21T13:30:55Z</time>
      </trkpt>
      <trkpt lat="59.228001988245" lon="17.840052220886">
        <ele>15</ele>
        <time>2017-07-21T13:31:01Z</time>
      </trkpt>
      <trkpt lat="59.228095865525" lon="17.84011894081">
        <ele>15</ele>
        <time>2017-07-21T13:31:05Z</time>
      </trkpt>
      <trkpt lat="59.228212206297" lon="17.840194461729">
        <ele>15</ele>
        <time>2017-07-21T13:31:11Z</time>
      </trkpt>
      <trkpt lat="59.228215642876" lon="17.840195635195">
        <ele>15.4</ele>
        <time>2017-07-21T13:31:12Z</time>
      </trkpt>
      <trkpt lat="59.228233496323" lon="17.840205190561">
        <ele>17</ele>
        <time>2017-07-21T13:31:46Z</time>
      </trkpt>
      <trkpt lat="59.228265766638" lon="17.840218769239">
        <ele>17</ele>
        <time>2017-07-21T13:31:48Z</time>
      </trkpt>
      <trkpt lat="59.228418652494" lon="17.840254979047">
        <ele>17</ele>
        <time>2017-07-21T13:31:53Z</time>
      </trkpt>
      <trkpt lat="59.228646304898" lon="17.840276185254">
        <ele>17</ele>
        <time>2017-07-21T13:31:58Z</time>
      </trkpt>
      <trkpt lat="59.228845961756" lon="17.840309545216">
        <ele>17</ele>
        <time>2017-07-21T13:32:02Z</time>
      </trkpt>
      <trkpt lat="59.22889172693" lon="17.840316166917">
        <ele>17</ele>
        <time>2017-07-21T13:32:03Z</time>
      </trkpt>
      <trkpt lat="59.229062550052" lon="17.840233102288">
        <ele>17</ele>
        <time>2017-07-21T13:32:07Z</time>
      </trkpt>
      <trkpt lat="59.229104291914" lon="17.840199071774">
        <ele>17</ele>
        <time>2017-07-21T13:32:08Z</time>
      </trkpt>
      <trkpt lat="59.229145447043" lon="17.840159593025">
        <ele>17</ele>
        <time>2017-07-21T13:32:09Z</time>
      </trkpt>
      <trkpt lat="59.229318533278" lon="17.840019699114">
        <ele>17</ele>
        <time>2017-07-21T13:32:13Z</time>
      </trkpt>
      <trkpt lat="59.229408973979" lon="17.83995968471">
        <ele>17</ele>
        <time>2017-07-21T13:32:15Z</time>
      </trkpt>
      <trkpt lat="59.229583568956" lon="17.839857341711">
        <ele>17.4</ele>
        <time>2017-07-21T13:32:19Z</time>
      </trkpt>
      <trkpt lat="59.229627909207" lon="17.839841667558">
        <ele>17.8</ele>
        <time>2017-07-21T13:32:20Z</time>
      </trkpt>
      <trkpt lat="59.229671495087" lon="17.839838901531">
        <ele>18.2</ele>
        <time>2017-07-21T13:32:21Z</time>
      </trkpt>
      <trkpt lat="59.229712147302" lon="17.839850049458">
        <ele>18.8</ele>
        <time>2017-07-21T13:32:22Z</time>
      </trkpt>
      <trkpt lat="59.229750117309" lon="17.839870752751">
        <ele>19.2</ele>
        <time>2017-07-21T13:32:23Z</time>
      </trkpt>
      <trkpt lat="59.229789260782" lon="17.839897993926">
        <ele>19.2</ele>
        <time>2017-07-21T13:32:24Z</time>
      </trkpt>
      <trkpt lat="59.230015991177" lon="17.840121371561">
        <ele>19.2</ele>
        <time>2017-07-21T13:32:30Z</time>
      </trkpt>
      <trkpt lat="59.230207852868" lon="17.840347179947">
        <ele>19.6</ele>
        <time>2017-07-21T13:32:35Z</time>
      </trkpt>
      <trkpt lat="59.230244984685" lon="17.840396800795">
        <ele>20</ele>
        <time>2017-07-21T13:32:36Z</time>
      </trkpt>
      <trkpt lat="59.230278596104" lon="17.840448852394">
        <ele>20.4</ele>
        <time>2017-07-21T13:32:37Z</time>
      </trkpt>
      <trkpt lat="59.230308603306" lon="17.840500987812">
        <ele>21</ele>
        <time>2017-07-21T13:32:38Z</time>
      </trkpt>
      <trkpt lat="59.230340789802" lon="17.840559493474">
        <ele>21.4</ele>
        <time>2017-07-21T13:32:39Z</time>
      </trkpt>
      <trkpt lat="59.230481102808" lon="17.840802317117">
        <ele>21.4</ele>
        <time>2017-07-21T13:32:43Z</time>
      </trkpt>
      <trkpt lat="59.230759130431" lon="17.841293412638">
        <ele>21.4</ele>
        <time>2017-07-21T13:32:51Z</time>
      </trkpt>
      <trkpt lat="59.230956859452" lon="17.841660958953">
        <ele>21.4</ele>
        <time>2017-07-21T13:32:58Z</time>
      </trkpt>
      <trkpt lat="59.231133549904" lon="17.841892634669">
        <ele>21.4</ele>
        <time>2017-07-21T13:33:03Z</time>
      </trkpt>
      <trkpt lat="59.231175040309" lon="17.841914259971">
        <ele>21.4</ele>
        <time>2017-07-21T13:33:04Z</time>
      </trkpt>
      <trkpt lat="59.23130152318" lon="17.841982823913">
        <ele>21.8</ele>
        <time>2017-07-21T13:33:07Z</time>
      </trkpt>
      <trkpt lat="59.231340834291" lon="17.842001264093">
        <ele>22.2</ele>
        <time>2017-07-21T13:33:08Z</time>
      </trkpt>
      <trkpt lat="59.231379223393" lon="17.842020291006">
        <ele>22.6</ele>
        <time>2017-07-21T13:33:09Z</time>
      </trkpt>
      <trkpt lat="59.231414511192" lon="17.842041413394">
        <ele>23</ele>
        <time>2017-07-21T13:33:10Z</time>
      </trkpt>
      <trkpt lat="59.231445943317" lon="17.842057506642">
        <ele>23.4</ele>
        <time>2017-07-21T13:33:11Z</time>
      </trkpt>
      <trkpt lat="59.231610480014" lon="17.842152557388">
        <ele>23.4</ele>
        <time>2017-07-21T13:33:16Z</time>
      </trkpt>
      <trkpt lat="59.231775519625" lon="17.842247189039">
        <ele>23.8</ele>
        <time>2017-07-21T13:33:21Z</time>
      </trkpt>
      <trkpt lat="59.231809131044" lon="17.842266886504">
        <ele>24.2</ele>
        <time>2017-07-21T13:33:22Z</time>
      </trkpt>
      <trkpt lat="59.231841988092" lon="17.84228398558">
        <ele>24.6</ele>
        <time>2017-07-21T13:33:23Z</time>
      </trkpt>
      <trkpt lat="59.231877694986" lon="17.842306281434">
        <ele>25</ele>
        <time>2017-07-21T13:33:24Z</time>
      </trkpt>
      <trkpt lat="59.231913066604" lon="17.842324553976">
        <ele>25.4</ele>
        <time>2017-07-21T13:33:25Z</time>
      </trkpt>
      <trkpt lat="59.232086655753" lon="17.842421364921">
        <ele>25.4</ele>
        <time>2017-07-21T13:33:30Z</time>
      </trkpt>
      <trkpt lat="59.232332748337" lon="17.842543489204">
        <ele>25.4</ele>
        <time>2017-07-21T13:33:36Z</time>
      </trkpt>
      <trkpt lat="59.232380692805" lon="17.842555391502">
        <ele>25.4</ele>
        <time>2017-07-21T13:33:37Z</time>
      </trkpt>
      <trkpt lat="59.232661234998" lon="17.842641641253">
        <ele>25.4</ele>
        <time>2017-07-21T13:33:43Z</time>
      </trkpt>
      <trkpt lat="59.232701384299" lon="17.842658069777">
        <ele>25</ele>
        <time>2017-07-21T13:33:44Z</time>
      </trkpt>
      <trkpt lat="59.232718986289" lon="17.842710959566">
        <ele>24.6</ele>
        <time>2017-07-21T13:33:45Z</time>
      </trkpt>
      <trkpt lat="59.23272225523" lon="17.84277348854">
        <ele>24.2</ele>
        <time>2017-07-21T13:33:46Z</time>
      </trkpt>
      <trkpt lat="59.232726027085" lon="17.842824953406">
        <ele>23.8</ele>
        <time>2017-07-21T13:33:47Z</time>
      </trkpt>
      <trkpt lat="59.232728876931" lon="17.842878932842">
        <ele>23.4</ele>
        <time>2017-07-21T13:33:48Z</time>
      </trkpt>
      <trkpt lat="59.232728876931" lon="17.843048833955">
        <ele>23.4</ele>
        <time>2017-07-21T13:33:51Z</time>
      </trkpt>
      <trkpt lat="59.232729463664" lon="17.843143717063">
        <ele>23.4</ele>
        <time>2017-07-21T13:33:53Z</time>
      </trkpt>
      <trkpt lat="59.232726865275" lon="17.843303476077">
        <ele>23.4</ele>
        <time>2017-07-21T13:33:55Z</time>
      </trkpt>
      <trkpt lat="59.232720243574" lon="17.843600446794">
        <ele>23.4</ele>
        <time>2017-07-21T13:33:58Z</time>
      </trkpt>
      <trkpt lat="59.232717142271" lon="17.84368543926">
        <ele>23.4</ele>
        <time>2017-07-21T13:33:59Z</time>
      </trkpt>
      <trkpt lat="59.23274488636" lon="17.843994228456">
        <ele>23.4</ele>
        <time>2017-07-21T13:34:03Z</time>
      </trkpt>
      <trkpt lat="59.232766427843" lon="17.844068827366">
        <ele>23.4</ele>
        <time>2017-07-21T13:34:04Z</time>
      </trkpt>
      <trkpt lat="59.232906740849" lon="17.84440879723">
        <ele>23.4</ele>
        <time>2017-07-21T13:34:09Z</time>
      </trkpt>
      <trkpt lat="59.232941358096" lon="17.844478618457">
        <ele>23.4</ele>
        <time>2017-07-21T13:34:10Z</time>
      </trkpt>
      <trkpt lat="59.23297203585" lon="17.844550535159">
        <ele>23.4</ele>
        <time>2017-07-21T13:34:11Z</time>
      </trkpt>
      <trkpt lat="59.233045209837" lon="17.84468456174">
        <ele>23.4</ele>
        <time>2017-07-21T13:34:13Z</time>
      </trkpt>
      <trkpt lat="59.23308351512" lon="17.844738541176">
        <ele>23.4</ele>
        <time>2017-07-21T13:34:14Z</time>
      </trkpt>
      <trkpt lat="59.233122658593" lon="17.844782043237">
        <ele>23.4</ele>
        <time>2017-07-21T13:34:15Z</time>
      </trkpt>
      <trkpt lat="59.233171860346" lon="17.844832669913">
        <ele>23.8</ele>
        <time>2017-07-21T13:34:17Z</time>
      </trkpt>
      <trkpt lat="59.233182086264" lon="17.844860162545">
        <ele>24.2</ele>
        <time>2017-07-21T13:34:18Z</time>
      </trkpt>
      <trkpt lat="59.233214691855" lon="17.844931492514">
        <ele>25.4</ele>
        <time>2017-07-21T13:34:20Z</time>
      </trkpt>
      <trkpt lat="59.233250063473" lon="17.845089742786">
        <ele>25.4</ele>
        <time>2017-07-21T13:34:23Z</time>
      </trkpt>
      <trkpt lat="59.233310999886" lon="17.845361483984">
        <ele>25.4</ele>
        <time>2017-07-21T13:34:28Z</time>
      </trkpt>
      <trkpt lat="59.233339833622" lon="17.845649988982">
        <ele>25.4</ele>
        <time>2017-07-21T13:34:32Z</time>
      </trkpt>
      <trkpt lat="59.233388867737" lon="17.846109568559">
        <ele>25.4</ele>
        <time>2017-07-21T13:34:37Z</time>
      </trkpt>
      <trkpt lat="59.233475201307" lon="17.846709377323">
        <ele>25.4</ele>
        <time>2017-07-21T13:34:43Z</time>
      </trkpt>
      <trkpt lat="59.233491210736" lon="17.846808786657">
        <ele>25.4</ele>
        <time>2017-07-21T13:34:44Z</time>
      </trkpt>
      <trkpt lat="59.233532282046" lon="17.847103745718">
        <ele>25.4</ele>
        <time>2017-07-21T13:34:47Z</time>
      </trkpt>
      <trkpt lat="59.233613921752" lon="17.8478478908">
        <ele>25.4</ele>
        <time>2017-07-21T13:34:54Z</time>
      </trkpt>
      <trkpt lat="59.233631859018" lon="17.848232536191">
        <ele>25</ele>
        <time>2017-07-21T13:34:57Z</time>
      </trkpt>
      <trkpt lat="59.233636971977" lon="17.848360611623">
        <ele>24.6</ele>
        <time>2017-07-21T13:34:58Z</time>
      </trkpt>
      <trkpt lat="59.233643342221" lon="17.848489022331">
        <ele>24.2</ele>
        <time>2017-07-21T13:34:59Z</time>
      </trkpt>
      <trkpt lat="59.233649712465" lon="17.848611900985">
        <ele>23.8</ele>
        <time>2017-07-21T13:35:00Z</time>
      </trkpt>
      <trkpt lat="59.233646359705" lon="17.848738635313">
        <ele>23.4</ele>
        <time>2017-07-21T13:35:01Z</time>
      </trkpt>
      <trkpt lat="59.233617525969" lon="17.849162005082">
        <ele>23</ele>
        <time>2017-07-21T13:35:04Z</time>
      </trkpt>
      <trkpt lat="59.23360822206" lon="17.849306592857">
        <ele>22.6</ele>
        <time>2017-07-21T13:35:05Z</time>
      </trkpt>
      <trkpt lat="59.233596990314" lon="17.84945051008">
        <ele>22.2</ele>
        <time>2017-07-21T13:35:06Z</time>
      </trkpt>
      <trkpt lat="59.233583327817" lon="17.84959803152">
        <ele>21.6</ele>
        <time>2017-07-21T13:35:07Z</time>
      </trkpt>
      <trkpt lat="59.233568994768" lon="17.849746894064">
        <ele>21.2</ele>
        <time>2017-07-21T13:35:08Z</time>
      </trkpt>
      <trkpt lat="59.233534712797" lon="17.850050318844">
        <ele>20.8</ele>
        <time>2017-07-21T13:35:10Z</time>
      </trkpt>
      <trkpt lat="59.233516775531" lon="17.85019230823">
        <ele>20.4</ele>
        <time>2017-07-21T13:35:11Z</time>
      </trkpt>
      <trkpt lat="59.233496658971" lon="17.85033228596">
        <ele>20</ele>
        <time>2017-07-21T13:35:12Z</time>
      </trkpt>
      <trkpt lat="59.233478470248" lon="17.850476957554">
        <ele>19.6</ele>
        <time>2017-07-21T13:35:13Z</time>
      </trkpt>
      <trkpt lat="59.233463885742" lon="17.850602602235">
        <ele>19.2</ele>
        <time>2017-07-21T13:35:14Z</time>
      </trkpt>
      <trkpt lat="59.233439997327" lon="17.850864704248">
        <ele>19.2</ele>
        <time>2017-07-21T13:35:16Z</time>
      </trkpt>
      <trkpt lat="59.233395070343" lon="17.851740026065">
        <ele>19.2</ele>
        <time>2017-07-21T13:35:23Z</time>
      </trkpt>
      <trkpt lat="59.233395573257" lon="17.852522727887">
        <ele>19.2</ele>
        <time>2017-07-21T13:35:30Z</time>
      </trkpt>
      <trkpt lat="59.233400099483" lon="17.852625657619">
        <ele>19.2</ele>
        <time>2017-07-21T13:35:31Z</time>
      </trkpt>
      <trkpt lat="59.233394567429" lon="17.853186825824">
        <ele>19.2</ele>
        <time>2017-07-21T13:35:36Z</time>
      </trkpt>
      <trkpt lat="59.23339196904" lon="17.854058291967">
        <ele>19.2</ele>
        <time>2017-07-21T13:35:43Z</time>
      </trkpt>
      <trkpt lat="59.233396495266" lon="17.854810567492">
        <ele>19.2</ele>
        <time>2017-07-21T13:35:49Z</time>
      </trkpt>
      <trkpt lat="59.233406134451" lon="17.855816982225">
        <ele>19.2</ele>
        <time>2017-07-21T13:35:57Z</time>
      </trkpt>
      <trkpt lat="59.233407810831" lon="17.856925069405">
        <ele>19.2</ele>
        <time>2017-07-21T13:36:05Z</time>
      </trkpt>
      <trkpt lat="59.233405966813" lon="17.857221453389">
        <ele>18.8</ele>
        <time>2017-07-21T13:36:07Z</time>
      </trkpt>
      <trkpt lat="59.23340454189" lon="17.857374339245">
        <ele>18.4</ele>
        <time>2017-07-21T13:36:08Z</time>
      </trkpt>
      <trkpt lat="59.23340118913" lon="17.857539714132">
        <ele>18</ele>
        <time>2017-07-21T13:36:09Z</time>
      </trkpt>
      <trkpt lat="59.233398339284" lon="17.857700981888">
        <ele>17.4</ele>
        <time>2017-07-21T13:36:10Z</time>
      </trkpt>
      <trkpt lat="59.233395237981" lon="17.857864596576">
        <ele>17</ele>
        <time>2017-07-21T13:36:11Z</time>
      </trkpt>
      <trkpt lat="59.233386185529" lon="17.858191825952">
        <ele>17</ele>
        <time>2017-07-21T13:36:13Z</time>
      </trkpt>
      <trkpt lat="59.233356513603" lon="17.858707145164">
        <ele>16.6</ele>
        <time>2017-07-21T13:36:16Z</time>
      </trkpt>
      <trkpt lat="59.233342683468" lon="17.858893055706">
        <ele>16.2</ele>
        <time>2017-07-21T13:36:17Z</time>
      </trkpt>
      <trkpt lat="59.233329691523" lon="17.859069327063">
        <ele>15.6</ele>
        <time>2017-07-21T13:36:18Z</time>
      </trkpt>
      <trkpt lat="59.233315190836" lon="17.859249705551">
        <ele>15.2</ele>
        <time>2017-07-21T13:36:19Z</time>
      </trkpt>
      <trkpt lat="59.233298343217" lon="17.859425222537">
        <ele>14.6</ele>
        <time>2017-07-21T13:36:20Z</time>
      </trkpt>
      <trkpt lat="59.233288955489" lon="17.859603421731">
        <ele>14</ele>
        <time>2017-07-21T13:36:21Z</time>
      </trkpt>
      <trkpt lat="59.233274287164" lon="17.859780279821">
        <ele>13.4</ele>
        <time>2017-07-21T13:36:22Z</time>
      </trkpt>
      <trkpt lat="59.233256601355" lon="17.859960323033">
        <ele>12.8</ele>
        <time>2017-07-21T13:36:23Z</time>
      </trkpt>
      <trkpt lat="59.233237574442" lon="17.860137516399">
        <ele>11.8</ele>
        <time>2017-07-21T13:36:24Z</time>
      </trkpt>
      <trkpt lat="59.23321343457" lon="17.860325019502">
        <ele>11.2</ele>
        <time>2017-07-21T13:36:25Z</time>
      </trkpt>
      <trkpt lat="59.233199604435" lon="17.860501123221">
        <ele>10.6</ele>
        <time>2017-07-21T13:36:26Z</time>
      </trkpt>
      <trkpt lat="59.233178398228" lon="17.860664486452">
        <ele>10.2</ele>
        <time>2017-07-21T13:36:27Z</time>
      </trkpt>
      <trkpt lat="59.23315643765" lon="17.860821814715">
        <ele>9.6</ele>
        <time>2017-07-21T13:36:28Z</time>
      </trkpt>
      <trkpt lat="59.233136824004" lon="17.860975371123">
        <ele>9.2</ele>
        <time>2017-07-21T13:36:29Z</time>
      </trkpt>
      <trkpt lat="59.233119138195" lon="17.861130939187">
        <ele>8.6</ele>
        <time>2017-07-21T13:36:30Z</time>
      </trkpt>
      <trkpt lat="59.233093657219" lon="17.861280556102">
        <ele>8.2</ele>
        <time>2017-07-21T13:36:31Z</time>
      </trkpt>
      <trkpt lat="59.233068092424" lon="17.861437381451">
        <ele>7.8</ele>
        <time>2017-07-21T13:36:32Z</time>
      </trkpt>
      <trkpt lat="59.233021656698" lon="17.861747092656">
        <ele>7.8</ele>
        <time>2017-07-21T13:36:34Z</time>
      </trkpt>
      <trkpt lat="59.232996259541" lon="17.861905426747">
        <ele>7.2</ele>
        <time>2017-07-21T13:36:35Z</time>
      </trkpt>
      <trkpt lat="59.232970778565" lon="17.862071220729">
        <ele>6.6</ele>
        <time>2017-07-21T13:36:36Z</time>
      </trkpt>
      <trkpt lat="59.232938005336" lon="17.862243384955">
        <ele>6</ele>
        <time>2017-07-21T13:36:37Z</time>
      </trkpt>
      <trkpt lat="59.232906489392" lon="17.862391576947">
        <ele>5.4</ele>
        <time>2017-07-21T13:36:38Z</time>
      </trkpt>
      <trkpt lat="59.23287732038" lon="17.862550246314">
        <ele>4.8</ele>
        <time>2017-07-21T13:36:39Z</time>
      </trkpt>
      <trkpt lat="59.232846055893" lon="17.862720315065">
        <ele>4.2</ele>
        <time>2017-07-21T13:36:40Z</time>
      </trkpt>
      <trkpt lat="59.232811019551" lon="17.862872614188">
        <ele>3.4</ele>
        <time>2017-07-21T13:36:41Z</time>
      </trkpt>
      <trkpt lat="59.232772965725" lon="17.863013597746">
        <ele>2.8</ele>
        <time>2017-07-21T13:36:42Z</time>
      </trkpt>
      <trkpt lat="59.232733067881" lon="17.863148713974">
        <ele>2.2</ele>
        <time>2017-07-21T13:36:43Z</time>
      </trkpt>
      <trkpt lat="59.232697780082" lon="17.863267736954">
        <ele>1.6</ele>
        <time>2017-07-21T13:36:44Z</time>
      </trkpt>
      <trkpt lat="59.232662995197" lon="17.863375779645">
        <ele>1</ele>
        <time>2017-07-21T13:36:45Z</time>
      </trkpt>
      <trkpt lat="59.232641286076" lon="17.863487091277">
        <ele>0.2</ele>
        <time>2017-07-21T13:36:46Z</time>
      </trkpt>
      <trkpt lat="59.232646063759" lon="17.863706277962">
        <ele>0.2</ele>
        <time>2017-07-21T13:36:48Z</time>
      </trkpt>
      <trkpt lat="59.232623600267" lon="17.863892691418">
        <ele>0.2</ele>
        <time>2017-07-21T13:36:51Z</time>
      </trkpt>
      <trkpt lat="59.232603735164" lon="17.864113386845">
        <ele>0.2</ele>
        <time>2017-07-21T13:36:56Z</time>
      </trkpt>
      <trkpt lat="59.232560316922" lon="17.864327795847">
        <ele>0.2</ele>
        <time>2017-07-21T13:37:00Z</time>
      </trkpt>
      <trkpt lat="59.232546319149" lon="17.864385630957">
        <ele>0.2</ele>
        <time>2017-07-21T13:37:01Z</time>
      </trkpt>
      <trkpt lat="59.232495524835" lon="17.864791650193">
        <ele>0.2</ele>
        <time>2017-07-21T13:37:07Z</time>
      </trkpt>
      <trkpt lat="59.232488651677" lon="17.864874295727">
        <ele>0.2</ele>
        <time>2017-07-21T13:37:08Z</time>
      </trkpt>
      <trkpt lat="59.232438779372" lon="17.865227844269">
        <ele>0.2</ele>
        <time>2017-07-21T13:37:12Z</time>
      </trkpt>
      <trkpt lat="59.232411622016" lon="17.865401517237">
        <ele>0</ele>
        <time>2017-07-21T13:37:14Z</time>
      </trkpt>
      <trkpt lat="59.232399049166" lon="17.865498747277">
        <ele>0</ele>
        <time>2017-07-21T13:37:15Z</time>
      </trkpt>
      <trkpt lat="59.232390751085" lon="17.86559153491">
        <ele>0</ele>
        <time>2017-07-21T13:37:16Z</time>
      </trkpt>
      <trkpt lat="59.232384213203" lon="17.865682562344">
        <ele>0</ele>
        <time>2017-07-21T13:37:17Z</time>
      </trkpt>
      <trkpt lat="59.232358313132" lon="17.8657432473">
        <ele>0</ele>
        <time>2017-07-21T13:37:18Z</time>
      </trkpt>
      <trkpt lat="59.23227466177" lon="17.865811811242">
        <ele>0</ele>
        <time>2017-07-21T13:37:20Z</time>
      </trkpt>
      <trkpt lat="59.231996969423" lon="17.866037535809">
        <ele>0</ele>
        <time>2017-07-21T13:37:27Z</time>
      </trkpt>
      <trkpt lat="59.231749451916" lon="17.866247334766">
        <ele>0</ele>
        <time>2017-07-21T13:37:33Z</time>
      </trkpt>
      <trkpt lat="59.231663537441" lon="17.86632411297">
        <ele>0</ele>
        <time>2017-07-21T13:37:35Z</time>
      </trkpt>
      <trkpt lat="59.231554740379" lon="17.866460318845">
        <ele>0</ele>
        <time>2017-07-21T13:37:38Z</time>
      </trkpt>
      <trkpt lat="59.231508639929" lon="17.866707333438">
        <ele>0</ele>
        <time>2017-07-21T13:37:42Z</time>
      </trkpt>
      <trkpt lat="59.231479135641" lon="17.866857788543">
        <ele>0</ele>
        <time>2017-07-21T13:37:44Z</time>
      </trkpt>
      <trkpt lat="59.231459270538" lon="17.86692425701">
        <ele>0</ele>
        <time>2017-07-21T13:37:45Z</time>
      </trkpt>
      <trkpt lat="59.231404788188" lon="17.867153166699">
        <ele>0</ele>
        <time>2017-07-21T13:37:48Z</time>
      </trkpt>
      <trkpt lat="59.231363716878" lon="17.867354667575">
        <ele>0</ele>
        <time>2017-07-21T13:37:51Z</time>
      </trkpt>
      <trkpt lat="59.231350389657" lon="17.867433960349">
        <ele>0</ele>
        <time>2017-07-21T13:37:52Z</time>
      </trkpt>
      <trkpt lat="59.23133505078" lon="17.867508726897">
        <ele>0</ele>
        <time>2017-07-21T13:37:53Z</time>
      </trkpt>
      <trkpt lat="59.231322058835" lon="17.867587935852">
        <ele>0</ele>
        <time>2017-07-21T13:37:54Z</time>
      </trkpt>
      <trkpt lat="59.231307641967" lon="17.867673347413">
        <ele>0</ele>
        <time>2017-07-21T13:37:55Z</time>
      </trkpt>
      <trkpt lat="59.231298840972" lon="17.867777282973">
        <ele>0.4</ele>
        <time>2017-07-21T13:37:56Z</time>
      </trkpt>
      <trkpt lat="59.231263050259" lon="17.868064027772">
        <ele>0.4</ele>
        <time>2017-07-21T13:37:59Z</time>
      </trkpt>
      <trkpt lat="59.231255925644" lon="17.86825697911">
        <ele>0.4</ele>
        <time>2017-07-21T13:38:01Z</time>
      </trkpt>
      <trkpt lat="59.231250142133" lon="17.868622513769">
        <ele>0</ele>
        <time>2017-07-21T13:38:04Z</time>
      </trkpt>
      <trkpt lat="59.231253578712" lon="17.868747152622">
        <ele>0</ele>
        <time>2017-07-21T13:38:05Z</time>
      </trkpt>
      <trkpt lat="59.231264978096" lon="17.868848908888">
        <ele>0</ele>
        <time>2017-07-21T13:38:06Z</time>
      </trkpt>
      <trkpt lat="59.23127218653" lon="17.868975056483">
        <ele>0</ele>
        <time>2017-07-21T13:38:07Z</time>
      </trkpt>
      <trkpt lat="59.23129062671" lon="17.869097935137">
        <ele>0</ele>
        <time>2017-07-21T13:38:08Z</time>
      </trkpt>
      <trkpt lat="59.231322729387" lon="17.869212683348">
        <ele>0</ele>
        <time>2017-07-21T13:38:09Z</time>
      </trkpt>
      <trkpt lat="59.231394310813" lon="17.869465229995">
        <ele>0</ele>
        <time>2017-07-21T13:38:11Z</time>
      </trkpt>
      <trkpt lat="59.231415852296" lon="17.869583498604">
        <ele>0</ele>
        <time>2017-07-21T13:38:12Z</time>
      </trkpt>
      <trkpt lat="59.23149933602" lon="17.869912991093">
        <ele>0</ele>
        <time>2017-07-21T13:38:15Z</time>
      </trkpt>
      <trkpt lat="59.231545352651" lon="17.870202334281">
        <ele>0</ele>
        <time>2017-07-21T13:38:18Z</time>
      </trkpt>
      <trkpt lat="59.231574018749" lon="17.870475500402">
        <ele>0</ele>
        <time>2017-07-21T13:38:22Z</time>
      </trkpt>
      <trkpt lat="59.231580975726" lon="17.870521936128">
        <ele>0</ele>
        <time>2017-07-21T13:38:23Z</time>
      </trkpt>
      <trkpt lat="59.231587932703" lon="17.870562672162">
        <ele>0</ele>
        <time>2017-07-21T13:38:24Z</time>
      </trkpt>
      <trkpt lat="59.231594638223" lon="17.870612963562">
        <ele>0</ele>
        <time>2017-07-21T13:38:25Z</time>
      </trkpt>
      <trkpt lat="59.231605283236" lon="17.870675241079">
        <ele>0</ele>
        <time>2017-07-21T13:38:26Z</time>
      </trkpt>
      <trkpt lat="59.231607965444" lon="17.870754114758">
        <ele>0.4</ele>
        <time>2017-07-21T13:38:27Z</time>
      </trkpt>
      <trkpt lat="59.231617772267" lon="17.871006829043">
        <ele>0.4</ele>
        <time>2017-07-21T13:38:31Z</time>
      </trkpt>
      <trkpt lat="59.231629842203" lon="17.871308996538">
        <ele>0.4</ele>
        <time>2017-07-21T13:38:34Z</time>
      </trkpt>
      <trkpt lat="59.231647276555" lon="17.871408992605">
        <ele>0.4</ele>
        <time>2017-07-21T13:38:35Z</time>
      </trkpt>
      <trkpt lat="59.231692538815" lon="17.871835044582">
        <ele>0.4</ele>
        <time>2017-07-21T13:38:40Z</time>
      </trkpt>
      <trkpt lat="59.231711565728" lon="17.872125728874">
        <ele>0.4</ele>
        <time>2017-07-21T13:38:44Z</time>
      </trkpt>
      <trkpt lat="59.231725563501" lon="17.872506099496">
        <ele>0.4</ele>
        <time>2017-07-21T13:38:48Z</time>
      </trkpt>
      <trkpt lat="59.231727742795" lon="17.872596037283">
        <ele>0.8</ele>
        <time>2017-07-21T13:38:49Z</time>
      </trkpt>
      <trkpt lat="59.231727072243" lon="17.872678012265">
        <ele>1.2</ele>
        <time>2017-07-21T13:38:50Z</time>
      </trkpt>
      <trkpt lat="59.231731347012" lon="17.872775577581">
        <ele>2.2</ele>
        <time>2017-07-21T13:38:51Z</time>
      </trkpt>
      <trkpt lat="59.2317273237" lon="17.872855792364">
        <ele>2.6</ele>
        <time>2017-07-21T13:38:52Z</time>
      </trkpt>
      <trkpt lat="59.231729251537" lon="17.872958638277">
        <ele>2.6</ele>
        <time>2017-07-21T13:38:53Z</time>
      </trkpt>
      <trkpt lat="59.231682731992" lon="17.87341939132">
        <ele>2.6</ele>
        <time>2017-07-21T13:38:57Z</time>
      </trkpt>
      <trkpt lat="59.231564966297" lon="17.873739831357">
        <ele>2.2</ele>
        <time>2017-07-21T13:39:00Z</time>
      </trkpt>
      <trkpt lat="59.231522134788" lon="17.873854831025">
        <ele>1.8</ele>
        <time>2017-07-21T13:39:01Z</time>
      </trkpt>
      <trkpt lat="59.231477207804" lon="17.873940326405">
        <ele>1.2</ele>
        <time>2017-07-21T13:39:02Z</time>
      </trkpt>
      <trkpt lat="59.231429430974" lon="17.874002268646">
        <ele>0.8</ele>
        <time>2017-07-21T13:39:03Z</time>
      </trkpt>
      <trkpt lat="59.231377966108" lon="17.874037304988">
        <ele>0.4</ele>
        <time>2017-07-21T13:39:04Z</time>
      </trkpt>
      <trkpt lat="59.23116741278" lon="17.874256491673">
        <ele>0.4</ele>
        <time>2017-07-21T13:39:08Z</time>
      </trkpt>
      <trkpt lat="59.230918051255" lon="17.874433517401">
        <ele>0.4</ele>
        <time>2017-07-21T13:39:12Z</time>
      </trkpt>
      <trkpt lat="59.230853175349" lon="17.874443491862">
        <ele>0.4</ele>
        <time>2017-07-21T13:39:13Z</time>
      </trkpt>
      <trkpt lat="59.230727698306" lon="17.874424297311">
        <ele>0.4</ele>
        <time>2017-07-21T13:39:15Z</time>
      </trkpt>
      <trkpt lat="59.23062175109" lon="17.874396301765">
        <ele>0.4</ele>
        <time>2017-07-21T13:39:17Z</time>
      </trkpt>
      <trkpt lat="59.230528460543" lon="17.874303933227">
        <ele>0.4</ele>
        <time>2017-07-21T13:39:19Z</time>
      </trkpt>
      <trkpt lat="59.230494262391" lon="17.874262861917">
        <ele>0.8</ele>
        <time>2017-07-21T13:39:20Z</time>
      </trkpt>
      <trkpt lat="59.230457968764" lon="17.87422237734">
        <ele>1.2</ele>
        <time>2017-07-21T13:39:21Z</time>
      </trkpt>
      <trkpt lat="59.230419495843" lon="17.874202679875">
        <ele>1.6</ele>
        <time>2017-07-21T13:39:22Z</time>
      </trkpt>
      <trkpt lat="59.230378843628" lon="17.874201003495">
        <ele>2</ele>
        <time>2017-07-21T13:39:23Z</time>
      </trkpt>
      <trkpt lat="59.230332072626" lon="17.874206367911">
        <ele>2.4</ele>
        <time>2017-07-21T13:39:24Z</time>
      </trkpt>
      <trkpt lat="59.230138869831" lon="17.874166637705">
        <ele>2.4</ele>
        <time>2017-07-21T13:39:28Z</time>
      </trkpt>
      <trkpt lat="59.230098552892" lon="17.874160183642">
        <ele>2.4</ele>
        <time>2017-07-21T13:39:29Z</time>
      </trkpt>
      <trkpt lat="59.230053542089" lon="17.874154400131">
        <ele>2.4</ele>
        <time>2017-07-21T13:39:31Z</time>
      </trkpt>
      <trkpt lat="59.230032922615" lon="17.87421148087">
        <ele>2.4</ele>
        <time>2017-07-21T13:39:34Z</time>
      </trkpt>
      <trkpt lat="59.230034096081" lon="17.874243583547">
        <ele>2.4</ele>
        <time>2017-07-21T13:39:35Z</time>
      </trkpt>
      <trkpt lat="59.230053542089" lon="17.874416669782">
        <ele>2</ele>
        <time>2017-07-21T13:39:39Z</time>
      </trkpt>
      <trkpt lat="59.230055302288" lon="17.874462602594">
        <ele>1.6</ele>
        <time>2017-07-21T13:39:40Z</time>
      </trkpt>
      <trkpt lat="59.230058571229" lon="17.874506607569">
        <ele>0.8</ele>
        <time>2017-07-21T13:39:41Z</time>
      </trkpt>
      <trkpt lat="59.230064187102" lon="17.874545415766">
        <ele>0.2</ele>
        <time>2017-07-21T13:39:42Z</time>
      </trkpt>
      <trkpt lat="59.23006016379" lon="17.874608950568">
        <ele>0.2</ele>
        <time>2017-07-21T13:39:43Z</time>
      </trkpt>
      <trkpt lat="59.230024540715" lon="17.874858228274">
        <ele>0.2</ele>
        <time>2017-07-21T13:39:47Z</time>
      </trkpt>
      <trkpt lat="59.229989169097" lon="17.875134495698">
        <ele>0.2</ele>
        <time>2017-07-21T13:39:50Z</time>
      </trkpt>
      <trkpt lat="59.22998221212" lon="17.875754923936">
        <ele>0.2</ele>
        <time>2017-07-21T13:39:54Z</time>
      </trkpt>
      <trkpt lat="59.229941392267" lon="17.875858859496">
        <ele>0.6</ele>
        <time>2017-07-21T13:39:56Z</time>
      </trkpt>
      <trkpt lat="59.229924209372" lon="17.875899092616">
        <ele>1</ele>
        <time>2017-07-21T13:39:57Z</time>
      </trkpt>
      <trkpt lat="59.229904763364" lon="17.875923567764">
        <ele>1.4</ele>
        <time>2017-07-21T13:39:58Z</time>
      </trkpt>
      <trkpt lat="59.229882216053" lon="17.875945863618">
        <ele>1.8</ele>
        <time>2017-07-21T13:39:59Z</time>
      </trkpt>
      <trkpt lat="59.229869307927" lon="17.875968662386">
        <ele>2.2</ele>
        <time>2017-07-21T13:40:00Z</time>
      </trkpt>
      <trkpt lat="59.229835696508" lon="17.876025156392">
        <ele>2.2</ele>
        <time>2017-07-21T13:40:03Z</time>
      </trkpt>
      <trkpt lat="59.229781968529" lon="17.876090116117">
        <ele>2.2</ele>
        <time>2017-07-21T13:40:05Z</time>
      </trkpt>
      <trkpt lat="59.229621119868" lon="17.876306872051">
        <ele>2.2</ele>
        <time>2017-07-21T13:40:09Z</time>
      </trkpt>
      <trkpt lat="59.229535121574" lon="17.876430588895">
        <ele>2.2</ele>
        <time>2017-07-21T13:40:11Z</time>
      </trkpt>
      <trkpt lat="59.229476280636" lon="17.876515246085">
        <ele>2.2</ele>
        <time>2017-07-21T13:40:13Z</time>
      </trkpt>
      <trkpt lat="59.229385085564" lon="17.876654888539">
        <ele>2.2</ele>
        <time>2017-07-21T13:40:18Z</time>
      </trkpt>
      <trkpt lat="59.229336554363" lon="17.876710209079">
        <ele>2.2</ele>
        <time>2017-07-21T13:40:22Z</time>
      </trkpt>
      <trkpt lat="59.229290453913" lon="17.876748179086">
        <ele>2.8</ele>
        <time>2017-07-21T13:40:24Z</time>
      </trkpt>
      <trkpt lat="59.229259189426" lon="17.876769804388">
        <ele>3.2</ele>
        <time>2017-07-21T13:40:25Z</time>
      </trkpt>
      <trkpt lat="59.229234965735" lon="17.876794111898">
        <ele>3.6</ele>
        <time>2017-07-21T13:40:26Z</time>
      </trkpt>
      <trkpt lat="59.229209820035" lon="17.876809199318">
        <ele>4</ele>
        <time>2017-07-21T13:40:27Z</time>
      </trkpt>
      <trkpt lat="59.229192972416" lon="17.876825460204">
        <ele>4.4</ele>
        <time>2017-07-21T13:40:28Z</time>
      </trkpt>
      <trkpt lat="59.229115691298" lon="17.876896287259">
        <ele>4.4</ele>
        <time>2017-07-21T13:40:32Z</time>
      </trkpt>
      <trkpt lat="59.229097167299" lon="17.876906932272">
        <ele>5</ele>
        <time>2017-07-21T13:40:33Z</time>
      </trkpt>
      <trkpt lat="59.229077553653" lon="17.876910704127">
        <ele>5.4</ele>
        <time>2017-07-21T13:40:34Z</time>
      </trkpt>
      <trkpt lat="59.229055760713" lon="17.87691715819">
        <ele>5.8</ele>
        <time>2017-07-21T13:40:35Z</time>
      </trkpt>
      <trkpt lat="59.229038745456" lon="17.876915565629">
        <ele>6.2</ele>
        <time>2017-07-21T13:40:36Z</time>
      </trkpt>
      <trkpt lat="59.229017958344" lon="17.876913134878">
        <ele>6.8</ele>
        <time>2017-07-21T13:40:37Z</time>
      </trkpt>
      <trkpt lat="59.228997087413" lon="17.876930736868">
        <ele>6.8</ele>
        <time>2017-07-21T13:40:38Z</time>
      </trkpt>
      <trkpt lat="59.228963056899" lon="17.876954373826">
        <ele>7.2</ele>
        <time>2017-07-21T13:40:41Z</time>
      </trkpt>
      <trkpt lat="59.22895375299" lon="17.876957223672">
        <ele>7.6</ele>
        <time>2017-07-21T13:40:42Z</time>
      </trkpt>
      <trkpt lat="59.228943443253" lon="17.876955044378">
        <ele>8</ele>
        <time>2017-07-21T13:40:43Z</time>
      </trkpt>
      <trkpt lat="59.228929613118" lon="17.876955212016">
        <ele>8.6</ele>
        <time>2017-07-21T13:40:44Z</time>
      </trkpt>
      <trkpt lat="59.228918968105" lon="17.8769582295">
        <ele>9</ele>
        <time>2017-07-21T13:40:45Z</time>
      </trkpt>
      <trkpt lat="59.228897258984" lon="17.876946997754">
        <ele>9</ele>
        <time>2017-07-21T13:40:46Z</time>
      </trkpt>
      <trkpt lat="59.228862306461" lon="17.876929479583">
        <ele>9</ele>
        <time>2017-07-21T13:40:48Z</time>
      </trkpt>
      <trkpt lat="59.228790557397" lon="17.876925791547">
        <ele>9.4</ele>
        <time>2017-07-21T13:40:53Z</time>
      </trkpt>
      <trkpt lat="59.22877270395" lon="17.876933167619">
        <ele>9.8</ele>
        <time>2017-07-21T13:40:54Z</time>
      </trkpt>
      <trkpt lat="59.228754850503" lon="17.876929814859">
        <ele>10.2</ele>
        <time>2017-07-21T13:40:55Z</time>
      </trkpt>
      <trkpt lat="59.228738841074" lon="17.876922857882">
        <ele>10.6</ele>
        <time>2017-07-21T13:40:56Z</time>
      </trkpt>
      <trkpt lat="59.228723166921" lon="17.876921684416">
        <ele>11.2</ele>
        <time>2017-07-21T13:40:57Z</time>
      </trkpt>
      <trkpt lat="59.228677653204" lon="17.876917242009">
        <ele>11.2</ele>
        <time>2017-07-21T13:41:00Z</time>
      </trkpt>
      <trkpt lat="59.22863104984" lon="17.876905674987">
        <ele>11.6</ele>
        <time>2017-07-21T13:41:04Z</time>
      </trkpt>
      <trkpt lat="59.228618225533" lon="17.87690542353">
        <ele>12</ele>
        <time>2017-07-21T13:41:05Z</time>
      </trkpt>
      <trkpt lat="59.228612525841" lon="17.876902154589">
        <ele>12.4</ele>
        <time>2017-07-21T13:41:06Z</time>
      </trkpt>
      <trkpt lat="59.228533987438" lon="17.876859742175">
        <ele>13.4</ele>
        <time>2017-07-21T13:41:11Z</time>
      </trkpt>
      <trkpt lat="59.228486629703" lon="17.876802745255">
        <ele>13.4</ele>
        <time>2017-07-21T13:41:14Z</time>
      </trkpt>
      <trkpt lat="59.228470284998" lon="17.876779192116">
        <ele>13.8</ele>
        <time>2017-07-21T13:41:15Z</time>
      </trkpt>
      <trkpt lat="59.228447318592" lon="17.876772318958">
        <ele>14.2</ele>
        <time>2017-07-21T13:41:16Z</time>
      </trkpt>
      <trkpt lat="59.228424938919" lon="17.876782125781">
        <ele>14.6</ele>
        <time>2017-07-21T13:41:17Z</time>
      </trkpt>
      <trkpt lat="59.228398368296" lon="17.876783299247">
        <ele>15.4</ele>
        <time>2017-07-21T13:41:18Z</time>
      </trkpt>
      <trkpt lat="59.228391411319" lon="17.876792351699">
        <ele>15.4</ele>
        <time>2017-07-21T13:41:19Z</time>
      </trkpt>
      <trkpt lat="59.228362996678" lon="17.876803248169">
        <ele>15.4</ele>
        <time>2017-07-21T13:41:20Z</time>
      </trkpt>
      <trkpt lat="59.228338940625" lon="17.876849851533">
        <ele>15.8</ele>
        <time>2017-07-21T13:41:22Z</time>
      </trkpt>
      <trkpt lat="59.22833433058" lon="17.876875081052">
        <ele>16.4</ele>
        <time>2017-07-21T13:41:23Z</time>
      </trkpt>
      <trkpt lat="59.228334582037" lon="17.876912045231">
        <ele>16.8</ele>
        <time>2017-07-21T13:41:24Z</time>
      </trkpt>
      <trkpt lat="59.228330474906" lon="17.876934592542">
        <ele>17.2</ele>
        <time>2017-07-21T13:41:25Z</time>
      </trkpt>
      <trkpt lat="59.228325529585" lon="17.876967365771">
        <ele>17.6</ele>
        <time>2017-07-21T13:41:26Z</time>
      </trkpt>
      <trkpt lat="59.228318824065" lon="17.877004749045">
        <ele>17.6</ele>
        <time>2017-07-21T13:41:27Z</time>
      </trkpt>
      <trkpt lat="59.228321841549" lon="17.877078174489">
        <ele>17.6</ele>
        <time>2017-07-21T13:41:29Z</time>
      </trkpt>
      <trkpt lat="59.22831505221" lon="17.877122430921">
        <ele>17.6</ele>
        <time>2017-07-21T13:41:31Z</time>
      </trkpt>
      <trkpt lat="59.228312956735" lon="17.877294259871">
        <ele>17.6</ele>
        <time>2017-07-21T13:41:37Z</time>
      </trkpt>
      <trkpt lat="59.228319913712" lon="17.877322255417">
        <ele>17.6</ele>
        <time>2017-07-21T13:41:38Z</time>
      </trkpt>
      <trkpt lat="59.228329720535" lon="17.877344215995">
        <ele>18</ele>
        <time>2017-07-21T13:41:39Z</time>
      </trkpt>
      <trkpt lat="59.228334498218" lon="17.877367601496">
        <ele>18.4</ele>
        <time>2017-07-21T13:41:40Z</time>
      </trkpt>
      <trkpt lat="59.228332989476" lon="17.877391909006">
        <ele>18.8</ele>
        <time>2017-07-21T13:41:41Z</time>
      </trkpt>
      <trkpt lat="59.22832762506" lon="17.877410516824">
        <ele>19.2</ele>
        <time>2017-07-21T13:41:42Z</time>
      </trkpt>
      <trkpt lat="59.228324942852" lon="17.877434153782">
        <ele>19.6</ele>
        <time>2017-07-21T13:41:43Z</time>
      </trkpt>
      <trkpt lat="59.228321254816" lon="17.877572203675">
        <ele>19.6</ele>
        <time>2017-07-21T13:41:49Z</time>
      </trkpt>
      <trkpt lat="59.2283158904" lon="17.877638755961">
        <ele>20</ele>
        <time>2017-07-21T13:41:52Z</time>
      </trkpt>
      <trkpt lat="59.228313543468" lon="17.877658872521">
        <ele>20.4</ele>
        <time>2017-07-21T13:41:53Z</time>
      </trkpt>
      <trkpt lat="59.228320248988" lon="17.877673037932">
        <ele>20.8</ele>
        <time>2017-07-21T13:41:54Z</time>
      </trkpt>
      <trkpt lat="59.228316141857" lon="17.877698854184">
        <ele>21.2</ele>
        <time>2017-07-21T13:41:55Z</time>
      </trkpt>
      <trkpt lat="59.228312370002" lon="17.877734980173">
        <ele>21.6</ele>
        <time>2017-07-21T13:41:56Z</time>
      </trkpt>
      <trkpt lat="59.228311531812" lon="17.877813686214">
        <ele>21.6</ele>
        <time>2017-07-21T13:42:00Z</time>
      </trkpt>
      <trkpt lat="59.228263587344" lon="17.877913598462">
        <ele>22</ele>
        <time>2017-07-21T13:42:05Z</time>
      </trkpt>
      <trkpt lat="59.228250427761" lon="17.877936481049">
        <ele>22.4</ele>
        <time>2017-07-21T13:42:06Z</time>
      </trkpt>
      <trkpt lat="59.228232574314" lon="17.877964560414">
        <ele>23</ele>
        <time>2017-07-21T13:42:07Z</time>
      </trkpt>
      <trkpt lat="59.228215894333" lon="17.877980402205">
        <ele>23.8</ele>
        <time>2017-07-21T13:42:08Z</time>
      </trkpt>
      <trkpt lat="59.228180690353" lon="17.878029184863">
        <ele>23.8</ele>
        <time>2017-07-21T13:42:11Z</time>
      </trkpt>
      <trkpt lat="59.228163507458" lon="17.878059359703">
        <ele>24.2</ele>
        <time>2017-07-21T13:42:14Z</time>
      </trkpt>
      <trkpt lat="59.228135092817" lon="17.878088780172">
        <ele>24.6</ele>
        <time>2017-07-21T13:42:15Z</time>
      </trkpt>
      <trkpt lat="59.228113383696" lon="17.878092552027">
        <ele>25.2</ele>
        <time>2017-07-21T13:42:16Z</time>
      </trkpt>
      <trkpt lat="59.228108773651" lon="17.878092049113">
        <ele>25.6</ele>
        <time>2017-07-21T13:42:17Z</time>
      </trkpt>
      <trkpt lat="59.228095614068" lon="17.878115183157">
        <ele>26</ele>
        <time>2017-07-21T13:42:18Z</time>
      </trkpt>
      <trkpt lat="59.228063427572" lon="17.878146447644">
        <ele>26</ele>
        <time>2017-07-21T13:42:36Z</time>
      </trkpt>
      <trkpt lat="59.228021098977" lon="17.878177376855">
        <ele>26</ele>
        <time>2017-07-21T13:42:38Z</time>
      </trkpt>
      <trkpt lat="59.227982458418" lon="17.878207803152">
        <ele>26</ele>
        <time>2017-07-21T13:42:40Z</time>
      </trkpt>
      <trkpt lat="59.227899058513" lon="17.878304111183">
        <ele>26</ele>
        <time>2017-07-21T13:42:45Z</time>
      </trkpt>
      <trkpt lat="59.227870308596" lon="17.878325736485">
        <ele>26.4</ele>
        <time>2017-07-21T13:42:47Z</time>
      </trkpt>
      <trkpt lat="59.227841558679" lon="17.878341243">
        <ele>27</ele>
        <time>2017-07-21T13:42:48Z</time>
      </trkpt>
      <trkpt lat="59.227824794879" lon="17.878358928809">
        <ele>27.4</ele>
        <time>2017-07-21T13:42:49Z</time>
      </trkpt>
      <trkpt lat="59.227798894808" lon="17.878374602962">
        <ele>27.8</ele>
        <time>2017-07-21T13:42:50Z</time>
      </trkpt>
      <trkpt lat="59.227777604782" lon="17.878377788084">
        <ele>28.4</ele>
        <time>2017-07-21T13:42:51Z</time>
      </trkpt>
      <trkpt lat="59.227726307554" lon="17.878414081711">
        <ele>28.4</ele>
        <time>2017-07-21T13:42:55Z</time>
      </trkpt>
      <trkpt lat="59.227694456334" lon="17.87845188408">
        <ele>28.8</ele>
        <time>2017-07-21T13:42:57Z</time>
      </trkpt>
      <trkpt lat="59.227686996443" lon="17.878470408079">
        <ele>29.6</ele>
        <time>2017-07-21T13:42:58Z</time>
      </trkpt>
      <trkpt lat="59.22767132229" lon="17.878494799408">
        <ele>30</ele>
        <time>2017-07-21T13:42:59Z</time>
      </trkpt>
      <trkpt lat="59.227663191847" lon="17.878499744729">
        <ele>30.4</ele>
        <time>2017-07-21T13:43:02Z</time>
      </trkpt>
      <trkpt lat="59.227636453586" lon="17.878549197939">
        <ele>30.4</ele>
        <time>2017-07-21T13:43:03Z</time>
      </trkpt>
      <trkpt lat="59.227583731435" lon="17.878658414096">
        <ele>30.4</ele>
        <time>2017-07-21T13:43:05Z</time>
      </trkpt>
      <trkpt lat="59.227461188057" lon="17.878898890807">
        <ele>30.4</ele>
        <time>2017-07-21T13:43:10Z</time>
      </trkpt>
      <trkpt lat="59.227393713762" lon="17.879004586566">
        <ele>30.4</ele>
        <time>2017-07-21T13:43:13Z</time>
      </trkpt>
      <trkpt lat="59.227345014923" lon="17.879096703647">
        <ele>30.4</ele>
        <time>2017-07-21T13:43:15Z</time>
      </trkpt>
      <trkpt lat="59.227229763798" lon="17.879301557283">
        <ele>30.4</ele>
        <time>2017-07-21T13:43:19Z</time>
      </trkpt>
      <trkpt lat="59.227148040273" lon="17.879455616605">
        <ele>30.4</ele>
        <time>2017-07-21T13:43:23Z</time>
      </trkpt>
      <trkpt lat="59.227020551574" lon="17.879648400305">
        <ele>30.4</ele>
        <time>2017-07-21T13:43:27Z</time>
      </trkpt>
      <trkpt lat="59.226844112579" lon="17.879806985853">
        <ele>30.4</ele>
        <time>2017-07-21T13:43:32Z</time>
      </trkpt>
      <trkpt lat="59.226753671878" lon="17.879853421579">
        <ele>30.4</ele>
        <time>2017-07-21T13:43:34Z</time>
      </trkpt>
      <trkpt lat="59.226716037147" lon="17.87984579405">
        <ele>30.4</ele>
        <time>2017-07-21T13:43:35Z</time>
      </trkpt>
      <trkpt lat="59.226603049135" lon="17.879916956381">
        <ele>30.4</ele>
        <time>2017-07-21T13:43:39Z</time>
      </trkpt>
      <trkpt lat="59.226573796304" lon="17.879966409591">
        <ele>31</ele>
        <time>2017-07-21T13:43:40Z</time>
      </trkpt>
      <trkpt lat="59.226531635347" lon="17.880025501986">
        <ele>31.4</ele>
        <time>2017-07-21T13:43:41Z</time>
      </trkpt>
      <trkpt lat="59.226502466335" lon="17.880085767847">
        <ele>31.8</ele>
        <time>2017-07-21T13:43:42Z</time>
      </trkpt>
      <trkpt lat="59.226468016726" lon="17.880138909093">
        <ele>32.2</ele>
        <time>2017-07-21T13:43:43Z</time>
      </trkpt>
      <trkpt lat="59.226424263208" lon="17.880191379787">
        <ele>32.6</ele>
        <time>2017-07-21T13:43:44Z</time>
      </trkpt>
      <trkpt lat="59.226290655722" lon="17.880337895399">
        <ele>32.6</ele>
        <time>2017-07-21T13:43:47Z</time>
      </trkpt>
      <trkpt lat="59.226263414547" lon="17.88036798642">
        <ele>32.6</ele>
        <time>2017-07-21T13:43:48Z</time>
      </trkpt>
      <trkpt lat="59.226176997158" lon="17.880484159554">
        <ele>32.6</ele>
        <time>2017-07-21T13:43:51Z</time>
      </trkpt>
      <trkpt lat="59.226150761811" lon="17.880524476493">
        <ele>32.6</ele>
        <time>2017-07-21T13:43:52Z</time>
      </trkpt>
      <trkpt lat="59.226012041366" lon="17.880704352067">
        <ele>32.6</ele>
        <time>2017-07-21T13:43:57Z</time>
      </trkpt>
      <trkpt lat="59.225830321774" lon="17.880858076113">
        <ele>32.6</ele>
        <time>2017-07-21T13:44:02Z</time>
      </trkpt>
      <trkpt lat="59.225741725091" lon="17.880928148797">
        <ele>32.6</ele>
        <time>2017-07-21T13:44:05Z</time>
      </trkpt>
      <trkpt lat="59.225723787825" lon="17.880949103547">
        <ele>32.6</ele>
        <time>2017-07-21T13:44:06Z</time>
      </trkpt>
      <trkpt lat="59.225623540301" lon="17.881059241713">
        <ele>32.6</ele>
        <time>2017-07-21T13:44:09Z</time>
      </trkpt>
      <trkpt lat="59.225421368873" lon="17.881244062608">
        <ele>33.2</ele>
        <time>2017-07-21T13:44:13Z</time>
      </trkpt>
      <trkpt lat="59.225383817961" lon="17.881269459765">
        <ele>33.6</ele>
        <time>2017-07-21T13:44:14Z</time>
      </trkpt>
      <trkpt lat="59.22533947771" lon="17.88128748085">
        <ele>34</ele>
        <time>2017-07-21T13:44:15Z</time>
      </trkpt>
      <trkpt lat="59.225311565983" lon="17.881302903546">
        <ele>34.4</ele>
        <time>2017-07-21T13:44:16Z</time>
      </trkpt>
      <trkpt lat="59.225275859089" lon="17.881309692885">
        <ele>34.8</ele>
        <time>2017-07-21T13:44:17Z</time>
      </trkpt>
      <trkpt lat="59.22524476224" lon="17.881311872179">
        <ele>34.8</ele>
        <time>2017-07-21T13:44:18Z</time>
      </trkpt>
      <trkpt lat="59.225178629049" lon="17.881366186891">
        <ele>35.2</ele>
        <time>2017-07-21T13:44:20Z</time>
      </trkpt>
      <trkpt lat="59.225147951295" lon="17.881373060049">
        <ele>35.6</ele>
        <time>2017-07-21T13:44:21Z</time>
      </trkpt>
      <trkpt lat="59.225117944093" lon="17.88138303451">
        <ele>36.2</ele>
        <time>2017-07-21T13:44:22Z</time>
      </trkpt>
      <trkpt lat="59.225091708746" lon="17.881409940409">
        <ele>36.6</ele>
        <time>2017-07-21T13:44:23Z</time>
      </trkpt>
      <trkpt lat="59.225065054304" lon="17.881421758888">
        <ele>37</ele>
        <time>2017-07-21T13:44:24Z</time>
      </trkpt>
      <trkpt lat="59.224958017441" lon="17.881436259575">
        <ele>37.4</ele>
        <time>2017-07-21T13:44:27Z</time>
      </trkpt>
      <trkpt lat="59.22492289728" lon="17.881440534344">
        <ele>38</ele>
        <time>2017-07-21T13:44:28Z</time>
      </trkpt>
      <trkpt lat="59.224897583942" lon="17.881442797457">
        <ele>38.4</ele>
        <time>2017-07-21T13:44:29Z</time>
      </trkpt>
      <trkpt lat="59.224861960867" lon="17.881445144389">
        <ele>39</ele>
        <time>2017-07-21T13:44:30Z</time>
      </trkpt>
      <trkpt lat="59.224831618389" lon="17.881450173529">
        <ele>39.4</ele>
        <time>2017-07-21T13:44:31Z</time>
      </trkpt>
      <trkpt lat="59.224797336418" lon="17.881481689473">
        <ele>39.8</ele>
        <time>2017-07-21T13:44:32Z</time>
      </trkpt>
      <trkpt lat="59.224770430519" lon="17.881524101887">
        <ele>40.4</ele>
        <time>2017-07-21T13:44:33Z</time>
      </trkpt>
      <trkpt lat="59.224752325615" lon="17.88157330364">
        <ele>40.8</ele>
        <time>2017-07-21T13:44:34Z</time>
      </trkpt>
      <trkpt lat="59.224722150775" lon="17.881601047729">
        <ele>41.2</ele>
        <time>2017-07-21T13:44:35Z</time>
      </trkpt>
      <trkpt lat="59.224677391429" lon="17.881641951401">
        <ele>41.6</ele>
        <time>2017-07-21T13:44:36Z</time>
      </trkpt>
      <trkpt lat="59.224615700645" lon="17.881718059053">
        <ele>41.6</ele>
        <time>2017-07-21T13:44:38Z</time>
      </trkpt>
      <trkpt lat="59.224594075343" lon="17.881745719323">
        <ele>42</ele>
        <time>2017-07-21T13:44:39Z</time>
      </trkpt>
      <trkpt lat="59.224594410619" lon="17.881764746236">
        <ele>42.4</ele>
        <time>2017-07-21T13:44:40Z</time>
      </trkpt>
      <trkpt lat="59.224577730638" lon="17.881789472841">
        <ele>42.8</ele>
        <time>2017-07-21T13:44:41Z</time>
      </trkpt>
      <trkpt lat="59.224560631562" lon="17.881815456731">
        <ele>43.2</ele>
        <time>2017-07-21T13:44:42Z</time>
      </trkpt>
      <trkpt lat="59.224546633789" lon="17.881854181109">
        <ele>43.6</ele>
        <time>2017-07-21T13:44:43Z</time>
      </trkpt>
      <trkpt lat="59.224509418153" lon="17.881938083928">
        <ele>43.6</ele>
        <time>2017-07-21T13:44:46Z</time>
      </trkpt>
      <trkpt lat="59.224484859186" lon="17.881984687292">
        <ele>43.6</ele>
        <time>2017-07-21T13:44:49Z</time>
      </trkpt>
      <trkpt lat="59.224482596073" lon="17.882001702549">
        <ele>43.6</ele>
        <time>2017-07-21T13:44:50Z</time>
      </trkpt>
      <trkpt lat="59.224476225829" lon="17.882032464122">
        <ele>43.6</ele>
        <time>2017-07-21T13:44:51Z</time>
      </trkpt>
      <trkpt lat="59.224449152292" lon="17.882121982814">
        <ele>43.6</ele>
        <time>2017-07-21T13:44:53Z</time>
      </trkpt>
      <trkpt lat="59.224417552529" lon="17.882208316384">
        <ele>43.6</ele>
        <time>2017-07-21T13:44:55Z</time>
      </trkpt>
      <trkpt lat="59.224369943337" lon="17.88231091084">
        <ele>43.6</ele>
        <time>2017-07-21T13:44:57Z</time>
      </trkpt>
      <trkpt lat="59.224335829004" lon="17.882348880847">
        <ele>43.6</ele>
        <time>2017-07-21T13:44:58Z</time>
      </trkpt>
      <trkpt lat="59.224205658097" lon="17.882506292929">
        <ele>43.6</ele>
        <time>2017-07-21T13:45:02Z</time>
      </trkpt>
      <trkpt lat="59.224144805503" lon="17.882702177932">
        <ele>43.2</ele>
        <time>2017-07-21T13:45:05Z</time>
      </trkpt>
      <trkpt lat="59.224125275676" lon="17.882795133203">
        <ele>42.8</ele>
        <time>2017-07-21T13:45:06Z</time>
      </trkpt>
      <trkpt lat="59.224091328981" lon="17.882857243082">
        <ele>42.4</ele>
        <time>2017-07-21T13:45:07Z</time>
      </trkpt>
      <trkpt lat="59.224045479988" lon="17.882939218064">
        <ele>41.6</ele>
        <time>2017-07-21T13:45:08Z</time>
      </trkpt>
      <trkpt lat="59.223992087285" lon="17.883038627398">
        <ele>41</ele>
        <time>2017-07-21T13:45:09Z</time>
      </trkpt>
      <trkpt lat="59.223947747034" lon="17.883165445545">
        <ele>40</ele>
        <time>2017-07-21T13:45:10Z</time>
      </trkpt>
      <trkpt lat="59.223905753715" lon="17.883284636163">
        <ele>39.2</ele>
        <time>2017-07-21T13:45:11Z</time>
      </trkpt>
      <trkpt lat="59.223860742912" lon="17.883424697712">
        <ele>38</ele>
        <time>2017-07-21T13:45:12Z</time>
      </trkpt>
      <trkpt lat="59.223819252507" lon="17.883537015172">
        <ele>37</ele>
        <time>2017-07-21T13:45:13Z</time>
      </trkpt>
      <trkpt lat="59.223753957506" lon="17.883612033177">
        <ele>35.8</ele>
        <time>2017-07-21T13:45:14Z</time>
      </trkpt>
      <trkpt lat="59.223674748551" lon="17.883690906856">
        <ele>34.8</ele>
        <time>2017-07-21T13:45:15Z</time>
      </trkpt>
      <trkpt lat="59.223584559307" lon="17.883759554617">
        <ele>33.4</ele>
        <time>2017-07-21T13:45:16Z</time>
      </trkpt>
      <trkpt lat="59.223480539928" lon="17.883840104676">
        <ele>32</ele>
        <time>2017-07-21T13:45:17Z</time>
      </trkpt>
      <trkpt lat="59.223372413418" lon="17.883910680274">
        <ele>30.6</ele>
        <time>2017-07-21T13:45:18Z</time>
      </trkpt>
      <trkpt lat="59.223288929694" lon="17.883980417682">
        <ele>29.4</ele>
        <time>2017-07-21T13:45:19Z</time>
      </trkpt>
      <trkpt lat="59.223221203942" lon="17.884039090982">
        <ele>28</ele>
        <time>2017-07-21T13:45:20Z</time>
      </trkpt>
      <trkpt lat="59.223160518986" lon="17.884097429006">
        <ele>26.8</ele>
        <time>2017-07-21T13:45:21Z</time>
      </trkpt>
      <trkpt lat="59.223101678048" lon="17.884144367646">
        <ele>25.4</ele>
        <time>2017-07-21T13:45:22Z</time>
      </trkpt>
      <trkpt lat="59.222985002" lon="17.884245704817">
        <ele>25.4</ele>
        <time>2017-07-21T13:45:25Z</time>
      </trkpt>
      <trkpt lat="59.222923311216" lon="17.884319716994">
        <ele>25.8</ele>
        <time>2017-07-21T13:45:27Z</time>
      </trkpt>
      <trkpt lat="59.222880395888" lon="17.884371433317">
        <ele>26.2</ele>
        <time>2017-07-21T13:45:28Z</time>
      </trkpt>
      <trkpt lat="59.222851226876" lon="17.884404290365">
        <ele>26.8</ele>
        <time>2017-07-21T13:45:29Z</time>
      </trkpt>
      <trkpt lat="59.222820968217" lon="17.884432537368">
        <ele>27.2</ele>
        <time>2017-07-21T13:45:30Z</time>
      </trkpt>
      <trkpt lat="59.22279305649" lon="17.884469417728">
        <ele>27.6</ele>
        <time>2017-07-21T13:45:31Z</time>
      </trkpt>
      <trkpt lat="59.222745531117" lon="17.884532784892">
        <ele>27.6</ele>
        <time>2017-07-21T13:45:33Z</time>
      </trkpt>
      <trkpt lat="59.222735808113" lon="17.884569329976">
        <ele>27.6</ele>
        <time>2017-07-21T13:45:34Z</time>
      </trkpt>
      <trkpt lat="59.222725330738" lon="17.884592631658">
        <ele>27.6</ele>
        <time>2017-07-21T13:45:36Z</time>
      </trkpt>
      <trkpt lat="59.222709740404" lon="17.884693633553">
        <ele>27.6</ele>
        <time>2017-07-21T13:48:00Z</time>
      </trkpt>
      <trkpt lat="59.222707393472" lon="17.88471735433">
        <ele>27.6</ele>
        <time>2017-07-21T13:48:01Z</time>
      </trkpt>
      <trkpt lat="59.222709991861" lon="17.884909802754">
        <ele>27.6</ele>
        <time>2017-07-21T13:48:07Z</time>
      </trkpt>
      <trkpt lat="59.222717200295" lon="17.884987754424">
        <ele>27.6</ele>
        <time>2017-07-21T13:48:10Z</time>
      </trkpt>
      <trkpt lat="59.222709656585" lon="17.885047265914">
        <ele>27.6</ele>
        <time>2017-07-21T13:48:13Z</time>
      </trkpt>
      <trkpt lat="59.222718541399" lon="17.885222950538">
        <ele>28.4</ele>
        <time>2017-07-21T13:48:18Z</time>
      </trkpt>
      <trkpt lat="59.222723151444" lon="17.885270643549">
        <ele>28.8</ele>
        <time>2017-07-21T13:48:19Z</time>
      </trkpt>
      <trkpt lat="59.222728096765" lon="17.885303584416">
        <ele>29.2</ele>
        <time>2017-07-21T13:48:20Z</time>
      </trkpt>
      <trkpt lat="59.222733293543" lon="17.885350942151">
        <ele>29.6</ele>
        <time>2017-07-21T13:48:21Z</time>
      </trkpt>
      <trkpt lat="59.222753158646" lon="17.88563181962">
        <ele>29.6</ele>
        <time>2017-07-21T13:48:26Z</time>
      </trkpt>
      <trkpt lat="59.22275198518" lon="17.885703149589">
        <ele>29.6</ele>
        <time>2017-07-21T13:48:27Z</time>
      </trkpt>
      <trkpt lat="59.222758355424" lon="17.885764002183">
        <ele>30</ele>
        <time>2017-07-21T13:48:28Z</time>
      </trkpt>
      <trkpt lat="59.222758942157" lon="17.885831895573">
        <ele>30.4</ele>
        <time>2017-07-21T13:48:29Z</time>
      </trkpt>
      <trkpt lat="59.222748548601" lon="17.885902052076">
        <ele>30.8</ele>
        <time>2017-07-21T13:48:30Z</time>
      </trkpt>
      <trkpt lat="59.222750476438" lon="17.885957204978">
        <ele>31.2</ele>
        <time>2017-07-21T13:48:31Z</time>
      </trkpt>
      <trkpt lat="59.222753158646" lon="17.886032725897">
        <ele>31.6</ele>
        <time>2017-07-21T13:48:32Z</time>
      </trkpt>
      <trkpt lat="59.22276288165" lon="17.886330115709">
        <ele>31.6</ele>
        <time>2017-07-21T13:48:36Z</time>
      </trkpt>
      <trkpt lat="59.222774113396" lon="17.886404546981">
        <ele>31.6</ele>
        <time>2017-07-21T13:48:37Z</time>
      </trkpt>
      <trkpt lat="59.222804874969" lon="17.88673403947">
        <ele>32.2</ele>
        <time>2017-07-21T13:48:41Z</time>
      </trkpt>
      <trkpt lat="59.222804958788" lon="17.886806962">
        <ele>33</ele>
        <time>2017-07-21T13:48:42Z</time>
      </trkpt>
      <trkpt lat="59.22281820219" lon="17.88685976797">
        <ele>33.4</ele>
        <time>2017-07-21T13:48:43Z</time>
      </trkpt>
      <trkpt lat="59.222822644597" lon="17.886930678844">
        <ele>34</ele>
        <time>2017-07-21T13:48:44Z</time>
      </trkpt>
      <trkpt lat="59.222834043981" lon="17.887087336555">
        <ele>34</ele>
        <time>2017-07-21T13:48:46Z</time>
      </trkpt>
      <trkpt lat="59.222856926568" lon="17.887505593365">
        <ele>34</ele>
        <time>2017-07-21T13:48:52Z</time>
      </trkpt>
      <trkpt lat="59.222860782242" lon="17.887826368678">
        <ele>34</ele>
        <time>2017-07-21T13:48:57Z</time>
      </trkpt>
      <trkpt lat="59.222868409771" lon="17.888249738447">
        <ele>34</ele>
        <time>2017-07-21T13:49:03Z</time>
      </trkpt>
      <trkpt lat="59.222880898802" lon="17.888465991467">
        <ele>34</ele>
        <time>2017-07-21T13:49:06Z</time>
      </trkpt>
      <trkpt lat="59.222876456395" lon="17.888631953087">
        <ele>34</ele>
        <time>2017-07-21T13:49:08Z</time>
      </trkpt>
      <trkpt lat="59.222865811382" lon="17.888929761994">
        <ele>34</ele>
        <time>2017-07-21T13:49:11Z</time>
      </trkpt>
      <trkpt lat="59.222864889373" lon="17.889042330911">
        <ele>34</ele>
        <time>2017-07-21T13:49:12Z</time>
      </trkpt>
      <trkpt lat="59.222850640143" lon="17.8898160641">
        <ele>34</ele>
        <time>2017-07-21T13:49:19Z</time>
      </trkpt>
      <trkpt lat="59.222794481413" lon="17.890413442113">
        <ele>34</ele>
        <time>2017-07-21T13:49:25Z</time>
      </trkpt>
      <trkpt lat="59.222750644076" lon="17.890746790276">
        <ele>34</ele>
        <time>2017-07-21T13:49:29Z</time>
      </trkpt>
      <trkpt lat="59.222703118703" lon="17.890886181273">
        <ele>34</ele>
        <time>2017-07-21T13:49:31Z</time>
      </trkpt>
      <trkpt lat="59.22268660636" lon="17.890963881486">
        <ele>34</ele>
        <time>2017-07-21T13:49:32Z</time>
      </trkpt>
      <trkpt lat="59.222624412662" lon="17.891247944077">
        <ele>34</ele>
        <time>2017-07-21T13:49:36Z</time>
      </trkpt>
      <trkpt lat="59.222549227019" lon="17.891503927303">
        <ele>34</ele>
        <time>2017-07-21T13:49:39Z</time>
      </trkpt>
      <trkpt lat="59.222525925337" lon="17.89157542491">
        <ele>34</ele>
        <time>2017-07-21T13:49:40Z</time>
      </trkpt>
      <trkpt lat="59.222511257012" lon="17.891645162318">
        <ele>34</ele>
        <time>2017-07-21T13:49:41Z</time>
      </trkpt>
      <trkpt lat="59.22246029506" lon="17.891783547487">
        <ele>33.6</ele>
        <time>2017-07-21T13:49:43Z</time>
      </trkpt>
      <trkpt lat="59.222430539315" lon="17.89185873313">
        <ele>33</ele>
        <time>2017-07-21T13:49:44Z</time>
      </trkpt>
      <trkpt lat="59.222396927896" lon="17.891920591552">
        <ele>32.6</ele>
        <time>2017-07-21T13:49:45Z</time>
      </trkpt>
      <trkpt lat="59.22236725597" lon="17.891990831874">
        <ele>32.2</ele>
        <time>2017-07-21T13:49:46Z</time>
      </trkpt>
      <trkpt lat="59.222344205745" lon="17.892053025572">
        <ele>31.8</ele>
        <time>2017-07-21T13:49:47Z</time>
      </trkpt>
      <trkpt lat="59.222288214653" lon="17.89221496388">
        <ele>31.8</ele>
        <time>2017-07-21T13:49:49Z</time>
      </trkpt>
      <trkpt lat="59.22213172458" lon="17.892564572929">
        <ele>31.8</ele>
        <time>2017-07-21T13:49:55Z</time>
      </trkpt>
      <trkpt lat="59.221989399918" lon="17.89274805272">
        <ele>31.8</ele>
        <time>2017-07-21T13:49:59Z</time>
      </trkpt>
      <trkpt lat="59.221942461278" lon="17.892797254473">
        <ele>31.8</ele>
        <time>2017-07-21T13:50:00Z</time>
      </trkpt>
      <trkpt lat="59.221654040099" lon="17.893020548289">
        <ele>31.8</ele>
        <time>2017-07-21T13:50:06Z</time>
      </trkpt>
      <trkpt lat="59.221602659052" lon="17.893066816377">
        <ele>31.4</ele>
        <time>2017-07-21T13:50:07Z</time>
      </trkpt>
      <trkpt lat="59.221554630765" lon="17.893114844664">
        <ele>30.8</ele>
        <time>2017-07-21T13:50:08Z</time>
      </trkpt>
      <trkpt lat="59.221509284686" lon="17.893174356154">
        <ele>30.4</ele>
        <time>2017-07-21T13:50:09Z</time>
      </trkpt>
      <trkpt lat="59.221465028254" lon="17.893237471861">
        <ele>30</ele>
        <time>2017-07-21T13:50:10Z</time>
      </trkpt>
      <trkpt lat="59.221422532021" lon="17.893309723839">
        <ele>29.4</ele>
        <time>2017-07-21T13:50:11Z</time>
      </trkpt>
      <trkpt lat="59.221390596982" lon="17.893398739617">
        <ele>29.4</ele>
        <time>2017-07-21T13:50:12Z</time>
      </trkpt>
      <trkpt lat="59.221327229818" lon="17.893584314883">
        <ele>29.4</ele>
        <time>2017-07-21T13:50:14Z</time>
      </trkpt>
      <trkpt lat="59.22129772553" lon="17.893686741701">
        <ele>29.4</ele>
        <time>2017-07-21T13:50:15Z</time>
      </trkpt>
      <trkpt lat="59.221131177177" lon="17.894256207987">
        <ele>29.4</ele>
        <time>2017-07-21T13:50:21Z</time>
      </trkpt>
      <trkpt lat="59.221102594898" lon="17.894335081666">
        <ele>29.4</ele>
        <time>2017-07-21T13:50:22Z</time>
      </trkpt>
      <trkpt lat="59.221067055642" lon="17.894405657264">
        <ele>29.4</ele>
        <time>2017-07-21T13:50:23Z</time>
      </trkpt>
      <trkpt lat="59.220942919703" lon="17.894581090431">
        <ele>29.4</ele>
        <time>2017-07-21T13:50:26Z</time>
      </trkpt>
      <trkpt lat="59.220898998547" lon="17.894622832293">
        <ele>29.4</ele>
        <time>2017-07-21T13:50:27Z</time>
      </trkpt>
      <trkpt lat="59.220705628114" lon="17.894820393676">
        <ele>29.4</ele>
        <time>2017-07-21T13:50:31Z</time>
      </trkpt>
      <trkpt lat="59.220619797458" lon="17.894918797182">
        <ele>29.4</ele>
        <time>2017-07-21T13:50:33Z</time>
      </trkpt>
      <trkpt lat="59.220459619349" lon="17.895091045227">
        <ele>29.4</ele>
        <time>2017-07-21T13:50:37Z</time>
      </trkpt>
      <trkpt lat="59.220377728186" lon="17.895166985241">
        <ele>29.4</ele>
        <time>2017-07-21T13:50:39Z</time>
      </trkpt>
      <trkpt lat="59.220201959743" lon="17.895281230538">
        <ele>29.4</ele>
        <time>2017-07-21T13:50:44Z</time>
      </trkpt>
      <trkpt lat="59.220172287817" lon="17.895350465032">
        <ele>29.4</ele>
        <time>2017-07-21T13:50:45Z</time>
      </trkpt>
      <trkpt lat="59.220130378317" lon="17.895515588462">
        <ele>29</ele>
        <time>2017-07-21T13:50:47Z</time>
      </trkpt>
      <trkpt lat="59.220113279241" lon="17.895602257308">
        <ele>28.6</ele>
        <time>2017-07-21T13:50:48Z</time>
      </trkpt>
      <trkpt lat="59.220098024183" lon="17.895684316109">
        <ele>28.2</ele>
        <time>2017-07-21T13:50:49Z</time>
      </trkpt>
      <trkpt lat="59.220083607315" lon="17.895764027978">
        <ele>27.8</ele>
        <time>2017-07-21T13:50:50Z</time>
      </trkpt>
      <trkpt lat="59.220063155479" lon="17.895838375431">
        <ele>27.4</ele>
        <time>2017-07-21T13:50:51Z</time>
      </trkpt>
      <trkpt lat="59.220015462468" lon="17.896047503836">
        <ele>27.4</ele>
        <time>2017-07-21T13:50:54Z</time>
      </trkpt>
      <trkpt lat="59.219955112788" lon="17.896340283603">
        <ele>27.4</ele>
        <time>2017-07-21T13:50:58Z</time>
      </trkpt>
      <trkpt lat="59.219899037877" lon="17.896589645128">
        <ele>27.4</ele>
        <time>2017-07-21T13:51:01Z</time>
      </trkpt>
      <trkpt lat="59.219855619635" lon="17.896753092178">
        <ele>27.4</ele>
        <time>2017-07-21T13:51:03Z</time>
      </trkpt>
      <trkpt lat="59.219757551405" lon="17.897061462279">
        <ele>27.4</ele>
        <time>2017-07-21T13:51:07Z</time>
      </trkpt>
      <trkpt lat="59.219564097153" lon="17.89775037064">
        <ele>27.4</ele>
        <time>2017-07-21T13:51:15Z</time>
      </trkpt>
      <trkpt lat="59.219493605374" lon="17.89802781153">
        <ele>27.4</ele>
        <time>2017-07-21T13:51:18Z</time>
      </trkpt>
      <trkpt lat="59.219418000636" lon="17.898289494448">
        <ele>27.4</ele>
        <time>2017-07-21T13:51:21Z</time>
      </trkpt>
      <trkpt lat="59.219294954344" lon="17.898753432613">
        <ele>27.4</ele>
        <time>2017-07-21T13:51:27Z</time>
      </trkpt>
      <trkpt lat="59.219212811724" lon="17.899079237066">
        <ele>27.4</ele>
        <time>2017-07-21T13:51:31Z</time>
      </trkpt>
      <trkpt lat="59.219176853373" lon="17.899242851754">
        <ele>27.4</ele>
        <time>2017-07-21T13:51:33Z</time>
      </trkpt>
      <trkpt lat="59.219114408218" lon="17.899527752535">
        <ele>27.4</ele>
        <time>2017-07-21T13:51:38Z</time>
      </trkpt>
      <trkpt lat="59.219122371023" lon="17.899740568976">
        <ele>27.8</ele>
        <time>2017-07-21T13:51:42Z</time>
      </trkpt>
      <trkpt lat="59.219149025465" lon="17.899781807924">
        <ele>28.2</ele>
        <time>2017-07-21T13:51:43Z</time>
      </trkpt>
      <trkpt lat="59.219176182821" lon="17.899822627777">
        <ele>28.8</ele>
        <time>2017-07-21T13:51:44Z</time>
      </trkpt>
      <trkpt lat="59.219212392629" lon="17.899852383522">
        <ele>29.2</ele>
        <time>2017-07-21T13:51:45Z</time>
      </trkpt>
      <trkpt lat="59.219243154202" lon="17.899881971629">
        <ele>29.6</ele>
        <time>2017-07-21T13:51:46Z</time>
      </trkpt>
      <trkpt lat="59.219381958466" lon="17.899954139788">
        <ele>29.6</ele>
        <time>2017-07-21T13:51:50Z</time>
      </trkpt>
      <trkpt lat="59.219577005279" lon="17.900097051183">
        <ele>29.6</ele>
        <time>2017-07-21T13:51:56Z</time>
      </trkpt>
      <trkpt lat="59.21968923892" lon="17.900167626781">
        <ele>30</ele>
        <time>2017-07-21T13:51:59Z</time>
      </trkpt>
      <trkpt lat="59.219726203099" lon="17.900195203232">
        <ele>30.8</ele>
        <time>2017-07-21T13:52:00Z</time>
      </trkpt>
      <trkpt lat="59.2197663524" lon="17.900219426923">
        <ele>31.4</ele>
        <time>2017-07-21T13:52:01Z</time>
      </trkpt>
      <trkpt lat="59.219799209448" lon="17.900244153528">
        <ele>31.8</ele>
        <time>2017-07-21T13:52:02Z</time>
      </trkpt>
      <trkpt lat="59.21982418751" lon="17.900266700839">
        <ele>31.8</ele>
        <time>2017-07-21T13:52:03Z</time>
      </trkpt>
      <trkpt lat="59.219911107813" lon="17.900336522066">
        <ele>32.2</ele>
        <time>2017-07-21T13:52:06Z</time>
      </trkpt>
      <trkpt lat="59.219938432807" lon="17.900348508183">
        <ele>32.6</ele>
        <time>2017-07-21T13:52:07Z</time>
      </trkpt>
      <trkpt lat="59.219965422525" lon="17.900364769069">
        <ele>33</ele>
        <time>2017-07-21T13:52:08Z</time>
      </trkpt>
      <trkpt lat="59.219993166614" lon="17.90037809629">
        <ele>33.6</ele>
        <time>2017-07-21T13:52:09Z</time>
      </trkpt>
      <trkpt lat="59.220013115536" lon="17.900391926425">
        <ele>34</ele>
        <time>2017-07-21T13:52:10Z</time>
      </trkpt>
      <trkpt lat="59.220091486301" lon="17.90045520977">
        <ele>34</ele>
        <time>2017-07-21T13:52:14Z</time>
      </trkpt>
      <trkpt lat="59.22015946351" lon="17.90048035547">
        <ele>34.4</ele>
        <time>2017-07-21T13:52:17Z</time>
      </trkpt>
      <trkpt lat="59.220178825699" lon="17.900496951632">
        <ele>34.8</ele>
        <time>2017-07-21T13:52:18Z</time>
      </trkpt>
      <trkpt lat="59.220202462657" lon="17.900512793423">
        <ele>35.2</ele>
        <time>2017-07-21T13:52:19Z</time>
      </trkpt>
      <trkpt lat="59.220228698004" lon="17.900531736517">
        <ele>35.6</ele>
        <time>2017-07-21T13:52:20Z</time>
      </trkpt>
      <trkpt lat="59.220248479288" lon="17.900556714579">
        <ele>36</ele>
        <time>2017-07-21T13:52:21Z</time>
      </trkpt>
      <trkpt lat="59.220363898051" lon="17.900661069234">
        <ele>36</ele>
        <time>2017-07-21T13:52:26Z</time>
      </trkpt>
      <trkpt lat="59.220409830863" lon="17.900842621188">
        <ele>36</ele>
        <time>2017-07-21T13:52:31Z</time>
      </trkpt>
      <trkpt lat="59.220455428399" lon="17.901183932156">
        <ele>36</ele>
        <time>2017-07-21T13:52:36Z</time>
      </trkpt>
      <trkpt lat="59.220536984286" lon="17.901474029715">
        <ele>36</ele>
        <time>2017-07-21T13:52:41Z</time>
      </trkpt>
      <trkpt lat="59.22061124792" lon="17.901835457243">
        <ele>36</ele>
        <time>2017-07-21T13:52:48Z</time>
      </trkpt>
      <trkpt lat="59.220625580969" lon="17.901881473874">
        <ele>37</ele>
        <time>2017-07-21T13:52:49Z</time>
      </trkpt>
      <trkpt lat="59.220632118851" lon="17.901932603464">
        <ele>37.4</ele>
        <time>2017-07-21T13:52:50Z</time>
      </trkpt>
      <trkpt lat="59.220641171303" lon="17.901984822701">
        <ele>38</ele>
        <time>2017-07-21T13:52:51Z</time>
      </trkpt>
      <trkpt lat="59.220652403049" lon="17.902038969775">
        <ele>38.4</ele>
        <time>2017-07-21T13:52:52Z</time>
      </trkpt>
      <trkpt lat="59.220681572061" lon="17.902138379109">
        <ele>38.4</ele>
        <time>2017-07-21T13:52:54Z</time>
      </trkpt>
      <trkpt lat="59.22075038746" lon="17.902447838857">
        <ele>38.8</ele>
        <time>2017-07-21T13:53:00Z</time>
      </trkpt>
      <trkpt lat="59.220762708853" lon="17.902501734474">
        <ele>39.2</ele>
        <time>2017-07-21T13:53:01Z</time>
      </trkpt>
      <trkpt lat="59.2207721804" lon="17.902560240136">
        <ele>39.8</ele>
        <time>2017-07-21T13:53:02Z</time>
      </trkpt>
      <trkpt lat="59.220781316671" lon="17.902626038051">
        <ele>40.2</ele>
        <time>2017-07-21T13:53:03Z</time>
      </trkpt>
      <trkpt lat="59.220795984996" lon="17.902691081595">
        <ele>40.6</ele>
        <time>2017-07-21T13:53:04Z</time>
      </trkpt>
      <trkpt lat="59.220825908379" lon="17.902888726797">
        <ele>40.6</ele>
        <time>2017-07-21T13:53:07Z</time>
      </trkpt>
      <trkpt lat="59.22088282148" lon="17.903201287848">
        <ele>40.6</ele>
        <time>2017-07-21T13:53:11Z</time>
      </trkpt>
      <trkpt lat="59.220948284119" lon="17.903581826108">
        <ele>40.6</ele>
        <time>2017-07-21T13:53:15Z</time>
      </trkpt>
      <trkpt lat="59.220959432046" lon="17.903671680076">
        <ele>40.6</ele>
        <time>2017-07-21T13:53:16Z</time>
      </trkpt>
      <trkpt lat="59.221043083408" lon="17.904293030323">
        <ele>40.6</ele>
        <time>2017-07-21T13:53:22Z</time>
      </trkpt>
      <trkpt lat="59.221154227402" lon="17.905022255623">
        <ele>40</ele>
        <time>2017-07-21T13:53:29Z</time>
      </trkpt>
      <trkpt lat="59.221164285682" lon="17.905114372704">
        <ele>39.6</ele>
        <time>2017-07-21T13:53:30Z</time>
      </trkpt>
      <trkpt lat="59.221174930695" lon="17.905223337404">
        <ele>39</ele>
        <time>2017-07-21T13:53:31Z</time>
      </trkpt>
      <trkpt lat="59.221184234604" lon="17.905331044819">
        <ele>38.6</ele>
        <time>2017-07-21T13:53:32Z</time>
      </trkpt>
      <trkpt lat="59.221201668956" lon="17.905438165501">
        <ele>38.2</ele>
        <time>2017-07-21T13:53:33Z</time>
      </trkpt>
      <trkpt lat="59.221221701697" lon="17.905546627287">
        <ele>38.2</ele>
        <time>2017-07-21T13:53:34Z</time>
      </trkpt>
      <trkpt lat="59.221269143251" lon="17.905887016246">
        <ele>37.6</ele>
        <time>2017-07-21T13:53:37Z</time>
      </trkpt>
      <trkpt lat="59.221280877911" lon="17.906013750574">
        <ele>36.8</ele>
        <time>2017-07-21T13:53:38Z</time>
      </trkpt>
      <trkpt lat="59.22129604915" lon="17.906128750242">
        <ele>36.4</ele>
        <time>2017-07-21T13:53:39Z</time>
      </trkpt>
      <trkpt lat="59.221307197077" lon="17.906236290019">
        <ele>36</ele>
        <time>2017-07-21T13:53:40Z</time>
      </trkpt>
      <trkpt lat="59.221336533727" lon="17.90658992238">
        <ele>35.4</ele>
        <time>2017-07-21T13:53:43Z</time>
      </trkpt>
      <trkpt lat="59.2213589134" lon="17.90670056346">
        <ele>35</ele>
        <time>2017-07-21T13:53:44Z</time>
      </trkpt>
      <trkpt lat="59.221371318612" lon="17.90682042463">
        <ele>34.6</ele>
        <time>2017-07-21T13:53:45Z</time>
      </trkpt>
      <trkpt lat="59.221385986937" lon="17.906944560569">
        <ele>34.2</ele>
        <time>2017-07-21T13:53:46Z</time>
      </trkpt>
      <trkpt lat="59.221404678574" lon="17.907050340147">
        <ele>33.8</ele>
        <time>2017-07-21T13:53:47Z</time>
      </trkpt>
      <trkpt lat="59.221452623042" lon="17.907391315839">
        <ele>33.8</ele>
        <time>2017-07-21T13:53:50Z</time>
      </trkpt>
      <trkpt lat="59.221453293594" lon="17.907481169807">
        <ele>33.8</ele>
        <time>2017-07-21T13:53:51Z</time>
      </trkpt>
      <trkpt lat="59.221465279711" lon="17.907762634009">
        <ele>33.8</ele>
        <time>2017-07-21T13:53:55Z</time>
      </trkpt>
      <trkpt lat="59.221454969974" lon="17.907945191791">
        <ele>33.8</ele>
        <time>2017-07-21T13:53:59Z</time>
      </trkpt>
      <trkpt lat="59.22143937964" lon="17.908040996908">
        <ele>33.8</ele>
        <time>2017-07-21T13:54:03Z</time>
      </trkpt>
      <trkpt lat="59.22142010127" lon="17.908021299443">
        <ele>33.8</ele>
        <time>2017-07-21T13:54:04Z</time>
      </trkpt>
      <trkpt lat="59.221304095774" lon="17.908089947204">
        <ele>33.8</ele>
        <time>2017-07-21T13:54:08Z</time>
      </trkpt>
      <trkpt lat="59.221119274879" lon="17.908218777007">
        <ele>33.8</ele>
        <time>2017-07-21T13:54:14Z</time>
      </trkpt>
      <trkpt lat="59.22104207758" lon="17.908241743413">
        <ele>33.4</ele>
        <time>2017-07-21T13:54:16Z</time>
      </trkpt>
      <trkpt lat="59.221008885256" lon="17.908256663195">
        <ele>33</ele>
        <time>2017-07-21T13:54:17Z</time>
      </trkpt>
      <trkpt lat="59.220974938561" lon="17.908280216334">
        <ele>32.6</ele>
        <time>2017-07-21T13:54:18Z</time>
      </trkpt>
      <trkpt lat="59.220945518092" lon="17.908315168857">
        <ele>32.2</ele>
        <time>2017-07-21T13:54:19Z</time>
      </trkpt>
      <trkpt lat="59.220913918329" lon="17.908349786104">
        <ele>31.8</ele>
        <time>2017-07-21T13:54:20Z</time>
      </trkpt>
      <trkpt lat="59.220714764385" lon="17.908462019745">
        <ele>31.8</ele>
        <time>2017-07-21T13:54:25Z</time>
      </trkpt>
      <trkpt lat="59.22067578855" lon="17.908493535689">
        <ele>31.4</ele>
        <time>2017-07-21T13:54:26Z</time>
      </trkpt>
      <trkpt lat="59.220631615937" lon="17.908545168193">
        <ele>31</ele>
        <time>2017-07-21T13:54:27Z</time>
      </trkpt>
      <trkpt lat="59.220619210725" lon="17.908595459593">
        <ele>30.2</ele>
        <time>2017-07-21T13:54:28Z</time>
      </trkpt>
      <trkpt lat="59.220589538799" lon="17.908627478451">
        <ele>29.8</ele>
        <time>2017-07-21T13:54:29Z</time>
      </trkpt>
      <trkpt lat="59.220527512739" lon="17.908564865658">
        <ele>29.8</ele>
        <time>2017-07-21T13:54:31Z</time>
      </trkpt>
      <trkpt lat="59.220497170261" lon="17.908559082147">
        <ele>29.8</ele>
        <time>2017-07-21T13:54:32Z</time>
      </trkpt>
      <trkpt lat="59.220465319041" lon="17.908577606146">
        <ele>29.8</ele>
        <time>2017-07-21T13:54:33Z</time>
      </trkpt>
      <trkpt lat="59.220404298809" lon="17.908545084374">
        <ele>29.8</ele>
        <time>2017-07-21T13:54:35Z</time>
      </trkpt>
      <trkpt lat="59.220335902505" lon="17.908424468833">
        <ele>29.8</ele>
        <time>2017-07-21T13:54:38Z</time>
      </trkpt>
      <trkpt lat="59.220307320226" lon="17.908397227658">
        <ele>29.8</ele>
        <time>2017-07-21T13:54:39Z</time>
      </trkpt>
      <trkpt lat="59.220189973626" lon="17.908115511999">
        <ele>29.8</ele>
        <time>2017-07-21T13:54:43Z</time>
      </trkpt>
      <trkpt lat="59.220132138516" lon="17.908034459026">
        <ele>29.8</ele>
        <time>2017-07-21T13:54:44Z</time>
      </trkpt>
      <trkpt lat="59.22007480632" lon="17.90790671887">
        <ele>29.2</ele>
        <time>2017-07-21T13:54:45Z</time>
      </trkpt>
      <trkpt lat="59.220023928187" lon="17.907787947347">
        <ele>28.8</ele>
        <time>2017-07-21T13:54:46Z</time>
      </trkpt>
      <trkpt lat="59.219977073366" lon="17.907677473905">
        <ele>28.4</ele>
        <time>2017-07-21T13:54:47Z</time>
      </trkpt>
      <trkpt lat="59.219936672608" lon="17.907561552228">
        <ele>27.8</ele>
        <time>2017-07-21T13:54:48Z</time>
      </trkpt>
      <trkpt lat="59.219889733968" lon="17.907484438748">
        <ele>27.4</ele>
        <time>2017-07-21T13:54:49Z</time>
      </trkpt>
      <trkpt lat="59.219859894404" lon="17.90740883401">
        <ele>27.4</ele>
        <time>2017-07-21T13:54:50Z</time>
      </trkpt>
      <trkpt lat="59.21976048507" lon="17.907171961516">
        <ele>27.4</ele>
        <time>2017-07-21T13:54:54Z</time>
      </trkpt>
    </trkseg>
  </trk>
</gpx>